BA867 / G-EUUR 7700 Squawk Report (27th of January, 2020)

Aircraft A320 Reg No. G-EUUR Age 16 years old
Model A320 Jet engines 2 First flight 21-05-03
Registered 29-07-03 Rollout 05-03 Delivered 29-07-03
Construction No. 2040 Line No. N/A Series 232
ADSHEX 400A26 Airline name British Airways Owner N/A
Airfield based Heathrow~Gtr London~G First tracked 2017-07-13 07:15:00

Flight history for G-EUUR

Route Flight No Date Playback
Heathrow (LHR) - Barcelona–El Prat (BCN) BA480 2020-02-17 15:25:00
Provence (MRS) - Heathrow (LHR) BA367 2020-02-17 13:29:00
Heathrow (LHR) - Provence (MRS) BA366 2020-02-17 09:17:00
Hannover (HAJ) - Heathrow (LHR) BA979 2020-02-17 07:33:00
Heathrow (LHR) - Hannover (HAJ) BA978 2020-02-16 19:39:00
Václav Havel Airport Prague (PRG) - Heathrow (LHR) BA859 2020-02-16 17:39:00
Heathrow (LHR) - Václav Havel Airport Prague (PRG) BA852 2020-02-16 12:57:00
Schwechat (VIE) - Heathrow (LHR) BA699 2020-02-16 11:24:00
Heathrow (LHR) - Schwechat (VIE) BA706 2020-02-15 21:27:00
Barcelona–El Prat (BCN) - Heathrow (LHR) BA475 2020-02-15 19:26:00
Heathrow (LHR) - Barcelona–El Prat (BCN) BA474 2020-02-15 12:22:00
Schwechat (VIE) - Heathrow (LHR) BA699 2020-02-15 10:31:00
Heathrow (LHR) - Schwechat (VIE) BA706 2020-02-14 21:17:00
Barcelona–El Prat (BCN) - Heathrow (LHR) BA485 2020-02-14 16:21:00
Heathrow (LHR) - Barcelona–El Prat (BCN) BA484 2020-02-14 13:22:00
Lisbon (LIS) - Heathrow (LHR) BA499 2020-02-14 09:50:00
Heathrow (LHR) - Lisbon (LIS) BA504 2020-02-14 07:12:00
Schwechat (VIE) - Heathrow (LHR) BA703 2020-02-13 19:27:00
Heathrow (LHR) - Schwechat (VIE) BA702 2020-02-13 15:05:00
Hannover (HAJ) - Heathrow (LHR) BA977 2020-02-13 13:06:00
Time Lat Lon Altitude Heading Speed Vertical Rate
2020-01-27 19:20:49 GMT 51.469528 -0.459461 0 56 2 0
2020-01-27 19:20:40 GMT 51.469505 -0.459518 0 56 2 0
2020-01-27 19:20:31 GMT 51.469551 -0.459551 0 56 4 0
2020-01-27 19:20:22 GMT 51.469219 -0.460015 0 53 4 0
2020-01-27 19:20:12 GMT 51.469048 -0.460387 0 33 8 0
2020-01-27 19:20:01 GMT 51.468784 -0.460396 0 323 4 0
2020-01-27 19:19:51 GMT 51.468464 -0.460034 0 329 10 0
2020-01-27 19:19:33 GMT 51.467678 -0.459919 0 30 10 0
2020-01-27 19:19:27 GMT 51.467514 -0.460238 0 70 10 0
2020-01-27 19:19:18 GMT 51.467468 -0.461006 0 90 13 0
2020-01-27 19:19:06 GMT 51.467457 -0.462205 0 90 16 0
2020-01-27 19:18:59 GMT 51.467468 -0.463077 0 90 18 0
2020-01-27 19:18:48 GMT 51.467468 -0.464344 0 90 17 0
2020-01-27 19:18:35 GMT 51.467480 -0.465861 0 90 17 0
2020-01-27 19:18:31 GMT 51.467480 -0.466423 0 90 16 0
2020-01-27 19:18:22 GMT 51.467468 -0.467420 0 90 14 0
2020-01-27 19:18:17 GMT 51.467468 -0.467847 0 92 13 0
2020-01-27 19:18:11 GMT 51.467571 -0.468388 0 137 12 0
2020-01-27 19:18:05 GMT 51.467823 -0.468626 0 171 12 0
2020-01-27 19:17:55 GMT 51.468399 -0.468636 0 180 15 0
2020-01-27 19:17:44 GMT 51.469162 -0.468645 0 180 16 0
2020-01-27 19:17:35 GMT 51.469837 -0.468645 0 180 14 0
2020-01-27 19:17:24 GMT 51.470516 -0.468655 0 177 18 0
2020-01-27 19:17:13 GMT 51.471416 -0.468663 0 180 18 0
2020-01-27 19:17:04 GMT 51.472179 -0.468655 0 180 16 0
2020-01-27 19:16:53 GMT 51.472881 -0.468663 0 180 15 0
2020-01-27 19:16:40 GMT 51.473835 -0.468712 0 168 17 0
2020-01-27 19:16:32 GMT 51.474403 -0.468923 0 165 15 0
2020-01-27 19:16:22 GMT 51.475021 -0.469146 0 165 13 0
2020-01-27 19:16:11 GMT 51.475594 -0.469257 0 210 12 0
2020-01-27 19:16:06 GMT 51.475765 -0.469017 0 239 11 0
2020-01-27 19:16:01 GMT 51.475857 -0.468626 0 255 13 0
2020-01-27 19:15:56 GMT 51.475918 -0.468140 0 267 14 0
2020-01-27 19:15:51 GMT 51.475925 -0.467606 0 270 15 0
2020-01-27 19:15:43 GMT 51.475937 -0.466715 0 270 15 0
2020-01-27 19:15:39 GMT 51.475941 -0.466385 0 270 14 0
2020-01-27 19:15:28 GMT 51.475941 -0.465431 0 270 11 0
2020-01-27 19:15:09 GMT 51.475941 -0.464153 0 270 8 0
2020-01-27 19:14:51 GMT 51.475948 -0.463244 0 270 9 0
2020-01-27 19:14:42 GMT 51.475948 -0.462706 0 270 8 0
2020-01-27 19:14:38 GMT 51.475960 -0.462465 0 270 8 0
2020-01-27 19:14:06 GMT 51.476242 -0.460091 0 222 12 0
2020-01-27 19:13:23 GMT 51.477638 -0.453987 0 270 136 0
2020-01-27 19:13:17 GMT 51.477642 -0.451070 0 270 78 0
2020-01-27 19:12:59 GMT 51.477695 -0.436401 1,325 270 130 -704
2020-01-27 19:12:56 GMT 51.477722 -0.429432 725 270 133 -704
2020-01-27 19:12:53 GMT 51.477722 -0.429432 725 270 133 -704
2020-01-27 19:12:50 GMT 51.477722 -0.427428 775 270 133 -640
2020-01-27 19:12:46 GMT 51.477695 -0.422134 800 270 132 -704
2020-01-27 19:12:41 GMT 51.477745 -0.418243 825 270 132 -704
2020-01-27 19:12:38 GMT 51.477768 -0.414957 875 270 132 -704
2020-01-27 19:12:35 GMT 51.477768 -0.411393 925 270 132 -704
2020-01-27 19:12:31 GMT 51.477745 -0.408478 1,200 270 131 -640
2020-01-27 19:12:26 GMT 51.477768 -0.403228 1,125 270 131 -640
2020-01-27 19:12:23 GMT 51.477814 -0.399739 1,075 270 131 -640
2020-01-27 19:12:19 GMT 51.477791 -0.396423 1,100 270 131 -704
2020-01-27 19:12:16 GMT 51.477814 -0.393578 1,125 270 131 -704
2020-01-27 19:12:13 GMT 51.477791 -0.390625 1,225 270 131 -704
2020-01-27 19:12:10 GMT 51.477814 -0.387342 1,225 270 131 -704
2020-01-27 19:12:05 GMT 51.477814 -0.383482 1,275 270 130 -704
2020-01-27 19:12:02 GMT 51.477837 -0.379791 1,300 270 130 -704
2020-01-27 19:11:59 GMT 51.477882 -0.377502 1,350 270 130 -704
2020-01-27 19:11:56 GMT 51.477905 -0.374203 1,475 270 130 -768
2020-01-27 19:11:52 GMT 51.477882 -0.367508 1,450 270 130 -640
2020-01-27 19:11:49 GMT 51.477882 -0.367508 1,475 270 130 -640
2020-01-27 19:11:45 GMT 51.477905 -0.363440 1,575 270 129 -640
2020-01-27 19:11:42 GMT 51.477928 -0.359802 1,550 270 130 -640
2020-01-27 19:11:39 GMT 51.477905 -0.358095 1,575 270 129 -640
2020-01-27 19:11:36 GMT 51.477951 -0.355423 1,625 270 129 -640
2020-01-27 19:11:33 GMT 51.477928 -0.352554 1,650 270 129 -640
2020-01-27 19:11:30 GMT 51.477928 -0.349121 1,675 270 129 -640
2020-01-27 19:11:27 GMT 51.477928 -0.346832 1,700 270 129 -704
2020-01-27 19:11:23 GMT 51.477978 -0.341492 1,775 270 130 -704
2020-01-27 19:11:20 GMT 51.477978 -0.339508 1,825 270 130 -768
2020-01-27 19:11:13 GMT 51.477997 -0.333598 1,875 270 130 -768
2020-01-27 19:11:10 GMT 51.477978 -0.329514 1,925 270 130 -768
2020-01-27 19:11:07 GMT 51.477997 -0.323503 2,050 270 130 -704
2020-01-27 19:11:03 GMT 51.477997 -0.323503 2,025 270 130 -704
2020-01-27 19:11:00 GMT 51.478024 -0.320663 2,050 270 130 -640
2020-01-27 19:10:57 GMT 51.478043 -0.317342 2,100 270 130 -640
2020-01-27 19:10:54 GMT 51.478024 -0.315247 2,150 270 131 -704
2020-01-27 19:10:51 GMT 51.478024 -0.311813 2,200 270 130 -640
2020-01-27 19:10:47 GMT 51.478043 -0.308508 2,200 270 131 -704
2020-01-27 19:10:43 GMT 51.478043 -0.303906 2,250 270 131 -768
2020-01-27 19:10:40 GMT 51.478043 -0.299971 2,300 270 130 -768
2020-01-27 19:10:36 GMT 51.478088 -0.296557 2,350 270 130 -704
2020-01-27 19:10:33 GMT 51.478088 -0.294627 2,375 270 129 -640
2020-01-27 19:10:30 GMT 51.478088 -0.291583 2,400 270 127 -704
2020-01-27 19:10:26 GMT 51.478088 -0.287797 2,500 270 127 -640
2020-01-27 19:10:22 GMT 51.478115 -0.284653 2,475 270 127 -640
2020-01-27 19:10:19 GMT 51.478088 -0.281042 2,500 270 129 -704
2020-01-27 19:10:16 GMT 51.478134 -0.273693 2,625 270 130 -704
2020-01-27 19:10:12 GMT 51.478134 -0.273693 2,600 270 130 -704
2020-01-27 19:10:08 GMT 51.478115 -0.269623 2,625 270 130 -704
2020-01-27 19:10:05 GMT 51.478115 -0.267334 2,675 270 130 -640
2020-01-27 19:10:02 GMT 51.478115 -0.265045 2,700 270 130 -640
2020-01-27 19:09:59 GMT 51.478134 -0.262558 2,775 270 130 -704
2020-01-27 19:09:55 GMT 51.478134 -0.258253 2,800 270 130 -704
2020-01-27 19:09:52 GMT 51.478134 -0.254838 2,825 270 130 -704
2020-01-27 19:09:49 GMT 51.478134 -0.251721 2,900 270 131 -704
2020-01-27 19:09:46 GMT 51.478134 -0.248232 2,925 270 131 -704
2020-01-27 19:09:42 GMT 51.478165 -0.245743 3,100 270 131 -704
2020-01-27 19:09:39 GMT 51.478165 -0.239487 3,225 270 131 -704
2020-01-27 19:09:36 GMT 51.478165 -0.239487 3,025 270 131 -704
2020-01-27 19:09:32 GMT 51.478180 -0.234647 3,100 270 131 -704
2020-01-27 19:09:29 GMT 51.478180 -0.233163 3,225 270 131 -704
2020-01-27 19:09:25 GMT 51.478210 -0.228653 3,175 270 131 -704
2020-01-27 19:09:22 GMT 51.478210 -0.222473 3,200 270 131 -704
2020-01-27 19:09:19 GMT 51.478210 -0.222473 3,500 270 131 -704
2020-01-27 19:09:14 GMT 51.478226 -0.215644 3,325 270 131 -768
2020-01-27 19:09:11 GMT 51.478226 -0.215644 3,375 270 131 -704
2020-01-27 19:09:08 GMT 51.478226 -0.212971 3,350 270 131 -704
2020-01-27 19:09:05 GMT 51.478210 -0.209274 3,550 270 131 -704
2020-01-27 19:09:02 GMT 51.478226 -0.205994 3,475 270 131 -704
2020-01-27 19:08:59 GMT 51.478256 -0.203476 3,475 270 131 -704
2020-01-27 19:08:55 GMT 51.478226 -0.195527 3,600 270 131 -704
2020-01-27 19:08:52 GMT 51.478226 -0.195527 3,575 270 131 -704
2020-01-27 19:08:49 GMT 51.478271 -0.193523 3,600 270 131 -704
2020-01-27 19:08:46 GMT 51.478271 -0.190108 3,675 270 131 -768
2020-01-27 19:08:40 GMT 51.478271 -0.184689 4,025 270 131 -832
2020-01-27 19:08:36 GMT 51.478302 -0.182114 3,750 270 131 -768
2020-01-27 19:08:33 GMT 51.478271 -0.178825 3,775 270 131 -832
2020-01-27 19:08:30 GMT 51.478302 -0.175934 3,825 270 131 -832
2020-01-27 19:08:27 GMT 51.478302 -0.172806 3,950 270 132 -768
2020-01-27 19:08:21 GMT 51.478317 -0.167170 3,925 270 132 -768
2020-01-27 19:08:18 GMT 51.478317 -0.164053 3,975 270 132 -832
2020-01-27 19:08:15 GMT 51.478317 -0.161306 4,025 270 133 -768
2020-01-27 19:08:12 GMT 51.478317 -0.158114 4,100 270 134 -768
2020-01-27 19:08:09 GMT 51.478317 -0.155367 4,150 271 134 -768
2020-01-27 19:08:06 GMT 51.478302 -0.149231 4,175 271 134 -704
2020-01-27 19:08:03 GMT 51.478302 -0.149231 4,200 271 134 -640
2020-01-27 19:08:00 GMT 51.478302 -0.146103 4,250 270 135 -640
2020-01-27 19:07:57 GMT 51.478302 -0.143280 4,275 270 134 -576
2020-01-27 19:07:54 GMT 51.478302 -0.140152 4,300 270 135 -640
2020-01-27 19:07:51 GMT 51.478271 -0.135919 4,350 270 135 -576
2020-01-27 19:07:48 GMT 51.478271 -0.134286 4,350 270 136 -576
2020-01-27 19:07:45 GMT 51.478271 -0.131465 4,400 270 136 -576
2020-01-27 19:07:42 GMT 51.478271 -0.128273 4,425 270 136 -576
2020-01-27 19:07:39 GMT 51.478302 -0.125275 4,425 270 136 -512
2020-01-27 19:07:36 GMT 51.478302 -0.122452 4,475 270 136 -448
2020-01-27 19:07:33 GMT 51.478302 -0.118408 4,500 270 136 -320
2020-01-27 19:07:30 GMT 51.478302 -0.115585 4,525 270 135 -128
2020-01-27 19:07:27 GMT 51.478317 -0.112981 4,525 270 134 0
2020-01-27 19:07:24 GMT 51.478317 -0.109047 4,550 270 134 0
2020-01-27 19:07:20 GMT 51.478317 -0.105855 4,550 270 134 0
2020-01-27 19:07:17 GMT 51.478348 -0.102921 4,550 270 134 0
2020-01-27 19:07:14 GMT 51.478348 -0.100937 4,550 270 134 0
2020-01-27 19:07:11 GMT 51.478348 -0.096970 4,550 270 134 64
2020-01-27 19:07:08 GMT 51.478348 -0.093765 4,525 270 134 0
2020-01-27 19:07:05 GMT 51.478348 -0.091019 4,525 270 135 0
2020-01-27 19:07:02 GMT 51.478397 -0.088577 4,550 270 134 -64
2020-01-27 19:06:59 GMT 51.478363 -0.085218 4,550 270 134 64
2020-01-27 19:06:56 GMT 51.478397 -0.082245 4,525 270 134 0
2020-01-27 19:06:53 GMT 51.478397 -0.079803 4,550 270 134 64
2020-01-27 19:06:50 GMT 51.478397 -0.076294 4,550 270 134 64
2020-01-27 19:06:47 GMT 51.478409 -0.070446 4,525 271 135 0
2020-01-27 19:06:41 GMT 51.478397 -0.067062 4,525 270 135 0
2020-01-27 19:06:35 GMT 51.478397 -0.061493 4,525 271 135 0
2020-01-27 19:06:32 GMT 51.478348 -0.055161 4,525 271 135 0
2020-01-27 19:06:29 GMT 51.478348 -0.055161 4,550 271 135 0
2020-01-27 19:06:26 GMT 51.478348 -0.051117 4,525 271 135 0
2020-01-27 19:06:23 GMT 51.478348 -0.049515 4,525 270 135 0
2020-01-27 19:06:20 GMT 51.478348 -0.047150 4,525 271 135 0
2020-01-27 19:06:17 GMT 51.478302 -0.043182 4,525 270 135 0
2020-01-27 19:06:14 GMT 51.478302 -0.039597 4,525 271 135 0
2020-01-27 19:06:08 GMT 51.478317 -0.034592 4,525 270 135 0
2020-01-27 19:06:05 GMT 51.478317 -0.031029 4,525 270 135 0
2020-01-27 19:06:02 GMT 51.478317 -0.028579 4,525 270 135 -64
2020-01-27 19:05:59 GMT 51.478317 -0.025016 4,525 270 135 64
2020-01-27 19:05:53 GMT 51.478302 -0.019150 4,525 270 136 64
2020-01-27 19:05:50 GMT 51.478302 -0.016785 4,525 270 136 0
2020-01-27 19:05:47 GMT 51.478302 -0.012741 4,525 270 136 0
2020-01-27 19:05:44 GMT 51.478348 -0.010376 4,525 270 135 0
2020-01-27 19:05:41 GMT 51.478363 -0.006904 4,525 270 135 0
2020-01-27 19:05:38 GMT 51.478397 -0.000687 4,525 270 135 0
2020-01-27 19:05:35 GMT 51.478397 0.001678 4,525 270 135 0
2020-01-27 19:05:29 GMT 51.478397 0.004501 4,550 270 135 0
2020-01-27 19:05:26 GMT 51.478363 0.008240 4,550 270 135 -64
2020-01-27 19:05:23 GMT 51.478397 0.010071 4,550 270 134 -64
2020-01-27 19:05:20 GMT 51.478397 0.013657 4,550 270 134 -64
2020-01-27 19:05:17 GMT 51.478409 0.016257 4,700 270 140 -448
2020-01-27 19:05:14 GMT 51.478397 0.019226 4,550 270 134 -128
2020-01-27 19:05:11 GMT 51.478363 0.022195 4,575 270 134 -192
2020-01-27 19:05:08 GMT 51.478397 0.026779 4,575 271 136 -384
2020-01-27 19:05:04 GMT 51.478348 0.030060 4,625 271 139 -512
2020-01-27 19:05:01 GMT 51.478363 0.033107 4,625 270 142 -256
2020-01-27 19:04:58 GMT 51.478363 0.035186 4,650 271 146 -192
2020-01-27 19:04:55 GMT 51.478363 0.039491 4,650 271 146 -192
2020-01-27 19:04:52 GMT 51.478363 0.042090 4,650 270 150 -512
2020-01-27 19:04:49 GMT 51.478348 0.045395 4,700 270 153 -640
2020-01-27 19:04:46 GMT 51.478348 0.048065 4,700 270 152 -576
2020-01-27 19:04:43 GMT 51.478363 0.051888 4,725 270 153 -704
2020-01-27 19:04:40 GMT 51.478348 0.055771 4,850 271 153 -1216
2020-01-27 19:04:37 GMT 51.478348 0.058975 4,775 270 154 -1152
2020-01-27 19:04:34 GMT 51.478317 0.063765 4,900 271 153 -1152
2020-01-27 19:04:31 GMT 51.478348 0.066223 4,950 271 153 -896
2020-01-27 19:04:28 GMT 51.478317 0.069184 5,025 271 154 -576
2020-01-27 19:04:25 GMT 51.478302 0.073547 5,025 271 156 -576
2020-01-27 19:04:22 GMT 51.478317 0.076979 5,100 271 159 -1024
2020-01-27 19:04:18 GMT 51.478302 0.080948 5,100 270 159 -960
2020-01-27 19:04:15 GMT 51.478302 0.083313 5,125 271 159 -960
2020-01-27 19:04:12 GMT 51.478271 0.088781 5,200 271 162 -128
2020-01-27 19:04:09 GMT 51.478271 0.096056 5,225 270 166 -320
2020-01-27 19:04:06 GMT 51.478271 0.096056 5,225 271 168 -704
2020-01-27 19:04:03 GMT 51.478271 0.099545 5,250 270 169 -960
2020-01-27 19:04:00 GMT 51.478226 0.103034 5,300 270 169 -1024
2020-01-27 19:03:57 GMT 51.478256 0.106277 5,400 270 169 -960
2020-01-27 19:03:54 GMT 51.478226 0.110012 5,400 270 169 -1024
2020-01-27 19:03:51 GMT 51.478226 0.118548 5,500 270 169 -1024
2020-01-27 19:03:47 GMT 51.478226 0.118548 5,550 270 169 -1024
2020-01-27 19:03:44 GMT 51.478256 0.122757 5,575 270 169 -960
2020-01-27 19:03:41 GMT 51.478256 0.126266 5,675 271 169 -832
2020-01-27 19:03:38 GMT 51.478226 0.131539 5,650 271 169 -832
2020-01-27 19:03:35 GMT 51.478210 0.137863 5,725 270 171 -576
2020-01-27 19:03:29 GMT 51.478226 0.141709 5,800 270 175 -448
2020-01-27 19:03:26 GMT 51.478226 0.145272 5,775 270 175 -448
2020-01-27 19:03:22 GMT 51.478210 0.154419 5,875 270 183 -512
2020-01-27 19:03:19 GMT 51.478210 0.154419 5,850 271 179 -512
2020-01-27 19:03:16 GMT 51.478180 0.158411 5,875 271 181 -512
2020-01-27 19:03:13 GMT 51.478180 0.162716 5,925 270 184 -512
2020-01-27 19:03:10 GMT 51.478180 0.165983 5,925 270 184 -512
2020-01-27 19:03:07 GMT 51.478165 0.172272 5,950 271 186 -512
2020-01-27 19:03:04 GMT 51.478180 0.174742 5,975 271 187 -512
2020-01-27 19:03:01 GMT 51.478180 0.179716 6,025 271 190 -704
2020-01-27 19:02:58 GMT 51.478134 0.184169 6,025 271 190 -768
2020-01-27 19:02:55 GMT 51.478134 0.188104 6,050 271 190 -832
2020-01-27 19:02:52 GMT 51.478134 0.192112 6,100 271 192 -1024
2020-01-27 19:02:49 GMT 51.478088 0.196640 6,150 271 192 -1024
2020-01-27 19:02:46 GMT 51.478088 0.200575 6,200 271 192 -1152
2020-01-27 19:02:42 GMT 51.478088 0.205177 6,250 271 192 -1152
2020-01-27 19:02:39 GMT 51.478088 0.210819 6,400 271 195 -768
2020-01-27 19:02:36 GMT 51.478069 0.214005 6,350 271 192 -1216
2020-01-27 19:02:33 GMT 51.478043 0.219355 6,500 270 192 -1088
2020-01-27 19:02:30 GMT 51.478043 0.222770 6,500 270 192 -1024
2020-01-27 19:02:27 GMT 51.478043 0.227892 6,600 271 192 -832
2020-01-27 19:02:24 GMT 51.478043 0.231307 6,625 271 193 -768
2020-01-27 19:02:21 GMT 51.478043 0.235909 6,875 271 195 -704
2020-01-27 19:02:18 GMT 51.477997 0.239918 6,700 271 194 -704
2020-01-27 19:02:15 GMT 51.477997 0.245114 6,725 271 195 -704
2020-01-27 19:02:12 GMT 51.477928 0.254059 6,875 271 197 -640
2020-01-27 19:02:09 GMT 51.477928 0.254059 6,850 271 197 -704
2020-01-27 19:02:06 GMT 51.477928 0.257568 6,850 271 198 -640
2020-01-27 19:02:03 GMT 51.477928 0.261612 6,900 270 199 -576
2020-01-27 19:02:00 GMT 51.477905 0.266047 6,925 270 200 -512
2020-01-27 19:01:57 GMT 51.477882 0.272293 6,950 270 200 -512
2020-01-27 19:01:54 GMT 51.477882 0.276413 7,000 270 202 -512
2020-01-27 19:01:51 GMT 51.477905 0.279112 6,975 270 203 -512
2020-01-27 19:01:48 GMT 51.477951 0.283937 7,050 270 206 -512
2020-01-27 19:01:45 GMT 51.477951 0.288168 7,025 270 206 -512
2020-01-27 19:01:42 GMT 51.478043 0.296779 7,075 269 208 -512
2020-01-27 19:01:39 GMT 51.478180 0.303609 7,150 269 210 -512
2020-01-27 19:01:36 GMT 51.478180 0.303609 7,125 266 214 -832
2020-01-27 19:01:33 GMT 51.478302 0.308304 7,850 255 211 -1600
2020-01-27 19:01:30 GMT 51.478443 0.312042 7,175 267 213 -704
2020-01-27 19:01:27 GMT 51.478626 0.317154 7,200 266 214 -832
2020-01-27 19:01:24 GMT 51.478813 0.320892 7,275 264 214 -1216
2020-01-27 19:01:21 GMT 51.479279 0.327586 7,300 264 214 -1280
2020-01-27 19:01:18 GMT 51.479511 0.330353 7,375 259 212 -1472
2020-01-27 19:01:15 GMT 51.480072 0.335388 7,475 259 212 -1536
2020-01-27 19:01:12 GMT 51.480957 0.341492 7,550 255 211 -1600
2020-01-27 19:01:09 GMT 51.481567 0.344807 7,825 253 210 -1600
2020-01-27 19:01:06 GMT 51.482632 0.349808 7,700 250 210 -1536
2020-01-27 19:01:03 GMT 51.483471 0.353317 7,800 247 210 -1344
2020-01-27 19:01:00 GMT 51.484680 0.357575 7,925 245 210 -1024
2020-01-27 19:00:57 GMT 51.485935 0.361710 7,875 245 210 -832
2020-01-27 19:00:54 GMT 51.488449 0.370178 7,975 245 211 -256
2020-01-27 19:00:51 GMT 51.488449 0.370178 7,975 245 211 -192
2020-01-27 19:00:48 GMT 51.491013 0.378571 8,000 245 211 -128
2020-01-27 19:00:45 GMT 51.492462 0.383408 8,000 244 214 -64
2020-01-27 19:00:42 GMT 51.492462 0.383408 8,000 245 211 0
2020-01-27 19:00:38 GMT 51.493973 0.388456 8,000 245 211 0
2020-01-27 19:00:35 GMT 51.495667 0.394097 8,000 245 211 0
2020-01-27 19:00:32 GMT 51.497040 0.398551 8,000 245 212 -64
2020-01-27 19:00:26 GMT 51.499100 0.405381 8,000 244 214 -64
2020-01-27 19:00:23 GMT 51.500416 0.409622 8,025 244 214 -64
2020-01-27 19:00:20 GMT 51.501625 0.413589 8,000 244 214 -64
2020-01-27 19:00:17 GMT 51.502880 0.417557 8,000 244 216 0
2020-01-27 19:00:13 GMT 51.505024 0.424500 8,000 244 219 64
2020-01-27 19:00:10 GMT 51.506195 0.428244 8,000 244 220 64
2020-01-27 19:00:07 GMT 51.508842 0.436707 8,000 244 223 64
2020-01-27 19:00:04 GMT 51.508842 0.436707 8,000 244 243 64
2020-01-27 19:00:01 GMT 51.510269 0.441235 8,000 244 228 0
2020-01-27 18:59:58 GMT 51.511681 0.445786 8,000 244 237 0
2020-01-27 18:59:55 GMT 51.513336 0.451033 8,000 244 235 64
2020-01-27 18:59:52 GMT 51.514614 0.455093 8,000 244 237 0
2020-01-27 18:59:49 GMT 51.516754 0.462036 7,975 244 239 0
2020-01-27 18:59:46 GMT 51.517273 0.463653 7,975 244 241 0
2020-01-27 18:59:43 GMT 51.519176 0.469742 8,000 244 243 0
2020-01-27 18:59:40 GMT 51.520660 0.474565 8,000 244 243 0
2020-01-27 18:59:37 GMT 51.522156 0.479431 8,000 244 243 0
2020-01-27 18:59:34 GMT 51.525414 0.489731 8,000 244 243 -64
2020-01-27 18:59:31 GMT 51.525414 0.489731 8,000 244 242 0
2020-01-27 18:59:27 GMT 51.527416 0.496140 8,000 244 242 0
2020-01-27 18:59:24 GMT 51.528812 0.500641 8,000 244 241 -64
2020-01-27 18:59:21 GMT 51.530209 0.505142 8,000 244 241 -64
2020-01-27 18:59:18 GMT 51.531605 0.509644 8,000 244 241 -128
2020-01-27 18:59:15 GMT 51.533653 0.516052 8,000 244 241 -128
2020-01-27 18:59:12 GMT 51.535126 0.520811 8,025 244 240 -192
2020-01-27 18:59:09 GMT 51.536633 0.525589 8,025 244 239 -192
2020-01-27 18:59:06 GMT 51.537609 0.528793 8,025 244 239 -192
2020-01-27 18:59:03 GMT 51.539108 0.533579 8,050 244 238 -128
2020-01-27 18:59:00 GMT 51.540543 0.538330 8,050 246 239 -320
2020-01-27 18:58:57 GMT 51.542217 0.544128 8,075 248 241 -576
2020-01-27 18:58:51 GMT 51.544510 0.553028 8,175 263 244 -640
2020-01-27 18:58:48 GMT 51.545425 0.557853 8,150 261 244 -576
2020-01-27 18:58:45 GMT 51.546249 0.564237 8,150 261 244 -576
2020-01-27 18:58:42 GMT 51.546597 0.570374 8,200 269 246 -640
2020-01-27 18:58:38 GMT 51.546410 0.587234 8,250 272 247 -576
2020-01-27 18:58:35 GMT 51.546410 0.587234 8,275 273 249 -576
2020-01-27 18:58:31 GMT 51.546364 0.588684 8,325 272 253 -960
2020-01-27 18:58:28 GMT 51.546268 0.593872 8,350 273 249 -512
2020-01-27 18:58:25 GMT 51.546112 0.600165 8,375 273 250 -512
2020-01-27 18:58:22 GMT 51.545929 0.606846 8,400 273 250 -512
2020-01-27 18:58:18 GMT 51.545746 0.615012 8,425 272 251 -576
2020-01-27 18:58:15 GMT 51.545700 0.618723 8,450 272 252 -640
2020-01-27 18:58:12 GMT 51.545563 0.623994 8,500 272 252 -640
2020-01-27 18:58:09 GMT 51.545429 0.630341 8,525 272 252 -704
2020-01-27 18:58:06 GMT 51.545338 0.637054 8,550 272 252 -768
2020-01-27 18:58:03 GMT 51.545197 0.642700 8,600 272 253 -960
2020-01-27 18:57:59 GMT 51.545105 0.649033 8,650 272 253 -960
2020-01-27 18:57:56 GMT 51.544918 0.657272 8,775 272 253 -896
2020-01-27 18:57:53 GMT 51.544827 0.662537 8,775 272 253 -896
2020-01-27 18:57:50 GMT 51.544640 0.672302 8,825 272 254 -960
2020-01-27 18:57:47 GMT 51.544498 0.680542 8,875 272 254 -960
2020-01-27 18:57:44 GMT 51.544498 0.680542 8,925 272 255 -1024
2020-01-27 18:57:38 GMT 51.544361 0.688095 9,025 272 256 -1024
2020-01-27 18:57:35 GMT 51.544235 0.693029 9,050 272 257 -1024
2020-01-27 18:57:32 GMT 51.544098 0.701492 9,075 272 259 -960
2020-01-27 18:57:29 GMT 51.543987 0.706482 9,175 272 260 -960
2020-01-27 18:57:26 GMT 51.543896 0.711823 9,225 272 262 -960
2020-01-27 18:57:23 GMT 51.543777 0.717674 9,225 272 263 -960
2020-01-27 18:57:20 GMT 51.543686 0.722351 9,350 272 265 -1024
2020-01-27 18:57:17 GMT 51.543522 0.729828 9,325 272 264 -1024
2020-01-27 18:57:14 GMT 51.543457 0.734896 9,575 272 276 -960
2020-01-27 18:57:11 GMT 51.543320 0.742023 9,450 272 269 -960
2020-01-27 18:57:08 GMT 51.543198 0.747223 9,550 272 271 -960
2020-01-27 18:57:05 GMT 51.543091 0.754865 9,550 272 272 -960
2020-01-27 18:57:02 GMT 51.543011 0.758514 9,575 272 274 -896
2020-01-27 18:56:59 GMT 51.542870 0.766602 9,625 272 275 -896
2020-01-27 18:56:56 GMT 51.542816 0.771864 9,675 271 287 -1536
2020-01-27 18:56:53 GMT 51.542732 0.777206 9,850 272 278 -960
2020-01-27 18:56:50 GMT 51.542637 0.783844 9,825 272 282 -1088
2020-01-27 18:56:47 GMT 51.542496 0.791758 9,800 272 281 -1024
2020-01-27 18:56:44 GMT 51.542450 0.795098 9,900 272 282 -1088
2020-01-27 18:56:41 GMT 51.542358 0.802596 9,950 272 284 -1152
2020-01-27 18:56:38 GMT 51.542267 0.808945 9,975 272 285 -1152
2020-01-27 18:56:35 GMT 51.542130 0.820411 10,100 271 287 -1536
2020-01-27 18:56:32 GMT 51.542126 0.821686 10,200 271 288 -1536
2020-01-27 18:56:29 GMT 51.542038 0.828948 10,325 271 290 -1472
2020-01-27 18:56:26 GMT 51.541939 0.839691 10,325 271 290 -1472
2020-01-27 18:56:23 GMT 51.541901 0.846987 10,375 271 291 -1472
2020-01-27 18:56:20 GMT 51.541901 0.846987 10,450 271 292 -1472
2020-01-27 18:56:17 GMT 51.541847 0.853500 10,500 271 295 -1536
2020-01-27 18:56:14 GMT 51.541801 0.859528 10,550 272 301 -1792
2020-01-27 18:56:11 GMT 51.541706 0.868225 10,650 271 294 -1536
2020-01-27 18:56:08 GMT 51.541626 0.874823 10,750 271 295 -1600
2020-01-27 18:56:05 GMT 51.541580 0.880020 10,850 272 299 -1920
2020-01-27 18:56:02 GMT 51.541473 0.887527 10,850 272 296 -1664
2020-01-27 18:55:59 GMT 51.541397 0.894124 11,000 272 297 -1728
2020-01-27 18:55:56 GMT 51.541332 0.901642 11,050 272 298 -1920
2020-01-27 18:55:53 GMT 51.541260 0.905630 11,100 272 298 -1984
2020-01-27 18:55:49 GMT 51.541054 0.922012 11,275 272 300 -1856
2020-01-27 18:55:46 GMT 51.541054 0.922012 11,350 272 300 -1856
2020-01-27 18:55:43 GMT 51.540962 0.929108 11,475 272 301 -1792
2020-01-27 18:55:37 GMT 51.540775 0.942535 11,650 272 302 -1728
2020-01-27 18:55:34 GMT 51.540665 0.949278 11,850 272 304 -1984
2020-01-27 18:55:30 GMT 51.540390 0.965461 11,925 272 304 -1984
2020-01-27 18:55:24 GMT 51.540264 0.970459 12,050 273 305 -2048
2020-01-27 18:55:21 GMT 51.539841 0.987136 12,200 273 305 -2048
2020-01-27 18:55:18 GMT 51.539841 0.987136 12,275 273 305 -2112
2020-01-27 18:55:15 GMT 51.539703 0.992555 12,400 273 305 -2112
2020-01-27 18:55:12 GMT 51.539520 0.998865 12,800 273 307 -1664
2020-01-27 18:55:09 GMT 51.539379 1.004791 12,650 273 306 -1920
2020-01-27 18:55:05 GMT 51.539017 1.017052 12,650 273 306 -1856
2020-01-27 18:55:02 GMT 51.538960 1.019287 12,800 273 307 -1664
2020-01-27 18:54:59 GMT 51.538494 1.033936 12,950 273 309 -1856
2020-01-27 18:54:56 GMT 51.538284 1.039841 13,025 273 309 -1920
2020-01-27 18:54:53 GMT 51.538010 1.048155 13,150 274 310 -2048
2020-01-27 18:54:50 GMT 51.538010 1.048155 13,175 274 311 -1728
2020-01-27 18:54:47 GMT 51.537781 1.054539 13,275 274 311 -1792
2020-01-27 18:54:44 GMT 51.537472 1.063309 13,350 274 312 -1664
2020-01-27 18:54:41 GMT 51.537285 1.068878 13,700 274 316 -1152
2020-01-27 18:54:38 GMT 51.537094 1.074953 13,525 274 315 -1216
2020-01-27 18:54:35 GMT 51.536819 1.082376 13,550 274 315 -1216
2020-01-27 18:54:32 GMT 51.536591 1.089873 13,625 273 321 -1344
2020-01-27 18:54:29 GMT 51.536354 1.096954 13,700 273 321 -1344
2020-01-27 18:54:26 GMT 51.535950 1.110807 13,825 273 323 -1408
2020-01-27 18:54:20 GMT 51.535656 1.119919 13,950 273 326 -1536
2020-01-27 18:54:17 GMT 51.535217 1.134932 14,025 273 327 -1600
2020-01-27 18:54:14 GMT 51.535217 1.134932 14,125 273 329 -1728
2020-01-27 18:54:11 GMT 51.534771 1.149063 14,175 273 329 -1792
2020-01-27 18:54:08 GMT 51.534771 1.149063 14,300 273 331 -1984
2020-01-27 18:54:05 GMT 51.534584 1.154938 14,525 273 332 -1920
2020-01-27 18:54:02 GMT 51.534119 1.169739 14,525 273 333 -1920
2020-01-27 18:53:59 GMT 51.533886 1.178589 14,575 273 333 -1920
2020-01-27 18:53:56 GMT 51.533886 1.178589 14,750 273 335 -1920
2020-01-27 18:53:53 GMT 51.533707 1.184074 15,550 273 336 -1920
2020-01-27 18:53:50 GMT 51.533478 1.192017 14,900 273 337 -1920
2020-01-27 18:53:44 GMT 51.532955 1.208496 15,100 273 339 -1920
2020-01-27 18:53:41 GMT 51.532700 1.217033 15,175 273 340 -1920
2020-01-27 18:53:38 GMT 51.532581 1.221542 15,200 273 340 -1984
2020-01-27 18:53:34 GMT 51.532333 1.231137 15,350 273 342 -1920
2020-01-27 18:53:31 GMT 51.531883 1.246872 15,550 273 344 -1984
2020-01-27 18:53:25 GMT 51.531647 1.256598 15,700 273 345 -1984
2020-01-27 18:53:22 GMT 51.531464 1.264267 15,750 273 346 -1984
2020-01-27 18:53:19 GMT 51.531326 1.270447 15,850 273 347 -1984
2020-01-27 18:53:16 GMT 51.530952 1.285858 16,125 273 348 -1856
2020-01-27 18:53:13 GMT 51.530777 1.291562 16,175 273 349 -1856
2020-01-27 18:53:07 GMT 51.530533 1.302338 16,275 273 349 -1792
2020-01-27 18:53:04 GMT 51.530411 1.308041 16,400 273 350 -1856
2020-01-27 18:53:01 GMT 51.530163 1.318893 16,475 273 350 -1856
2020-01-27 18:52:58 GMT 51.530022 1.325150 16,575 273 351 -1920
2020-01-27 18:52:55 GMT 51.529697 1.339645 16,800 273 354 -1920
2020-01-27 18:52:49 GMT 51.529495 1.347458 16,875 273 352 -1920
2020-01-27 18:52:46 GMT 51.529324 1.354294 17,000 273 352 -1920
2020-01-27 18:52:43 GMT 51.529129 1.363121 17,025 273 353 -1920
2020-01-27 18:52:40 GMT 51.528763 1.377819 17,225 273 354 -1920
2020-01-27 18:52:34 GMT 51.528488 1.387247 17,300 273 358 -1856
2020-01-27 18:52:31 GMT 51.528259 1.395635 17,450 273 355 -1920
2020-01-27 18:52:28 GMT 51.528030 1.403058 17,675 273 359 -1856
2020-01-27 18:52:25 GMT 51.527756 1.412560 17,650 273 357 -1920
2020-01-27 18:52:22 GMT 51.527527 1.419909 17,725 273 357 -1856
2020-01-27 18:52:19 GMT 51.527321 1.426849 17,850 273 358 -1856
2020-01-27 18:52:16 GMT 51.526978 1.437947 17,950 269 359 -1920
2020-01-27 18:52:13 GMT 51.526669 1.449127 18,100 273 359 -1920
2020-01-27 18:52:10 GMT 51.526669 1.449127 18,175 272 360 -1920
2020-01-27 18:52:07 GMT 51.526485 1.458740 18,200 272 360 -1920
2020-01-27 18:52:03 GMT 51.526337 1.467788 18,350 270 359 -1920
2020-01-27 18:52:00 GMT 51.526337 1.479443 18,500 268 359 -1920
2020-01-27 18:51:57 GMT 51.526520 1.487979 18,575 268 359 -1920
2020-01-27 18:51:54 GMT 51.527042 1.501236 18,675 266 359 -1920
2020-01-27 18:51:51 GMT 51.527042 1.501236 18,800 265 358 -1920
2020-01-27 18:51:48 GMT 51.527554 1.509705 18,825 264 358 -1920
2020-01-27 18:51:45 GMT 51.528168 1.517598 18,975 263 360 -1856
2020-01-27 18:51:42 GMT 51.528721 1.524429 19,050 265 365 -1920
2020-01-27 18:51:39 GMT 51.529415 1.532822 19,150 263 359 -1856
2020-01-27 18:51:36 GMT 51.530777 1.550334 19,250 263 360 -1856
2020-01-27 18:51:33 GMT 51.530777 1.550334 19,325 264 361 -1856
2020-01-27 18:51:27 GMT 51.531979 1.566849 19,525 264 363 -1920
2020-01-27 18:51:23 GMT 51.533001 1.581802 19,825 265 364 -1920
2020-01-27 18:51:17 GMT 51.534256 1.600663 19,975 265 369 -1856
2020-01-27 18:51:14 GMT 51.534908 1.610947 20,075 265 366 -1920
2020-01-27 18:51:11 GMT 51.534908 1.610947 20,075 265 367 -1920
2020-01-27 18:51:07 GMT 51.535378 1.618576 24,050 266 386 -2688
2020-01-27 18:51:04 GMT 51.536041 1.628872 20,325 265 369 -1856
2020-01-27 18:51:01 GMT 51.536545 1.636517 20,675 265 371 -1856
2020-01-27 18:50:57 GMT 51.537140 1.646316 20,500 265 370 -1856
2020-01-27 18:50:54 GMT 51.537827 1.657228 20,600 264 372 -1856
2020-01-27 18:50:51 GMT 51.538101 1.661608 23,425 264 386 -2816
2020-01-27 18:50:48 GMT 51.538559 1.668215 20,825 264 372 -1920
2020-01-27 18:50:45 GMT 51.539108 1.676974 20,950 264 372 -1856
2020-01-27 18:50:42 GMT 51.539932 1.689074 21,050 264 373 -1856
2020-01-27 18:50:39 GMT 51.540821 1.702805 21,275 264 373 -1856
2020-01-27 18:50:36 GMT 51.540821 1.702805 21,550 265 373 -1920
2020-01-27 18:50:33 GMT 51.541397 1.712234 21,300 265 374 -1856
2020-01-27 18:50:30 GMT 51.541939 1.720505 21,600 264 383 -1984
2020-01-27 18:50:26 GMT 51.542542 1.729976 21,500 265 376 -1856
2020-01-27 18:50:23 GMT 51.543640 1.746678 21,700 264 380 -1856
2020-01-27 18:50:17 GMT 51.544315 1.757278 21,800 264 381 -1856
2020-01-27 18:50:14 GMT 51.544781 1.764069 21,900 264 382 -1856
2020-01-27 18:50:11 GMT 51.546021 1.781492 22,075 264 385 -3456
2020-01-27 18:50:08 GMT 51.546597 1.790009 22,175 264 385 -2240
2020-01-27 18:50:02 GMT 51.547668 1.805395 22,350 264 386 -2816
2020-01-27 18:49:59 GMT 51.548355 1.815639 22,550 264 386 -2880
2020-01-27 18:49:56 GMT 51.548355 1.815639 22,700 265 385 -2624
2020-01-27 18:49:53 GMT 51.548996 1.824695 23,025 264 386 -3392
2020-01-27 18:49:50 GMT 51.549774 1.836127 23,325 264 385 -3520
2020-01-27 18:49:47 GMT 51.550041 1.840057 23,225 264 385 -3456
2020-01-27 18:49:44 GMT 51.550552 1.847410 23,225 264 384 -3392
2020-01-27 18:49:41 GMT 51.551437 1.860428 23,475 264 384 -2688
2020-01-27 18:49:38 GMT 51.551926 1.867824 23,850 265 385 -2688
2020-01-27 18:49:34 GMT 51.553070 1.884823 23,850 265 384 -2624
2020-01-27 18:49:28 GMT 51.553665 1.894993 24,325 265 386 -2688
2020-01-27 18:49:25 GMT 51.554230 1.904678 24,200 266 387 -2688
2020-01-27 18:49:22 GMT 51.554626 1.913328 24,375 267 388 -2624
2020-01-27 18:49:19 GMT 51.554928 1.921921 24,875 274 395 -2368
2020-01-27 18:49:16 GMT 51.555065 1.928864 24,550 270 391 -2368
2020-01-27 18:49:13 GMT 51.555130 1.937528 24,675 271 392 -2496
2020-01-27 18:49:10 GMT 51.554764 1.957348 24,925 273 395 -2368
2020-01-27 18:49:07 GMT 51.554489 1.963212 25,150 275 397 -2304
2020-01-27 18:49:01 GMT 51.553436 1.981506 26,050 276 401 -2816
2020-01-27 18:48:58 GMT 51.553436 1.981506 26,050 276 401 -2816
2020-01-27 18:48:55 GMT 51.552887 1.990307 25,700 276 401 -2944
2020-01-27 18:48:52 GMT 51.551716 2.008667 25,900 276 401 -2944
2020-01-27 18:48:49 GMT 51.551716 2.008667 26,050 276 401 -2816
2020-01-27 18:48:46 GMT 51.551159 2.016907 26,050 276 401 -2816
2020-01-27 18:48:43 GMT 51.550041 2.034607 26,300 276 402 -2688
2020-01-27 18:48:37 GMT 51.549526 2.042923 26,325 276 402 -2560
2020-01-27 18:48:34 GMT 51.548923 2.052460 26,575 277 404 -2816
2020-01-27 18:48:28 GMT 51.547665 2.072678 26,825 276 404 -2816
2020-01-27 18:48:25 GMT 51.546921 2.083359 27,000 277 406 -2048
2020-01-27 18:48:22 GMT 51.546661 2.087551 27,075 277 406 -2176
2020-01-27 18:48:19 GMT 51.545929 2.098314 27,175 277 406 -2112
2020-01-27 18:48:16 GMT 51.545479 2.104874 27,250 277 407 -1920
2020-01-27 18:48:13 GMT 51.544498 2.118149 27,350 277 409 -1792
2020-01-27 18:48:10 GMT 51.543987 2.124176 29,675 278 413 -1664
2020-01-27 18:48:07 GMT 51.542313 2.142487 27,650 281 423 -1792
2020-01-27 18:48:04 GMT 51.540894 2.155325 28,875 283 428 -2880
2020-01-27 18:48:01 GMT 51.540894 2.155325 27,750 281 423 -1792
2020-01-27 18:47:57 GMT 51.540024 2.162748 27,800 282 425 -2112
2020-01-27 18:47:54 GMT 51.538357 2.175751 28,050 283 428 -2752
2020-01-27 18:47:48 GMT 51.534863 2.200546 28,400 283 427 -4160
2020-01-27 18:47:45 GMT 51.533325 2.211685 31,750 283 428 -3904
2020-01-27 18:47:42 GMT 51.533325 2.211685 28,775 283 425 -4608
2020-01-27 18:47:39 GMT 51.532303 2.219086 33,425 283 424 -4928
2020-01-27 18:47:36 GMT 51.530907 2.228851 33,425 283 423 -5120
2020-01-27 18:47:33 GMT 51.529678 2.238019 29,300 283 420 -5376
2020-01-27 18:47:30 GMT 51.528252 2.248306 29,650 283 410 -5056
2020-01-27 18:47:26 GMT 51.526840 2.258507 30,475 283 409 -4928
2020-01-27 18:47:23 GMT 51.525192 2.270310 30,425 283 408 -4672
2020-01-27 18:47:17 GMT 51.522995 2.285602 35,975 284 395 -3008
2020-01-27 18:47:14 GMT 51.521412 2.296753 32,775 283 403 -3904
2020-01-27 18:47:11 GMT 51.520107 2.306061 31,375 283 402 -3776
2020-01-27 18:47:07 GMT 51.517452 2.324600 31,750 283 401 -3008
2020-01-27 18:47:01 GMT 51.515076 2.341424 32,025 283 401 -2624
2020-01-27 18:46:55 GMT 51.514149 2.347794 32,325 283 402 -2944
2020-01-27 18:46:52 GMT 51.512707 2.358246 32,400 283 401 -2752
2020-01-27 18:46:49 GMT 51.511459 2.366960 32,600 283 402 -3072
2020-01-27 18:46:46 GMT 51.510193 2.375641 32,600 283 402 -3520
2020-01-27 18:46:43 GMT 51.508804 2.385518 32,850 283 401 -3776
2020-01-27 18:46:40 GMT 51.507477 2.394723 33,100 284 399 -3840
2020-01-27 18:46:36 GMT 51.506012 2.405115 35,425 284 392 -1664
2020-01-27 18:46:33 GMT 51.504280 2.417145 33,525 283 395 -3136
2020-01-27 18:46:30 GMT 51.503723 2.421149 33,700 283 396 -3008
2020-01-27 18:46:26 GMT 51.502075 2.432581 33,850 283 396 -3072
2020-01-27 18:46:23 GMT 51.500507 2.443466 34,100 283 395 -3072
2020-01-27 18:46:20 GMT 51.497818 2.462274 35,700 284 395 -2880
2020-01-27 18:46:17 GMT 51.496857 2.469103 34,425 284 395 -3072
2020-01-27 18:46:14 GMT 51.495110 2.481079 34,475 284 395 -3136
2020-01-27 18:46:10 GMT 51.495110 2.481079 35,025 283 392 -3008
2020-01-27 18:46:07 GMT 51.494316 2.486725 35,000 283 392 -3136
2020-01-27 18:46:04 GMT 51.492687 2.498093 35,075 283 392 -3008
2020-01-27 18:46:01 GMT 51.491570 2.505951 35,125 283 392 -2112
2020-01-27 18:45:57 GMT 51.488636 2.526321 35,975 284 392 0
2020-01-27 18:45:54 GMT 51.488636 2.526321 35,450 284 393 -704
2020-01-27 18:45:51 GMT 51.487381 2.534798 35,525 284 392 -1664
2020-01-27 18:45:48 GMT 51.486309 2.542114 35,875 284 393 -256
2020-01-27 18:45:45 GMT 51.484543 2.554550 35,725 284 392 -1472
2020-01-27 18:45:42 GMT 51.483948 2.558478 35,800 284 393 -1088
2020-01-27 18:45:38 GMT 51.482075 2.571487 35,950 284 393 0
2020-01-27 18:45:35 GMT 51.481094 2.578278 35,975 284 393 -64
2020-01-27 18:45:29 GMT 51.478729 2.594703 35,950 284 393 -128
2020-01-27 18:45:26 GMT 51.477467 2.603226 35,975 284 393 -64
2020-01-27 18:45:23 GMT 51.474930 2.620759 35,975 284 393 0
2020-01-27 18:45:20 GMT 51.474930 2.620759 35,975 284 393 -64
2020-01-27 18:45:17 GMT 51.473602 2.629815 35,975 284 393 -64
2020-01-27 18:45:14 GMT 51.472202 2.639465 35,975 284 393 -64
2020-01-27 18:45:11 GMT 51.471130 2.646814 35,975 284 393 -64
2020-01-27 18:45:08 GMT 51.468704 2.663813 35,975 284 393 -128
2020-01-27 18:45:02 GMT 51.467457 2.672348 35,975 284 393 -64
2020-01-27 18:44:58 GMT 51.465912 2.683039 35,975 283 392 -64
2020-01-27 18:44:55 GMT 51.464264 2.694397 35,975 284 392 0
2020-01-27 18:44:52 GMT 51.463623 2.698925 35,975 284 392 0
2020-01-27 18:44:49 GMT 51.461838 2.711322 35,975 284 392 0
2020-01-27 18:44:46 GMT 51.460693 2.719190 35,975 284 392 0
2020-01-27 18:44:43 GMT 51.458221 2.736190 35,975 284 392 -64
2020-01-27 18:44:40 GMT 51.458221 2.736190 35,975 284 392 0
2020-01-27 18:44:34 GMT 51.455750 2.753114 35,975 284 392 0
2020-01-27 18:44:31 GMT 51.454926 2.758756 35,975 284 392 -64
2020-01-27 18:44:28 GMT 51.453491 2.768402 35,975 284 393 -64
2020-01-27 18:44:25 GMT 51.452515 2.775192 36,000 284 392 0
2020-01-27 18:44:22 GMT 51.451263 2.783624 36,000 284 392 -64
2020-01-27 18:44:19 GMT 51.449936 2.792680 36,000 284 392 0
2020-01-27 18:44:16 GMT 51.448696 2.801132 35,975 284 392 64
2020-01-27 18:44:10 GMT 51.446228 2.818069 36,000 284 392 64
2020-01-27 18:44:07 GMT 51.444736 2.828217 36,000 284 392 64
2020-01-27 18:44:04 GMT 51.443577 2.836075 36,000 284 392 0
2020-01-27 18:44:01 GMT 51.442291 2.844568 35,975 284 393 -64
2020-01-27 18:43:58 GMT 51.441387 2.850800 36,000 284 393 -64
2020-01-27 18:43:55 GMT 51.439819 2.861493 35,975 284 393 -64
2020-01-27 18:43:52 GMT 51.438492 2.870549 35,975 284 393 0
2020-01-27 18:43:49 GMT 51.436916 2.881317 35,975 284 393 0
2020-01-27 18:43:46 GMT 51.435837 2.888662 36,000 284 393 -64
2020-01-27 18:43:43 GMT 51.435196 2.893190 36,000 284 393 -64
2020-01-27 18:43:40 GMT 51.433750 2.902756 36,000 284 393 -64
2020-01-27 18:43:37 GMT 51.432636 2.910690 36,000 284 393 -64
2020-01-27 18:43:34 GMT 51.431534 2.918058 36,000 284 393 -64
2020-01-27 18:43:31 GMT 51.429886 2.929341 36,000 284 392 0
2020-01-27 18:43:28 GMT 51.428631 2.937851 36,000 284 392 -64
2020-01-27 18:43:24 GMT 51.426628 2.951355 36,000 284 392 64
2020-01-27 18:43:20 GMT 51.424999 2.962646 36,000 284 394 0
2020-01-27 18:43:16 GMT 51.423889 2.970020 36,000 284 393 0
2020-01-27 18:43:13 GMT 51.422440 2.979584 36,000 284 393 0
2020-01-27 18:43:10 GMT 51.421463 2.986374 36,000 284 393 -64
2020-01-27 18:43:07 GMT 51.419926 2.996597 36,000 284 393 -64
2020-01-27 18:43:04 GMT 51.418488 3.006171 36,000 284 393 -64
2020-01-27 18:43:00 GMT 51.416977 3.016415 36,000 284 393 -64
2020-01-27 18:42:57 GMT 51.415222 3.028259 36,000 284 393 64
2020-01-27 18:42:54 GMT 51.414387 3.033905 36,000 284 393 64
2020-01-27 18:42:50 GMT 51.412949 3.043510 36,000 284 393 0
2020-01-27 18:42:47 GMT 51.411072 3.055981 36,000 284 393 -64
2020-01-27 18:42:44 GMT 51.408615 3.072357 36,000 284 393 0
2020-01-27 18:42:41 GMT 51.408615 3.072357 36,000 284 394 0
2020-01-27 18:42:36 GMT 51.406494 3.086564 36,000 284 394 0
2020-01-27 18:42:33 GMT 51.405670 3.092206 36,000 284 394 0
2020-01-27 18:42:30 GMT 51.404377 3.100739 36,000 284 394 0
2020-01-27 18:42:27 GMT 51.403027 3.109818 36,000 284 394 0
2020-01-27 18:42:24 GMT 51.400513 3.126755 36,000 284 394 0
2020-01-27 18:42:18 GMT 51.399490 3.133621 36,000 284 394 0
2020-01-27 18:42:15 GMT 51.397953 3.143768 36,000 284 395 0
2020-01-27 18:42:12 GMT 51.396603 3.152847 36,000 284 394 64
2020-01-27 18:42:09 GMT 51.395393 3.160782 36,000 284 395 0
2020-01-27 18:42:05 GMT 51.393391 3.174362 36,000 284 395 0
2020-01-27 18:41:59 GMT 51.390015 3.196428 36,000 284 395 0
2020-01-27 18:41:56 GMT 51.390015 3.196428 36,000 284 395 0
2020-01-27 18:41:53 GMT 51.388737 3.204956 36,000 284 395 0
2020-01-27 18:41:50 GMT 51.385803 3.224182 36,000 284 395 0
2020-01-27 18:41:47 GMT 51.385803 3.224182 36,000 284 395 0
2020-01-27 18:41:43 GMT 51.384018 3.236067 36,000 284 395 0
2020-01-27 18:41:40 GMT 51.383148 3.241783 36,000 284 395 0
2020-01-27 18:41:37 GMT 51.381775 3.250840 36,000 284 395 0
2020-01-27 18:41:34 GMT 51.380497 3.259277 36,000 284 395 0
2020-01-27 18:41:31 GMT 51.379211 3.267765 35,975 284 395 0
2020-01-27 18:41:28 GMT 51.378021 3.275707 36,000 284 395 0
2020-01-27 18:41:25 GMT 51.376213 3.287582 36,000 284 395 0
2020-01-27 18:41:22 GMT 51.375412 3.292706 36,000 284 395 0
2020-01-27 18:41:19 GMT 51.373608 3.304596 36,000 284 395 0
2020-01-27 18:41:16 GMT 51.372768 3.310242 36,000 284 395 -64
2020-01-27 18:41:12 GMT 51.370972 3.322177 36,000 284 395 0
2020-01-27 18:41:09 GMT 51.368546 3.337988 36,000 284 395 0
2020-01-27 18:41:06 GMT 51.367416 3.345337 36,000 284 395 -64
2020-01-27 18:41:00 GMT 51.365799 3.356101 36,000 284 395 -64
2020-01-27 18:40:57 GMT 51.363373 3.371986 36,000 284 395 0
2020-01-27 18:40:51 GMT 51.362000 3.381042 36,000 284 396 0
2020-01-27 18:40:48 GMT 51.360626 3.390173 36,000 284 396 -64
2020-01-27 18:40:45 GMT 51.359177 3.399811 36,000 286 397 0
2020-01-27 18:40:42 GMT 51.358150 3.406601 36,000 284 397 -128
2020-01-27 18:40:39 GMT 51.357010 3.414001 36,000 284 396 0
2020-01-27 18:40:36 GMT 51.352890 3.441245 36,025 290 401 -64
2020-01-27 18:40:30 GMT 51.352890 3.441245 36,000 285 397 0
2020-01-27 18:40:27 GMT 51.351700 3.449187 36,025 284 397 -64
2020-01-27 18:40:24 GMT 51.350052 3.460007 36,025 284 396 64
2020-01-27 18:40:21 GMT 51.348724 3.468562 36,025 285 397 0
2020-01-27 18:40:18 GMT 51.345860 3.486099 36,000 286 398 0
2020-01-27 18:40:15 GMT 51.345860 3.486099 36,000 288 399 -64
2020-01-27 18:40:12 GMT 51.344330 3.494543 36,000 287 398 0
2020-01-27 18:40:08 GMT 51.340740 3.513107 36,000 288 399 -64
2020-01-27 18:40:02 GMT 51.339157 3.520966 36,025 290 401 0
2020-01-27 18:39:59 GMT 51.335632 3.537152 36,025 290 401 -64
2020-01-27 18:39:56 GMT 51.335632 3.537152 36,025 290 401 -64
2020-01-27 18:39:53 GMT 51.333389 3.547174 36,025 290 401 0
2020-01-27 18:39:50 GMT 51.331924 3.553854 36,025 290 401 0
2020-01-27 18:39:47 GMT 51.330185 3.561649 36,025 290 401 0
2020-01-27 18:39:44 GMT 51.328079 3.571091 36,025 290 401 0
2020-01-27 18:39:40 GMT 51.325565 3.582230 36,025 290 402 -64
2020-01-27 18:39:37 GMT 51.322075 3.597794 36,025 290 403 64
2020-01-27 18:39:34 GMT 51.319702 3.608415 36,025 290 401 64
2020-01-27 18:39:30 GMT 51.319702 3.608415 36,000 290 401 0
2020-01-27 18:39:27 GMT 51.317837 3.616714 36,000 290 401 0
2020-01-27 18:39:24 GMT 51.315720 3.626231 36,000 290 401 0
2020-01-27 18:39:21 GMT 51.313980 3.634025 36,000 290 402 -64
2020-01-27 18:39:18 GMT 51.309952 3.651841 36,000 290 401 0
2020-01-27 18:39:15 GMT 51.308060 3.660202 36,000 290 402 64
2020-01-27 18:39:07 GMT 51.303032 3.682480 36,000 290 402 64
2020-01-27 18:39:01 GMT 51.301498 3.689194 36,000 290 402 64
2020-01-27 18:38:58 GMT 51.298752 3.701477 36,000 291 402 -64
2020-01-27 18:38:55 GMT 51.297592 3.706475 36,000 290 402 0
2020-01-27 18:38:52 GMT 51.293793 3.723178 36,000 291 402 0
2020-01-27 18:38:49 GMT 51.293793 3.723178 36,000 291 402 0
2020-01-27 18:38:46 GMT 51.291115 3.734894 36,000 291 402 0
2020-01-27 18:38:43 GMT 51.289349 3.742676 36,000 291 402 0
2020-01-27 18:38:39 GMT 51.286785 3.753815 36,000 290 403 0
2020-01-27 18:38:35 GMT 51.285141 3.761036 35,975 290 403 64
2020-01-27 18:38:32 GMT 51.283127 3.770018 35,975 290 403 64
2020-01-27 18:38:29 GMT 51.280735 3.780594 35,975 290 403 64
2020-01-27 18:38:26 GMT 51.278965 3.788376 35,975 290 403 64
2020-01-27 18:38:23 GMT 51.276581 3.798968 35,975 290 403 0
2020-01-27 18:38:20 GMT 51.275574 3.803422 35,975 290 403 64
2020-01-27 18:38:17 GMT 51.271889 3.819656 35,975 290 404 -64
2020-01-27 18:38:14 GMT 51.271889 3.819656 35,975 290 403 -64
2020-01-27 18:38:11 GMT 51.268864 3.833008 35,975 290 403 -64
2020-01-27 18:38:08 GMT 51.266968 3.841429 35,975 290 404 -64
2020-01-27 18:38:05 GMT 51.265793 3.846436 35,950 290 404 -64
2020-01-27 18:38:02 GMT 51.263901 3.854791 35,975 291 402 0
2020-01-27 18:37:58 GMT 51.261612 3.864886 35,975 291 403 64
2020-01-27 18:37:55 GMT 51.259693 3.873215 35,975 291 403 64
2020-01-27 18:37:52 GMT 51.257309 3.883815 35,975 291 403 -64
2020-01-27 18:37:49 GMT 51.253826 3.898849 35,975 291 403 0
2020-01-27 18:37:43 GMT 51.248753 3.921127 35,975 291 403 0
2020-01-27 18:37:39 GMT 51.248753 3.921127 35,975 291 403 0
2020-01-27 18:37:36 GMT 51.247215 3.927841 35,975 291 402 0
2020-01-27 18:37:33 GMT 51.243027 3.946170 35,975 291 402 0
2020-01-27 18:37:30 GMT 51.243027 3.946170 35,950 291 402 0
2020-01-27 18:37:27 GMT 51.241470 3.952851 35,975 291 402 -64
2020-01-27 18:37:24 GMT 51.239582 3.961182 35,950 291 402 -64
2020-01-27 18:37:21 GMT 51.237816 3.968964 35,975 291 402 -64
2020-01-27 18:37:18 GMT 51.235886 3.977273 35,975 291 402 -64
2020-01-27 18:37:15 GMT 51.233597 3.987295 35,975 291 402 -64
2020-01-27 18:37:12 GMT 51.231670 3.995667 35,975 291 402 -64
2020-01-27 18:37:09 GMT 51.229900 4.003448 35,975 291 402 -64
2020-01-27 18:37:06 GMT 51.228363 4.010086 35,975 291 401 -64
2020-01-27 18:37:03 GMT 51.226315 4.018936 35,975 291 401 -64
2020-01-27 18:37:00 GMT 51.223892 4.029533 35,975 291 401 -64
2020-01-27 18:36:57 GMT 51.221985 4.037857 35,975 291 401 -64
2020-01-27 18:36:54 GMT 51.220093 4.046161 35,975 291 401 -64
2020-01-27 18:36:51 GMT 51.218914 4.051132 35,975 291 401 -64
2020-01-27 18:36:48 GMT 51.216751 4.060562 35,975 291 401 -64
2020-01-27 18:36:45 GMT 51.214352 4.071121 35,975 291 401 0
2020-01-27 18:36:42 GMT 51.212173 4.080530 35,975 291 401 0
2020-01-27 18:36:39 GMT 51.211044 4.085541 36,000 291 401 -64
2020-01-27 18:36:36 GMT 51.209106 4.093818 36,000 291 401 -64
2020-01-27 18:36:33 GMT 51.207321 4.101612 36,000 291 401 -64
2020-01-27 18:36:30 GMT 51.204903 4.112167 36,000 291 401 -64
2020-01-27 18:36:24 GMT 51.199036 4.137650 36,000 291 402 -128
2020-01-27 18:36:21 GMT 51.199036 4.137650 36,000 291 402 -128
2020-01-27 18:36:17 GMT 51.197113 4.145928 36,025 291 401 0
2020-01-27 18:36:14 GMT 51.195171 4.154282 36,025 291 401 0
2020-01-27 18:36:11 GMT 51.192612 4.165344 36,025 291 402 -64
2020-01-27 18:36:08 GMT 51.190842 4.173126 36,025 291 402 -64
2020-01-27 18:36:05 GMT 51.189423 4.179259 36,025 291 402 -64
2020-01-27 18:36:02 GMT 51.187637 4.187053 36,025 291 402 -64
2020-01-27 18:35:59 GMT 51.184799 4.199227 36,025 291 402 -64
2020-01-27 18:35:56 GMT 51.183517 4.204794 36,025 291 402 -64
2020-01-27 18:35:53 GMT 51.181229 4.214816 36,025 291 402 -64
2020-01-27 18:35:50 GMT 51.179531 4.222031 36,050 291 404 0
2020-01-27 18:35:47 GMT 51.177250 4.232025 36,025 291 404 -64
2020-01-27 18:35:44 GMT 51.174774 4.242578 36,050 291 404 -128
2020-01-27 18:35:38 GMT 51.172211 4.253713 36,050 291 404 0
2020-01-27 18:35:35 GMT 51.170151 4.262621 36,050 291 404 0
2020-01-27 18:35:32 GMT 51.165611 4.282074 36,050 291 404 0
2020-01-27 18:35:29 GMT 51.165611 4.282074 36,050 291 404 -64
2020-01-27 18:35:25 GMT 51.163651 4.290458 36,050 291 404 -64
2020-01-27 18:35:22 GMT 51.161423 4.299927 36,050 291 404 0
2020-01-27 18:35:19 GMT 51.157047 4.318848 36,050 291 405 64
2020-01-27 18:35:16 GMT 51.157047 4.318848 36,050 291 405 64
2020-01-27 18:35:13 GMT 51.155464 4.325562 36,050 291 405 64
2020-01-27 18:35:09 GMT 51.152344 4.338989 36,050 291 406 0
2020-01-27 18:35:06 GMT 51.151039 4.344559 36,050 291 406 -64
2020-01-27 18:35:03 GMT 51.149223 4.352341 36,050 291 406 -64
2020-01-27 18:35:00 GMT 51.147263 4.360756 36,050 291 407 0
2020-01-27 18:34:57 GMT 51.144478 4.372482 36,050 291 406 0
2020-01-27 18:34:54 GMT 51.141495 4.385326 36,050 291 406 0
2020-01-27 18:34:51 GMT 51.141495 4.385326 36,050 291 406 0
2020-01-27 18:34:48 GMT 51.139263 4.394836 36,050 291 406 0
2020-01-27 18:34:45 GMT 51.137054 4.404404 36,050 291 406 0
2020-01-27 18:34:39 GMT 51.133305 4.420624 36,050 291 407 0
2020-01-27 18:34:36 GMT 51.131443 4.428406 36,025 291 402 -64
2020-01-27 18:34:33 GMT 51.129349 4.437408 36,025 291 407 0
2020-01-27 18:34:30 GMT 51.127670 4.444638 36,025 291 407 64
2020-01-27 18:34:27 GMT 51.125156 4.455338 36,025 291 407 64
2020-01-27 18:34:24 GMT 51.123856 4.460907 36,025 291 407 0
2020-01-27 18:34:21 GMT 51.121353 4.471584 36,025 291 408 64
2020-01-27 18:34:18 GMT 51.119339 4.479980 36,025 291 407 64
2020-01-27 18:34:14 GMT 51.114441 4.500757 36,025 291 408 64
2020-01-27 18:34:11 GMT 51.114441 4.500757 36,025 291 408 64
2020-01-27 18:34:08 GMT 51.113113 4.506325 36,000 291 408 0
2020-01-27 18:34:04 GMT 51.110458 4.517534 36,000 291 408 0
2020-01-27 18:34:00 GMT 51.105000 4.540482 36,000 291 407 128
2020-01-27 18:33:57 GMT 51.105000 4.540482 36,000 291 407 64
2020-01-27 18:33:54 GMT 51.103821 4.545519 36,000 291 406 64
2020-01-27 18:33:51 GMT 51.102116 4.552765 36,000 291 406 64
2020-01-27 18:33:48 GMT 51.099972 4.561691 35,975 291 406 64
2020-01-27 18:33:45 GMT 51.097321 4.572906 35,975 291 406 0
2020-01-27 18:33:42 GMT 51.095505 4.580688 35,975 291 406 0
2020-01-27 18:33:38 GMT 51.092850 4.591904 35,975 291 406 0
2020-01-27 18:33:35 GMT 51.090988 4.599686 35,975 291 406 0
2020-01-27 18:33:32 GMT 51.089035 4.608097 35,975 291 406 -64
2020-01-27 18:33:29 GMT 51.087204 4.615891 35,975 291 405 0
2020-01-27 18:33:26 GMT 51.085495 4.623108 35,975 291 401 -64
2020-01-27 18:33:23 GMT 51.083401 4.632034 35,975 291 405 0
2020-01-27 18:33:20 GMT 51.081306 4.640961 35,975 291 405 64
2020-01-27 18:33:17 GMT 51.079102 4.650409 35,975 291 405 64
2020-01-27 18:33:13 GMT 51.077042 4.659317 35,975 291 404 64
2020-01-27 18:33:10 GMT 51.074936 4.668224 35,975 291 404 64
2020-01-27 18:33:07 GMT 51.072876 4.677132 35,975 291 404 64
2020-01-27 18:33:03 GMT 51.069992 4.689306 35,975 291 404 -64
2020-01-27 18:32:59 GMT 51.068317 4.696503 35,975 291 404 -64
2020-01-27 18:32:56 GMT 51.066101 4.705934 35,975 291 403 64
2020-01-27 18:32:53 GMT 51.063721 4.715881 35,975 291 403 -64
2020-01-27 18:32:50 GMT 51.061890 4.723676 35,975 291 403 -64
2020-01-27 18:32:47 GMT 51.056538 4.746323 35,975 291 402 0
2020-01-27 18:32:43 GMT 51.056538 4.746323 35,975 291 402 0
2020-01-27 18:32:40 GMT 51.055618 4.750177 35,975 291 400 0
2020-01-27 18:32:37 GMT 51.051327 4.768372 35,975 291 402 0
2020-01-27 18:32:34 GMT 51.051327 4.768372 35,975 291 401 0
2020-01-27 18:32:31 GMT 51.049622 4.775564 35,975 291 401 0
2020-01-27 18:32:28 GMT 51.047367 4.784927 35,975 291 401 0
2020-01-27 18:32:25 GMT 51.045410 4.793157 35,975 291 401 0
2020-01-27 18:32:22 GMT 51.041641 4.809113 35,975 291 400 0
2020-01-27 18:32:16 GMT 51.039547 4.817963 35,975 291 400 64
2020-01-27 18:32:13 GMT 51.036896 4.828949 35,975 291 400 64
2020-01-27 18:32:10 GMT 51.035980 4.832797 35,975 291 400 0
2020-01-27 18:32:07 GMT 51.031769 4.850315 36,000 291 396 0
2020-01-27 18:32:04 GMT 51.029434 4.860188 35,975 291 400 -128
2020-01-27 18:32:01 GMT 51.029434 4.860188 35,975 291 400 -128
2020-01-27 18:31:58 GMT 51.027443 4.868393 35,975 291 400 -128
2020-01-27 18:31:52 GMT 51.024326 4.881516 36,000 291 400 -64
2020-01-27 18:31:49 GMT 51.022110 4.890846 36,000 291 398 0
2020-01-27 18:31:46 GMT 51.019623 4.901199 36,000 291 399 0
2020-01-27 18:31:42 GMT 51.017250 4.911041 36,000 291 399 0
2020-01-27 18:31:39 GMT 51.014786 4.921430 36,000 291 399 0
2020-01-27 18:31:36 GMT 51.011009 4.937286 36,000 291 398 0
2020-01-27 18:31:33 GMT 51.011009 4.937286 36,000 291 400 -64
2020-01-27 18:31:30 GMT 51.009018 4.945481 36,000 291 400 -64
2020-01-27 18:31:27 GMT 51.007736 4.950974 36,000 291 399 -64
2020-01-27 18:31:24 GMT 51.005630 4.959733 36,000 291 395 0
2020-01-27 18:31:21 GMT 51.003654 4.967880 36,000 291 398 0
2020-01-27 18:31:18 GMT 51.001190 4.978217 36,000 291 398 -64
2020-01-27 18:31:14 GMT 50.998955 4.987488 36,000 291 397 -128
2020-01-27 18:31:11 GMT 50.995323 5.002747 36,000 291 396 0
2020-01-27 18:31:08 GMT 50.995323 5.002747 36,000 291 396 0
2020-01-27 18:31:05 GMT 50.992996 5.012512 36,000 291 395 0
2020-01-27 18:31:02 GMT 50.990753 5.021717 36,000 291 395 -64
2020-01-27 18:30:58 GMT 50.986198 5.040665 36,000 291 395 0
2020-01-27 18:30:55 GMT 50.986198 5.040665 36,000 291 395 0
2020-01-27 18:30:52 GMT 50.984615 5.047150 36,000 291 397 0
2020-01-27 18:30:49 GMT 50.983082 5.053635 36,000 292 398 0
2020-01-27 18:30:46 GMT 50.980865 5.062916 35,975 291 397 0
2020-01-27 18:30:43 GMT 50.978485 5.072640 36,000 291 398 0
2020-01-27 18:30:40 GMT 50.976749 5.079727 36,000 291 398 0
2020-01-27 18:30:37 GMT 50.975052 5.086818 36,000 292 398 64
2020-01-27 18:30:34 GMT 50.973072 5.094986 36,000 292 398 0
2020-01-27 18:30:31 GMT 50.971256 5.102615 36,000 292 398 0
2020-01-27 18:30:28 GMT 50.969284 5.110795 36,000 291 399 -64
2020-01-27 18:30:25 GMT 50.967407 5.118367 36,000 291 395 64
2020-01-27 18:30:22 GMT 50.964798 5.129279 36,025 291 398 0
2020-01-27 18:30:19 GMT 50.961090 5.144497 36,025 291 398 0
2020-01-27 18:30:16 GMT 50.961090 5.144497 36,025 291 395 64
2020-01-27 18:30:12 GMT 50.957977 5.157487 36,000 291 395 0
2020-01-27 18:30:09 GMT 50.954449 5.172119 36,000 291 395 0
2020-01-27 18:30:06 GMT 50.954449 5.172119 35,975 291 396 0
2020-01-27 18:30:03 GMT 50.951054 5.186157 36,000 291 396 0
2020-01-27 18:30:00 GMT 50.948677 5.195923 36,000 291 396 0
2020-01-27 18:29:57 GMT 50.948677 5.195923 36,000 291 396 0
2020-01-27 18:29:54 GMT 50.946350 5.205612 36,000 291 396 0
2020-01-27 18:29:51 GMT 50.944656 5.212642 36,000 292 390 -64
2020-01-27 18:29:48 GMT 50.942162 5.222931 36,000 291 395 -64
2020-01-27 18:29:45 GMT 50.940720 5.228824 36,000 291 395 0
2020-01-27 18:29:41 GMT 50.937737 5.241165 36,000 292 393 128
2020-01-27 18:29:35 GMT 50.933670 5.257775 35,975 292 391 0
2020-01-27 18:29:32 GMT 50.930328 5.271656 36,000 292 389 0
2020-01-27 18:29:29 GMT 50.928726 5.278040 35,975 292 390 -64
2020-01-27 18:29:26 GMT 50.926285 5.288162 36,000 292 390 -64
2020-01-27 18:29:23 GMT 50.926285 5.288162 36,000 292 388 0
2020-01-27 18:29:20 GMT 50.924191 5.296631 36,000 292 390 -64
2020-01-27 18:29:16 GMT 50.921997 5.305654 36,000 292 389 128
2020-01-27 18:29:13 GMT 50.920559 5.311508 35,975 292 389 64
2020-01-27 18:29:10 GMT 50.918232 5.321045 35,950 292 388 0
2020-01-27 18:29:07 GMT 50.916046 5.330002 35,975 292 388 320
2020-01-27 18:29:04 GMT 50.914368 5.336914 35,950 292 388 -64
2020-01-27 18:29:01 GMT 50.912155 5.345888 35,950 292 388 0
2020-01-27 18:28:58 GMT 50.910599 5.352272 35,950 292 388 0
2020-01-27 18:28:55 GMT 50.907619 5.364380 35,950 292 388 -64
2020-01-27 18:28:52 GMT 50.906708 5.368083 35,950 292 388 0
2020-01-27 18:28:49 GMT 50.904499 5.377121 35,950 292 388 0
2020-01-27 18:28:46 GMT 50.902542 5.385008 35,950 292 388 0
2020-01-27 18:28:43 GMT 50.900589 5.392990 35,950 292 388 0
2020-01-27 18:28:40 GMT 50.898819 5.400391 35,950 292 388 0
2020-01-27 18:28:37 GMT 50.896362 5.410395 35,950 292 388 -64
2020-01-27 18:28:34 GMT 50.894257 5.418858 35,950 292 388 0
2020-01-27 18:28:31 GMT 50.892860 5.424728 35,950 292 388 0
2020-01-27 18:28:28 GMT 50.890915 5.432665 35,950 292 389 -64
2020-01-27 18:28:25 GMT 50.888439 5.442657 35,950 292 389 -64
2020-01-27 18:28:21 GMT 50.885971 5.452782 35,950 292 389 -64
2020-01-27 18:28:15 GMT 50.882202 5.468140 35,950 292 389 64
2020-01-27 18:28:11 GMT 50.879875 5.477676 35,950 292 389 64
2020-01-27 18:28:08 GMT 50.877499 5.487137 35,950 292 389 0
2020-01-27 18:28:05 GMT 50.875404 5.495605 35,950 292 389 -64
2020-01-27 18:28:02 GMT 50.873867 5.502014 35,950 292 389 -64
2020-01-27 18:27:59 GMT 50.871643 5.510980 35,950 292 389 -64
2020-01-27 18:27:56 GMT 50.870316 5.516324 35,950 292 390 -64
2020-01-27 18:27:53 GMT 50.867706 5.526940 35,950 292 390 -64
2020-01-27 18:27:50 GMT 50.865768 5.534897 35,975 292 390 -64
2020-01-27 18:27:47 GMT 50.864464 5.540161 35,975 292 390 -128
2020-01-27 18:27:44 GMT 50.862259 5.549209 35,975 292 390 -128
2020-01-27 18:27:41 GMT 50.860703 5.555593 36,000 292 391 -64
2020-01-27 18:27:38 GMT 50.856644 5.572052 36,000 292 391 0
2020-01-27 18:27:32 GMT 50.852600 5.588552 36,000 292 391 -64
2020-01-27 18:27:26 GMT 50.851044 5.594936 36,000 292 392 -64
2020-01-27 18:27:23 GMT 50.847984 5.607147 36,000 292 392 -64
2020-01-27 18:27:20 GMT 50.844868 5.619965 36,000 292 392 -64
2020-01-27 18:27:17 GMT 50.842346 5.630122 35,975 292 392 -64
2020-01-27 18:27:14 GMT 50.842346 5.630122 36,000 292 393 -64
2020-01-27 18:27:10 GMT 50.839966 5.639772 36,000 292 393 0
2020-01-27 18:27:07 GMT 50.837357 5.650462 36,000 292 393 0
2020-01-27 18:27:04 GMT 50.833923 5.664417 36,000 292 394 0
2020-01-27 18:27:01 GMT 50.833923 5.664417 36,000 292 394 0
2020-01-27 18:26:58 GMT 50.831692 5.673523 36,000 292 394 -64
2020-01-27 18:26:55 GMT 50.827686 5.689621 36,000 292 395 -64
2020-01-27 18:26:52 GMT 50.827686 5.689621 36,000 292 394 0
2020-01-27 18:26:49 GMT 50.826385 5.694962 36,000 292 395 -64
2020-01-27 18:26:45 GMT 50.821358 5.715332 36,000 292 396 0
2020-01-27 18:26:42 GMT 50.821358 5.715332 36,000 292 396 0
2020-01-27 18:26:39 GMT 50.817764 5.729890 36,000 292 396 0
2020-01-27 18:26:36 GMT 50.814835 5.741693 36,000 292 397 -64
2020-01-27 18:26:33 GMT 50.814835 5.741693 36,000 292 397 -64
2020-01-27 18:26:30 GMT 50.813072 5.748749 36,000 292 397 -64
2020-01-27 18:26:27 GMT 50.811081 5.756836 36,000 292 397 0
2020-01-27 18:26:24 GMT 50.809067 5.764923 36,000 292 397 0
2020-01-27 18:26:18 GMT 50.805622 5.778885 36,000 292 396 64
2020-01-27 18:26:15 GMT 50.803619 5.786974 36,000 292 396 64
2020-01-27 18:26:12 GMT 50.801338 5.796051 36,000 292 396 64
2020-01-27 18:26:09 GMT 50.798874 5.805740 36,000 292 396 64
2020-01-27 18:26:04 GMT 50.796173 5.816498 36,000 292 396 0
2020-01-27 18:26:01 GMT 50.794189 5.824535 36,000 292 396 0
2020-01-27 18:25:58 GMT 50.792168 5.832596 36,000 292 396 0
2020-01-27 18:25:54 GMT 50.788910 5.845566 36,000 292 396 64
2020-01-27 18:25:50 GMT 50.784988 5.861132 36,000 292 395 64
2020-01-27 18:25:44 GMT 50.782719 5.870209 36,000 292 395 64
2020-01-27 18:25:41 GMT 50.780182 5.880432 36,000 292 394 0
2020-01-27 18:25:38 GMT 50.777756 5.890008 35,975 292 394 0
2020-01-27 18:25:34 GMT 50.775223 5.900192 35,975 292 393 -64
2020-01-27 18:25:31 GMT 50.773922 5.905533 36,000 292 392 0
2020-01-27 18:25:28 GMT 50.769684 5.922470 36,000 292 390 0
2020-01-27 18:25:22 GMT 50.768101 5.928802 36,000 292 389 -64
2020-01-27 18:25:19 GMT 50.766129 5.936700 36,025 292 383 -64
2020-01-27 18:25:16 GMT 50.763634 5.946655 36,000 292 386 -128
2020-01-27 18:25:13 GMT 50.760002 5.961227 36,025 292 382 0
2020-01-27 18:25:10 GMT 50.758141 5.968552 36,025 292 381 64
2020-01-27 18:25:07 GMT 50.756470 5.975226 36,025 292 381 64
2020-01-27 18:25:01 GMT 50.754181 5.984505 36,000 292 379 0
2020-01-27 18:24:58 GMT 50.752506 5.991211 36,000 292 380 0
2020-01-27 18:24:55 GMT 50.750565 5.998906 36,000 292 379 0
2020-01-27 18:24:52 GMT 50.748779 6.006181 36,000 292 379 -64
2020-01-27 18:24:49 GMT 50.744778 6.022110 36,000 292 380 -64
2020-01-27 18:24:46 GMT 50.742599 6.030826 36,000 292 379 0
2020-01-27 18:24:43 GMT 50.742599 6.030826 36,000 292 379 0
2020-01-27 18:24:40 GMT 50.740402 6.039581 36,000 292 379 0
2020-01-27 18:24:37 GMT 50.738869 6.045761 36,000 292 378 0
2020-01-27 18:24:34 GMT 50.737099 6.052933 36,000 292 378 64
2020-01-27 18:24:31 GMT 50.735516 6.059036 36,000 292 378 0
2020-01-27 18:24:28 GMT 50.733189 6.068268 36,000 292 378 -64
2020-01-27 18:24:25 GMT 50.730907 6.077499 36,000 292 378 -64
2020-01-27 18:24:22 GMT 50.729324 6.083679 36,000 292 378 0
2020-01-27 18:24:19 GMT 50.726765 6.093903 36,000 292 378 0
2020-01-27 18:24:16 GMT 50.724667 6.102066 36,000 292 378 64
2020-01-27 18:24:10 GMT 50.720947 6.116935 36,000 292 379 0
2020-01-27 18:24:07 GMT 50.719116 6.124136 36,000 292 379 0
2020-01-27 18:24:04 GMT 50.717731 6.129761 36,000 292 378 0
2020-01-27 18:24:01 GMT 50.715546 6.138462 36,000 292 378 0
2020-01-27 18:23:57 GMT 50.713123 6.148224 36,000 292 378 0
2020-01-27 18:23:54 GMT 50.711308 6.155396 36,000 292 378 64
2020-01-27 18:23:51 GMT 50.708981 6.164627 36,000 292 378 0
2020-01-27 18:23:47 GMT 50.706528 6.174316 36,000 292 378 0
2020-01-27 18:23:44 GMT 50.702789 6.189117 36,000 292 378 0
2020-01-27 18:23:38 GMT 50.700974 6.196289 36,000 292 378 0
2020-01-27 18:23:35 GMT 50.698647 6.205521 36,000 292 379 0
2020-01-27 18:23:32 GMT 50.697235 6.211135 36,000 292 378 0
2020-01-27 18:23:29 GMT 50.695404 6.218262 36,000 292 378 0
2020-01-27 18:23:26 GMT 50.693199 6.226959 36,000 292 378 0
2020-01-27 18:23:23 GMT 50.691383 6.234131 36,000 292 378 0
2020-01-27 18:23:20 GMT 50.689289 6.242294 36,000 292 378 0
2020-01-27 18:23:17 GMT 50.687073 6.250924 35,975 292 378 64
2020-01-27 18:23:14 GMT 50.684967 6.259089 35,975 292 378 64
2020-01-27 18:23:11 GMT 50.683285 6.265717 35,975 292 378 0
2020-01-27 18:23:07 GMT 50.680676 6.275940 35,975 292 379 -64
2020-01-27 18:23:04 GMT 50.678627 6.284103 35,975 292 378 0
2020-01-27 18:23:01 GMT 50.676254 6.293335 35,975 292 378 0
2020-01-27 18:22:57 GMT 50.673569 6.304074 35,975 292 378 0
2020-01-27 18:22:53 GMT 50.669678 6.319379 35,975 292 377 0
2020-01-27 18:22:50 GMT 50.667458 6.328051 35,975 292 378 0
2020-01-27 18:22:47 GMT 50.667458 6.328051 35,975 292 378 0
2020-01-27 18:22:44 GMT 50.665642 6.335177 35,975 292 378 0
2020-01-27 18:22:41 GMT 50.663033 6.345421 35,975 292 378 0
2020-01-27 18:22:36 GMT 50.660149 6.356630 35,975 292 378 0
2020-01-27 18:22:33 GMT 50.658234 6.364264 35,975 292 378 0
2020-01-27 18:22:30 GMT 50.656517 6.370883 35,975 292 378 64
2020-01-27 18:22:27 GMT 50.654846 6.377491 35,975 292 378 64
2020-01-27 18:22:24 GMT 50.652885 6.385135 35,975 292 378 64
2020-01-27 18:22:21 GMT 50.650558 6.394340 35,975 292 378 0
2020-01-27 18:22:18 GMT 50.649021 6.400427 35,975 292 378 -64
2020-01-27 18:22:15 GMT 50.646927 6.408592 35,975 292 377 -64
2020-01-27 18:22:12 GMT 50.644833 6.416758 35,975 292 377 0
2020-01-27 18:22:09 GMT 50.643017 6.423884 35,975 292 377 0
2020-01-27 18:22:06 GMT 50.640793 6.432495 35,975 292 377 -64
2020-01-27 18:22:03 GMT 50.638962 6.439651 35,975 292 377 0
2020-01-27 18:22:00 GMT 50.636902 6.447818 35,975 293 376 -128
2020-01-27 18:21:57 GMT 50.634521 6.456925 35,975 292 377 0
2020-01-27 18:21:54 GMT 50.632866 6.463524 35,975 292 377 0
2020-01-27 18:21:51 GMT 50.631287 6.469611 35,975 292 377 0
2020-01-27 18:21:48 GMT 50.629074 6.478247 35,975 293 376 -128
2020-01-27 18:21:45 GMT 50.627243 6.485403 35,975 292 377 -64
2020-01-27 18:21:42 GMT 50.625324 6.492994 35,975 292 377 -64
2020-01-27 18:21:39 GMT 50.623463 6.500120 36,000 292 377 -64
2020-01-27 18:21:36 GMT 50.621414 6.508212 36,000 292 377 -64
2020-01-27 18:21:33 GMT 50.617504 6.523429 36,000 292 377 -64
2020-01-27 18:21:30 GMT 50.615250 6.532095 36,000 293 376 0
2020-01-27 18:21:27 GMT 50.615250 6.532095 36,000 293 376 0
2020-01-27 18:21:24 GMT 50.612011 6.544734 36,000 293 376 -64
2020-01-27 18:21:21 GMT 50.612011 6.544734 36,000 293 376 -128
2020-01-27 18:21:18 GMT 50.610031 6.552333 36,000 293 376 -64
2020-01-27 18:21:15 GMT 50.607697 6.561512 36,025 293 379 0
2020-01-27 18:21:12 GMT 50.605865 6.568595 36,025 293 377 -64
2020-01-27 18:21:09 GMT 50.603073 6.579252 36,025 293 377 -64
2020-01-27 18:21:06 GMT 50.602158 6.582762 36,025 293 377 -64
2020-01-27 18:21:03 GMT 50.599396 6.593430 36,025 293 377 -64
2020-01-27 18:21:00 GMT 50.597717 6.600037 36,025 293 378 -64
2020-01-27 18:20:57 GMT 50.595997 6.606643 36,025 293 378 -64
2020-01-27 18:20:54 GMT 50.593346 6.616739 36,025 293 379 0
2020-01-27 18:20:51 GMT 50.592453 6.620347 36,025 293 378 64
2020-01-27 18:20:48 GMT 50.590225 6.628913 36,050 293 378 -64
2020-01-27 18:20:45 GMT 50.587463 6.639645 36,050 293 378 -64
2020-01-27 18:20:41 GMT 50.585754 6.646209 36,050 293 378 -64
2020-01-27 18:20:38 GMT 50.582870 6.657418 36,050 293 378 -64
2020-01-27 18:20:35 GMT 50.581566 6.662540 36,050 293 378 64
2020-01-27 18:20:32 GMT 50.578915 6.672710 36,050 293 378 64
2020-01-27 18:20:29 GMT 50.577209 6.679326 36,050 293 378 64
2020-01-27 18:20:26 GMT 50.575237 6.686962 36,050 292 379 0
2020-01-27 18:20:23 GMT 50.573933 6.692084 36,025 293 379 0
2020-01-27 18:20:20 GMT 50.571991 6.699709 36,025 293 379 0
2020-01-27 18:20:17 GMT 50.569611 6.708888 36,025 293 379 0
2020-01-27 18:20:14 GMT 50.567879 6.715542 36,025 293 379 64
2020-01-27 18:20:11 GMT 50.565273 6.725786 36,025 293 379 0
2020-01-27 18:20:07 GMT 50.563133 6.733951 36,025 293 379 64
2020-01-27 18:20:04 GMT 50.560638 6.743654 36,025 293 379 64
2020-01-27 18:20:01 GMT 50.559036 6.749725 36,025 293 379 64
2020-01-27 18:19:57 GMT 50.556381 6.759917 36,025 293 379 64
2020-01-27 18:19:54 GMT 50.552284 6.775744 36,025 293 379 64
2020-01-27 18:19:51 GMT 50.552284 6.775744 36,025 293 379 0
2020-01-27 18:19:48 GMT 50.550144 6.783983 36,025 293 380 0
2020-01-27 18:19:45 GMT 50.547771 6.793114 36,025 293 380 0
2020-01-27 18:19:42 GMT 50.546188 6.799275 36,025 293 380 128
2020-01-27 18:19:39 GMT 50.544605 6.805362 36,025 293 380 0
2020-01-27 18:19:36 GMT 50.542744 6.812563 36,025 293 380 64
2020-01-27 18:19:33 GMT 50.539948 6.823233 36,025 293 380 64
2020-01-27 18:19:29 GMT 50.538071 6.830388 36,000 293 380 128
2020-01-27 18:19:26 GMT 50.536194 6.837544 36,000 293 380 128
2020-01-27 18:19:23 GMT 50.534088 6.845639 36,000 293 380 64
2020-01-27 18:19:20 GMT 50.531662 6.854818 35,975 293 380 64
2020-01-27 18:19:16 GMT 50.529427 6.863486 35,975 293 380 0
2020-01-27 18:19:13 GMT 50.527287 6.871651 35,975 293 380 64
2020-01-27 18:19:10 GMT 50.523422 6.886476 35,975 293 380 64
2020-01-27 18:19:07 GMT 50.521191 6.895109 35,975 293 380 64
2020-01-27 18:19:04 GMT 50.519440 6.901727 35,975 293 380 64
2020-01-27 18:19:01 GMT 50.519440 6.901727 35,975 293 380 64
2020-01-27 18:18:58 GMT 50.517185 6.910400 35,975 293 379 0
2020-01-27 18:18:55 GMT 50.515228 6.917990 35,975 293 379 64
2020-01-27 18:18:52 GMT 50.513351 6.925145 35,950 293 379 64
2020-01-27 18:18:49 GMT 50.510807 6.934823 35,950 293 379 64
2020-01-27 18:18:46 GMT 50.509502 6.939870 35,950 293 379 0
2020-01-27 18:18:43 GMT 50.507641 6.946997 35,950 293 379 0
2020-01-27 18:18:40 GMT 50.505341 6.955647 35,950 293 379 0
2020-01-27 18:18:37 GMT 50.503361 6.963254 35,950 293 378 0
2020-01-27 18:18:34 GMT 50.501083 6.971909 35,950 293 378 -64
2020-01-27 18:18:31 GMT 50.499355 6.978471 35,950 293 379 0
2020-01-27 18:18:28 GMT 50.497494 6.985597 35,950 293 378 0
2020-01-27 18:18:25 GMT 50.495224 6.994243 35,950 293 378 0
2020-01-27 18:18:22 GMT 50.493488 7.000815 35,950 293 378 -64
2020-01-27 18:18:19 GMT 50.489487 7.016032 35,950 293 378 0
2020-01-27 18:18:13 GMT 50.487110 7.025089 35,950 293 377 0
2020-01-27 18:18:10 GMT 50.485764 7.030211 35,950 293 377 0
2020-01-27 18:18:07 GMT 50.483505 7.038767 35,950 293 377 0
2020-01-27 18:18:04 GMT 50.481400 7.046790 35,950 293 376 0
2020-01-27 18:18:01 GMT 50.479385 7.054410 35,950 293 376 0
2020-01-27 18:17:58 GMT 50.475147 7.070519 35,950 293 376 0
2020-01-27 18:17:55 GMT 50.472885 7.079026 35,950 293 376 -64
2020-01-27 18:17:48 GMT 50.468628 7.095144 35,950 293 376 -64
2020-01-27 18:17:45 GMT 50.468628 7.095144 35,950 293 376 -64
2020-01-27 18:17:42 GMT 50.466118 7.104740 35,975 293 376 -64
2020-01-27 18:17:39 GMT 50.464371 7.111262 35,975 293 376 -128
2020-01-27 18:17:35 GMT 50.461880 7.120774 35,975 293 376 -128
2020-01-27 18:17:29 GMT 50.457458 7.137427 36,000 293 376 -128
2020-01-27 18:17:26 GMT 50.456295 7.141930 36,025 293 376 -128
2020-01-27 18:17:23 GMT 50.453522 7.152461 36,000 293 375 -64
2020-01-27 18:17:20 GMT 50.452057 7.158038 36,000 293 375 -64
2020-01-27 18:17:17 GMT 50.450195 7.165016 36,000 293 375 0
2020-01-27 18:17:14 GMT 50.448212 7.172554 36,000 293 375 0
2020-01-27 18:17:11 GMT 50.446335 7.179638 36,000 293 375 0
2020-01-27 18:17:07 GMT 50.443027 7.192185 36,000 293 376 0
2020-01-27 18:17:03 GMT 50.440521 7.201755 36,000 293 376 0
2020-01-27 18:17:00 GMT 50.437042 7.214765 36,000 293 376 0
2020-01-27 18:16:54 GMT 50.435440 7.220836 36,000 293 377 -64
2020-01-27 18:16:51 GMT 50.432510 7.231895 36,000 293 377 -64
2020-01-27 18:16:47 GMT 50.430359 7.239990 36,025 293 379 0
2020-01-27 18:16:44 GMT 50.427704 7.250037 36,000 293 377 0
2020-01-27 18:16:40 GMT 50.425278 7.259144 36,000 293 377 -64
2020-01-27 18:16:37 GMT 50.423290 7.266714 36,025 293 377 -64
2020-01-27 18:16:34 GMT 50.420868 7.275770 36,025 293 377 -64
2020-01-27 18:16:30 GMT 50.418045 7.286393 36,025 293 378 0
2020-01-27 18:16:27 GMT 50.414795 7.298536 36,025 293 378 0
2020-01-27 18:16:24 GMT 50.414795 7.298536 36,025 293 380 0
2020-01-27 18:16:21 GMT 50.412643 7.306559 36,025 293 379 0
2020-01-27 18:16:18 GMT 50.410114 7.316152 36,025 293 379 0
2020-01-27 18:16:15 GMT 50.408764 7.321200 36,025 293 379 -64
2020-01-27 18:16:12 GMT 50.406189 7.330844 36,025 293 379 -64
2020-01-27 18:16:09 GMT 50.404587 7.336916 36,025 293 379 -64
2020-01-27 18:16:06 GMT 50.403214 7.341975 36,025 293 379 -64
2020-01-27 18:16:03 GMT 50.400665 7.351635 36,025 293 380 -64
2020-01-27 18:16:00 GMT 50.398754 7.358687 36,025 293 380 0
2020-01-27 18:15:57 GMT 50.396568 7.366778 36,025 293 380 0
2020-01-27 18:15:54 GMT 50.394241 7.375440 36,025 293 380 0
2020-01-27 18:15:51 GMT 50.392193 7.383035 36,025 293 380 0
2020-01-27 18:15:48 GMT 50.388420 7.397213 36,025 293 380 64
2020-01-27 18:15:45 GMT 50.388420 7.397213 36,025 293 380 0
2020-01-27 18:15:42 GMT 50.386093 7.405797 36,025 293 380 0
2020-01-27 18:15:39 GMT 50.384720 7.410857 36,025 293 381 -64
2020-01-27 18:15:36 GMT 50.382137 7.420522 36,025 293 381 -64
2020-01-27 18:15:32 GMT 50.377808 7.436853 36,025 293 381 -64
2020-01-27 18:15:26 GMT 50.375153 7.447023 36,025 293 381 -64
2020-01-27 18:15:23 GMT 50.373413 7.453645 36,025 293 381 0
2020-01-27 18:15:20 GMT 50.371857 7.459789 36,025 293 381 -64
2020-01-27 18:15:17 GMT 50.369980 7.466872 36,025 293 381 0
2020-01-27 18:15:14 GMT 50.367706 7.475528 36,025 293 381 0
2020-01-27 18:15:11 GMT 50.362793 7.494410 36,025 293 382 -64
2020-01-27 18:15:08 GMT 50.362793 7.494410 36,025 293 382 -64
2020-01-27 18:15:05 GMT 50.359543 7.506698 36,025 293 382 -64
2020-01-27 18:15:02 GMT 50.359543 7.506698 36,025 293 382 -64
2020-01-27 18:14:59 GMT 50.357162 7.515877 36,025 293 382 -64
2020-01-27 18:14:53 GMT 50.353409 7.530188 36,025 293 382 -64
2020-01-27 18:14:50 GMT 50.350983 7.539440 36,025 293 382 -64
2020-01-27 18:14:47 GMT 50.348991 7.547088 36,025 293 382 -64
2020-01-27 18:14:44 GMT 50.345352 7.560907 36,025 293 382 0
2020-01-27 18:14:41 GMT 50.345352 7.560907 36,025 293 382 0
2020-01-27 18:14:38 GMT 50.343201 7.569074 36,025 293 382 0
2020-01-27 18:14:35 GMT 50.341217 7.576706 36,025 293 382 0
2020-01-27 18:14:32 GMT 50.339218 7.584397 36,025 293 382 0
2020-01-27 18:14:29 GMT 50.337341 7.591553 36,025 293 382 64
2020-01-27 18:14:26 GMT 50.334915 7.600732 36,025 293 382 0
2020-01-27 18:14:23 GMT 50.333313 7.606876 36,025 293 382 0
2020-01-27 18:14:20 GMT 50.328735 7.624295 36,000 293 383 0
2020-01-27 18:14:16 GMT 50.328735 7.624295 36,025 293 383 64
2020-01-27 18:14:13 GMT 50.324879 7.639135 36,025 293 383 64
2020-01-27 18:14:07 GMT 50.322327 7.648797 36,025 293 382 64
2020-01-27 18:14:04 GMT 50.320404 7.655953 36,000 293 382 64
2020-01-27 18:14:01 GMT 50.318405 7.663632 36,000 293 382 0
2020-01-27 18:13:58 GMT 50.316650 7.670264 36,000 293 383 0
2020-01-27 18:13:55 GMT 50.314125 7.679963 36,000 293 383 0
2020-01-27 18:13:52 GMT 50.312496 7.686124 36,000 293 383 0
2020-01-27 18:13:48 GMT 50.307652 7.704534 36,000 293 382 64
2020-01-27 18:13:45 GMT 50.307652 7.704534 36,000 293 382 0
2020-01-27 18:13:42 GMT 50.306213 7.710162 36,000 293 382 0
2020-01-27 18:13:39 GMT 50.303513 7.720353 36,000 293 382 -64
2020-01-27 18:13:36 GMT 50.302021 7.725987 36,000 293 382 -64
2020-01-27 18:13:33 GMT 50.299599 7.735192 36,000 293 382 -64
2020-01-27 18:13:29 GMT 50.297180 7.744322 36,000 293 382 -64
2020-01-27 18:13:26 GMT 50.294357 7.755047 36,000 293 382 0
2020-01-27 18:13:23 GMT 50.292709 7.761118 36,000 293 382 0
2020-01-27 18:13:20 GMT 50.290833 7.768274 36,000 293 381 0
2020-01-27 18:13:17 GMT 50.289078 7.774831 36,000 293 382 0
2020-01-27 18:13:14 GMT 50.287079 7.782512 36,000 293 381 0
2020-01-27 18:13:11 GMT 50.284378 7.792631 36,000 293 380 0
2020-01-27 18:13:08 GMT 50.282608 7.799254 36,000 293 381 64
2020-01-27 18:13:05 GMT 50.280350 7.807882 35,975 293 381 64
2020-01-27 18:13:02 GMT 50.277100 7.820025 35,975 293 380 0
2020-01-27 18:12:56 GMT 50.274948 7.828120 35,975 293 381 0
2020-01-27 18:12:53 GMT 50.273346 7.834264 35,975 293 380 0
2020-01-27 18:12:50 GMT 50.270142 7.846407 35,975 293 380 0
2020-01-27 18:12:47 GMT 50.268364 7.852998 35,975 293 380 0
2020-01-27 18:12:43 GMT 50.265839 7.862597 35,975 293 380 0
2020-01-27 18:12:40 GMT 50.263988 7.869700 35,975 293 380 0
2020-01-27 18:12:37 GMT 50.261707 7.878311 35,975 293 380 0
2020-01-27 18:12:34 GMT 50.260357 7.883359 35,975 293 379 0
2020-01-27 18:12:31 GMT 50.256180 7.899098 35,975 293 379 0
2020-01-27 18:12:28 GMT 50.256180 7.899098 35,975 293 379 0
2020-01-27 18:12:25 GMT 50.254070 7.907187 35,975 293 379 0
2020-01-27 18:12:22 GMT 50.249882 7.922850 36,000 293 378 -64
2020-01-27 18:12:19 GMT 50.249882 7.922850 35,975 293 379 0
2020-01-27 18:12:16 GMT 50.247894 7.930394 35,975 293 379 0
2020-01-27 18:12:13 GMT 50.246567 7.935454 35,975 293 378 0
2020-01-27 18:12:10 GMT 50.244690 7.942537 35,975 293 378 0
2020-01-27 18:12:07 GMT 50.241875 7.953137 35,975 293 378 0
2020-01-27 18:12:04 GMT 50.240292 7.959149 35,975 293 378 0
2020-01-27 18:12:01 GMT 50.237732 7.968774 35,975 293 378 0
2020-01-27 18:11:58 GMT 50.235626 7.976797 35,975 293 379 -64
2020-01-27 18:11:54 GMT 50.232651 7.987856 35,975 293 379 -64
2020-01-27 18:11:51 GMT 50.231277 7.992915 35,975 293 378 -64
2020-01-27 18:11:48 GMT 50.229538 7.999457 35,975 293 378 -64
2020-01-27 18:11:45 GMT 50.227524 8.007009 35,975 293 378 0
2020-01-27 18:11:42 GMT 50.225372 8.015032 35,975 293 378 0
2020-01-27 18:11:39 GMT 50.223209 8.023063 35,975 293 378 0
2020-01-27 18:11:36 GMT 50.218739 8.039617 35,975 293 378 0
2020-01-27 18:11:33 GMT 50.216721 8.047124 35,975 293 378 -64
2020-01-27 18:11:27 GMT 50.215248 8.052682 36,000 293 378 -64
2020-01-27 18:11:23 GMT 50.212280 8.063676 36,000 293 377 -64
2020-01-27 18:11:20 GMT 50.207844 8.080222 36,000 293 378 -64
2020-01-27 18:11:14 GMT 50.206356 8.085789 36,000 293 377 -64
2020-01-27 18:11:11 GMT 50.202072 8.101823 36,000 293 377 0
2020-01-27 18:11:08 GMT 50.202072 8.101823 36,000 293 377 0
2020-01-27 18:11:05 GMT 50.199932 8.109840 36,000 293 377 -64
2020-01-27 18:11:01 GMT 50.197403 8.119330 36,000 293 377 -64
2020-01-27 18:10:58 GMT 50.195648 8.125874 36,000 293 377 -64
2020-01-27 18:10:55 GMT 50.193508 8.133891 36,000 293 377 0
2020-01-27 18:10:52 GMT 50.189224 8.149925 36,025 293 377 0
2020-01-27 18:10:49 GMT 50.189224 8.149925 36,025 293 377 64
2020-01-27 18:10:46 GMT 50.187595 8.155864 36,000 293 377 0
2020-01-27 18:10:43 GMT 50.185455 8.163881 36,000 293 377 0
2020-01-27 18:10:37 GMT 50.181427 8.178888 36,000 293 377 0
2020-01-27 18:10:34 GMT 50.179260 8.186893 36,000 293 377 0
2020-01-27 18:10:31 GMT 50.177681 8.192906 36,025 293 377 0
2020-01-27 18:10:28 GMT 50.175770 8.199958 36,025 293 377 -64
2020-01-27 18:10:25 GMT 50.173630 8.207975 36,025 293 377 0
2020-01-27 18:10:22 GMT 50.171207 8.216957 36,025 293 377 -64
2020-01-27 18:10:19 GMT 50.169861 8.221930 36,025 293 377 -64
2020-01-27 18:10:16 GMT 50.164970 8.239969 36,025 293 377 0
2020-01-27 18:10:13 GMT 50.163109 8.246947 36,000 293 377 0
2020-01-27 18:10:10 GMT 50.163109 8.246947 36,025 293 377 0
2020-01-27 18:10:07 GMT 50.161057 8.254491 36,025 293 377 0
2020-01-27 18:10:04 GMT 50.159290 8.260976 36,025 293 377 0
2020-01-27 18:10:01 GMT 50.157429 8.267954 36,000 293 377 0
2020-01-27 18:09:58 GMT 50.154682 8.277976 36,000 293 377 0
2020-01-27 18:09:55 GMT 50.153332 8.283023 36,000 293 377 64
2020-01-27 18:09:52 GMT 50.150913 8.292005 36,000 293 377 64
2020-01-27 18:09:49 GMT 50.148724 8.300022 36,000 293 378 0
2020-01-27 18:09:46 GMT 50.147232 8.305520 36,000 293 378 0
2020-01-27 18:09:43 GMT 50.144257 8.316578 36,000 293 378 -64
2020-01-27 18:09:40 GMT 50.142929 8.321565 36,000 293 378 -64
2020-01-27 18:09:37 GMT 50.141006 8.328576 36,000 293 378 -64
2020-01-27 18:09:34 GMT 50.136978 8.343610 36,000 293 377 0
2020-01-27 18:09:28 GMT 50.133038 8.358146 36,000 293 377 0
2020-01-27 18:09:25 GMT 50.130848 8.366089 36,000 293 377 0
2020-01-27 18:09:22 GMT 50.130848 8.366089 36,000 293 377 0
2020-01-27 18:09:19 GMT 50.128986 8.373141 36,000 293 377 0
2020-01-27 18:09:16 GMT 50.126286 8.383088 36,000 293 377 0
2020-01-27 18:09:13 GMT 50.124252 8.390591 36,000 293 377 0
2020-01-27 18:09:09 GMT 50.122189 8.398083 36,000 293 377 0
2020-01-27 18:09:06 GMT 50.117706 8.414588 36,000 293 377 0
2020-01-27 18:09:03 GMT 50.117706 8.414588 36,000 293 377 -64
2020-01-27 18:09:00 GMT 50.115555 8.422611 36,000 293 377 -64
2020-01-27 18:08:57 GMT 50.113811 8.429112 36,000 293 376 -64
2020-01-27 18:08:54 GMT 50.111481 8.437572 36,000 293 377 -64
2020-01-27 18:08:51 GMT 50.109341 8.445591 36,000 293 376 0
2020-01-27 18:08:48 GMT 50.107849 8.451010 36,000 293 376 64
2020-01-27 18:08:45 GMT 50.105106 8.461032 36,000 293 376 64
2020-01-27 18:08:42 GMT 50.103615 8.466525 36,000 294 377 64
2020-01-27 18:08:39 GMT 50.101845 8.472983 36,000 294 377 0
2020-01-27 18:08:36 GMT 50.099659 8.480926 36,000 294 377 0
2020-01-27 18:08:33 GMT 50.097469 8.488869 36,000 294 377 0
2020-01-27 18:08:30 GMT 50.095459 8.496335 36,000 294 377 -64
2020-01-27 18:08:27 GMT 50.092987 8.505297 36,000 294 377 -64
2020-01-27 18:08:24 GMT 50.090927 8.512742 36,000 293 376 -128
2020-01-27 18:08:21 GMT 50.089462 8.518235 36,000 293 375 64
2020-01-27 18:08:18 GMT 50.087833 8.524203 36,000 293 376 -64
2020-01-27 18:08:15 GMT 50.082527 8.543577 36,000 293 375 64
2020-01-27 18:08:11 GMT 50.082527 8.543577 36,025 293 375 64
2020-01-27 18:08:08 GMT 50.078476 8.558494 36,000 293 375 64
2020-01-27 18:08:05 GMT 50.078476 8.558494 36,000 293 375 64
2020-01-27 18:08:02 GMT 50.076473 8.565921 36,000 294 375 0
2020-01-27 18:07:59 GMT 50.074310 8.573889 36,000 294 375 0
2020-01-27 18:07:56 GMT 50.072113 8.581840 36,000 294 375 0
2020-01-27 18:07:53 GMT 50.070648 8.587261 36,000 294 375 0
2020-01-27 18:07:50 GMT 50.068607 8.594723 36,000 294 375 0
2020-01-27 18:07:47 GMT 50.064930 8.608085 36,000 294 374 0
2020-01-27 18:07:41 GMT 50.062325 8.617512 36,000 294 375 0
2020-01-27 18:07:38 GMT 50.060303 8.624918 36,000 293 374 64
2020-01-27 18:07:34 GMT 50.057327 8.635832 36,000 294 375 0
2020-01-27 18:07:30 GMT 50.054764 8.645228 36,000 293 374 64
2020-01-27 18:07:27 GMT 50.052734 8.652698 36,000 293 374 64
2020-01-27 18:07:24 GMT 50.050964 8.659106 36,000 293 374 64
2020-01-27 18:07:21 GMT 50.048264 8.668955 36,000 293 373 64
2020-01-27 18:07:18 GMT 50.046799 8.674429 35,975 293 373 0
2020-01-27 18:07:15 GMT 50.044495 8.682837 35,975 294 374 0
2020-01-27 18:07:12 GMT 50.042175 8.691197 35,975 294 374 0
2020-01-27 18:07:09 GMT 50.040939 8.695606 35,975 294 374 -64
2020-01-27 18:07:06 GMT 50.036907 8.710451 35,975 294 374 0
2020-01-27 18:07:00 GMT 50.032425 8.726686 35,975 294 373 0
2020-01-27 18:06:57 GMT 50.032425 8.726686 35,975 294 373 0
2020-01-27 18:06:54 GMT 50.030762 8.732572 35,975 294 373 0
2020-01-27 18:06:51 GMT 50.027920 8.742890 35,975 294 373 0
2020-01-27 18:06:47 GMT 50.026154 8.749309 35,975 294 373 -64
2020-01-27 18:06:44 GMT 50.023872 8.757662 35,975 294 373 0
2020-01-27 18:06:41 GMT 50.022243 8.763527 36,000 294 372 0
2020-01-27 18:06:38 GMT 50.019260 8.774290 35,975 294 372 0
2020-01-27 18:06:35 GMT 50.015724 8.787058 35,975 294 372 0
2020-01-27 18:06:32 GMT 50.013428 8.795423 35,975 294 372 -64
2020-01-27 18:06:29 GMT 50.013428 8.795423 35,975 294 372 -64
2020-01-27 18:06:26 GMT 50.011505 8.802289 35,975 294 372 -64
2020-01-27 18:06:23 GMT 50.009209 8.810590 36,000 294 372 -64
2020-01-27 18:06:19 GMT 50.004551 8.827292 36,000 294 372 -64
2020-01-27 18:06:16 GMT 50.002365 8.835086 36,000 294 372 -64
2020-01-27 18:06:13 GMT 50.000610 8.841464 36,000 294 371 -64
2020-01-27 18:06:10 GMT 49.999008 8.847319 36,000 294 371 0
2020-01-27 18:06:04 GMT 49.996174 8.857579 36,000 294 370 0
2020-01-27 18:06:01 GMT 49.992634 8.870272 36,000 294 370 0
2020-01-27 18:05:55 GMT 49.989933 8.879997 36,000 294 370 0
2020-01-27 18:05:52 GMT 49.988583 8.884896 36,000 294 370 0
2020-01-27 18:05:49 GMT 49.986053 8.894155 36,000 294 370 0
2020-01-27 18:05:46 GMT 49.984020 8.901450 36,000 294 370 0
2020-01-27 18:05:41 GMT 49.980762 8.913178 36,000 294 370 0
2020-01-27 18:05:38 GMT 49.978622 8.920973 36,000 294 370 -64
2020-01-27 18:05:35 GMT 49.976578 8.928271 36,000 294 370 -64
2020-01-27 18:05:32 GMT 49.974712 8.935077 36,000 294 369 64
2020-01-27 18:05:29 GMT 49.970627 8.949665 36,000 294 369 0
2020-01-27 18:05:26 GMT 49.970627 8.949665 35,975 294 369 -64
2020-01-27 18:05:23 GMT 49.969025 8.955448 36,000 294 369 64
2020-01-27 18:05:20 GMT 49.966873 8.963254 36,000 294 369 64
2020-01-27 18:05:17 GMT 49.962933 8.977315 35,975 294 369 64
2020-01-27 18:05:14 GMT 49.960514 8.986000 35,975 294 369 0
2020-01-27 18:05:11 GMT 49.960514 8.986000 35,975 294 369 0
2020-01-27 18:05:08 GMT 49.956741 8.999584 35,975 294 369 -64
2020-01-27 18:05:05 GMT 49.954044 9.009309 35,975 294 365 -64
2020-01-27 18:05:01 GMT 49.954044 9.009309 35,975 294 369 -64
2020-01-27 18:04:58 GMT 49.952133 9.016064 35,975 294 369 -64
2020-01-27 18:04:55 GMT 49.950119 9.023389 35,975 294 367 64
2020-01-27 18:04:52 GMT 49.948086 9.030613 36,000 294 368 0
2020-01-27 18:04:49 GMT 49.945663 9.039373 36,000 294 368 0
2020-01-27 18:04:46 GMT 49.943893 9.045651 36,000 294 368 64
2020-01-27 18:04:43 GMT 49.939865 9.060107 35,975 294 367 64
2020-01-27 18:04:40 GMT 49.937565 9.068323 35,975 294 367 64
2020-01-27 18:04:37 GMT 49.937565 9.068323 35,975 294 367 64
2020-01-27 18:04:34 GMT 49.935516 9.075574 35,975 294 367 0
2020-01-27 18:04:31 GMT 49.933792 9.081833 35,975 294 367 0
2020-01-27 18:04:28 GMT 49.931602 9.089553 35,975 294 367 -64
2020-01-27 18:04:24 GMT 49.929337 9.097764 35,975 294 367 -64
2020-01-27 18:04:21 GMT 49.927322 9.104994 35,975 294 367 -64
2020-01-27 18:04:18 GMT 49.924622 9.114644 35,975 294 366 -64
2020-01-27 18:04:15 GMT 49.922836 9.120893 35,975 294 367 -64
2020-01-27 18:04:12 GMT 49.921234 9.126675 35,975 294 367 -64
2020-01-27 18:04:09 GMT 49.918152 9.137804 35,975 294 367 -64
2020-01-27 18:04:06 GMT 49.917206 9.141131 35,975 294 367 -64
2020-01-27 18:04:03 GMT 49.915173 9.148345 35,975 294 367 -64
2020-01-27 18:04:00 GMT 49.912354 9.158478 36,000 294 366 -64
2020-01-27 18:03:57 GMT 49.910610 9.164676 36,000 294 366 -64
2020-01-27 18:03:53 GMT 49.908600 9.171922 36,000 294 365 -64
2020-01-27 18:03:50 GMT 49.906281 9.180042 36,025 294 365 -64
2020-01-27 18:03:47 GMT 49.903858 9.188727 36,000 294 366 -64
2020-01-27 18:03:43 GMT 49.901440 9.197338 36,000 294 365 -64
2020-01-27 18:03:40 GMT 49.899124 9.205531 36,000 294 365 -128
2020-01-27 18:03:36 GMT 49.894272 9.222733 36,025 294 365 -64
2020-01-27 18:03:33 GMT 49.894272 9.222733 36,000 294 365 -64
2020-01-27 18:03:30 GMT 49.892220 9.229926 36,025 294 365 -64
2020-01-27 18:03:27 GMT 49.888596 9.242827 36,025 294 365 -64
2020-01-27 18:03:24 GMT 49.888596 9.242827 36,025 294 365 -64
2020-01-27 18:03:21 GMT 49.886265 9.251008 36,025 294 365 -64
2020-01-27 18:03:18 GMT 49.884247 9.258150 36,025 294 365 -64
2020-01-27 18:03:15 GMT 49.882492 9.264370 36,025 294 365 -64
2020-01-27 18:03:12 GMT 49.880302 9.272090 36,025 294 365 -64
2020-01-27 18:03:09 GMT 49.878571 9.278315 36,025 294 365 -64
2020-01-27 18:03:05 GMT 49.875320 9.289735 36,025 294 365 -64
2020-01-27 18:03:02 GMT 49.873833 9.295027 36,050 294 365 0
2020-01-27 18:02:59 GMT 49.871567 9.303179 36,025 294 365 0
2020-01-27 18:02:56 GMT 49.869503 9.310319 36,050 294 365 0
2020-01-27 18:02:53 GMT 49.867641 9.317074 36,050 294 365 0
2020-01-27 18:02:50 GMT 49.865456 9.324720 36,025 294 366 0
2020-01-27 18:02:47 GMT 49.862755 9.334296 36,025 294 365 0
2020-01-27 18:02:44 GMT 49.861816 9.337656 36,025 294 365 0
2020-01-27 18:02:41 GMT 49.858936 9.347658 36,025 294 365 -64
2020-01-27 18:02:37 GMT 49.855957 9.358199 36,050 294 366 -64
2020-01-27 18:02:34 GMT 49.854607 9.363024 36,050 294 366 -64
2020-01-27 18:02:31 GMT 49.852978 9.368740 36,050 294 366 0
2020-01-27 18:02:28 GMT 49.850277 9.378390 36,050 294 366 0
2020-01-27 18:02:25 GMT 49.848648 9.384106 36,050 294 366 0
2020-01-27 18:02:22 GMT 49.846230 9.392717 36,025 294 365 64
2020-01-27 18:02:19 GMT 49.844193 9.399888 36,025 294 365 64
2020-01-27 18:02:16 GMT 49.842457 9.406153 36,025 294 366 64
2020-01-27 18:02:12 GMT 49.839710 9.415729 36,025 294 366 64
2020-01-27 18:02:09 GMT 49.838081 9.421444 36,000 294 366 64
2020-01-27 18:02:06 GMT 49.834824 9.432950 36,025 294 366 0
2020-01-27 18:02:03 GMT 49.832867 9.439631 36,025 294 366 0
2020-01-27 18:02:00 GMT 49.831238 9.445347 36,025 294 365 0
2020-01-27 18:01:57 GMT 49.829498 9.451639 36,025 294 365 0
2020-01-27 18:01:54 GMT 49.827702 9.457818 36,025 294 365 0
2020-01-27 18:01:51 GMT 49.824875 9.467902 36,025 294 365 64
2020-01-27 18:01:48 GMT 49.823372 9.473110 36,025 294 365 64
2020-01-27 18:01:45 GMT 49.819427 9.486983 36,000 294 365 64
2020-01-27 18:01:39 GMT 49.814804 9.503246 36,000 294 364 64
2020-01-27 18:01:35 GMT 49.814804 9.503246 36,000 294 364 64
2020-01-27 18:01:29 GMT 49.810059 9.519876 36,000 294 364 0
2020-01-27 18:01:26 GMT 49.807755 9.528038 36,000 294 364 0
2020-01-27 18:01:23 GMT 49.806427 9.532808 36,000 294 363 0
2020-01-27 18:01:20 GMT 49.804504 9.539458 36,000 294 364 0
2020-01-27 18:01:17 GMT 49.802513 9.546600 36,000 294 364 64
2020-01-27 18:01:14 GMT 49.797501 9.564177 36,000 294 363 0
2020-01-27 18:01:10 GMT 49.797501 9.564177 36,000 294 363 -64
2020-01-27 18:01:07 GMT 49.795998 9.569389 36,000 294 361 -64
2020-01-27 18:01:04 GMT 49.793297 9.578890 36,000 294 363 0
2020-01-27 18:01:01 GMT 49.791946 9.583641 36,000 294 363 0
2020-01-27 18:00:58 GMT 49.789806 9.591213 36,000 294 362 -64
2020-01-27 18:00:55 GMT 49.787106 9.600715 36,000 294 362 0
2020-01-27 18:00:52 GMT 49.785755 9.605465 36,000 294 361 0
2020-01-27 18:00:49 GMT 49.781570 9.620048 36,000 294 361 -128
2020-01-27 18:00:46 GMT 49.779968 9.625758 36,000 294 360 0
2020-01-27 18:00:43 GMT 49.777267 9.635154 36,000 294 360 0
2020-01-27 18:00:40 GMT 49.777267 9.635154 36,000 294 360 0
2020-01-27 18:00:37 GMT 49.775234 9.642210 36,000 294 360 -64
2020-01-27 18:00:32 GMT 49.771912 9.653947 36,000 294 359 -64
2020-01-27 18:00:26 GMT 49.765877 9.675021 36,000 294 358 64
2020-01-27 18:00:23 GMT 49.765877 9.675021 36,000 294 358 64
2020-01-27 18:00:20 GMT 49.764297 9.680662 36,000 294 358 -64
2020-01-27 18:00:17 GMT 49.761597 9.690016 36,000 294 358 -64
2020-01-27 18:00:14 GMT 49.760525 9.693727 36,000 294 358 -64
2020-01-27 18:00:11 GMT 49.758430 9.701225 36,000 294 357 -64
2020-01-27 18:00:08 GMT 49.756008 9.709613 36,000 294 353 0
2020-01-27 18:00:05 GMT 49.751312 9.725936 36,000 294 357 0
2020-01-27 17:59:58 GMT 49.749306 9.732847 36,000 294 356 -64
2020-01-27 17:59:55 GMT 49.747055 9.740753 36,000 294 355 -64
2020-01-27 17:59:49 GMT 49.743210 9.754226 36,000 294 355 -64
2020-01-27 17:59:45 GMT 49.740555 9.763431 36,000 294 354 -64
2020-01-27 17:59:42 GMT 49.739250 9.768033 36,000 294 354 -64
2020-01-27 17:59:39 GMT 49.736984 9.775881 36,000 294 353 -64
2020-01-27 17:59:36 GMT 49.734604 9.784193 36,000 294 356 0
2020-01-27 17:59:32 GMT 49.732224 9.792432 36,000 294 353 0
2020-01-27 17:59:29 GMT 49.729988 9.800250 36,000 294 353 0
2020-01-27 17:59:26 GMT 49.728012 9.807177 36,000 294 353 0
2020-01-27 17:59:23 GMT 49.726311 9.813166 36,000 295 352 0
2020-01-27 17:59:20 GMT 49.722027 9.827864 36,000 295 353 0
2020-01-27 17:59:17 GMT 49.722027 9.827864 36,000 295 353 0
2020-01-27 17:59:14 GMT 49.719650 9.836178 36,000 294 354 0
2020-01-27 17:59:11 GMT 49.715515 9.850472 36,000 294 354 0
2020-01-27 17:59:08 GMT 49.715515 9.850472 36,000 295 354 0
2020-01-27 17:59:05 GMT 49.714188 9.855098 36,000 294 356 0
2020-01-27 17:59:01 GMT 49.711487 9.864349 36,000 295 354 0
2020-01-27 17:58:58 GMT 49.709610 9.870782 36,000 295 355 0
2020-01-27 17:58:55 GMT 49.707596 9.877748 36,000 295 355 0
2020-01-27 17:58:51 GMT 49.704662 9.887918 36,000 294 356 0
2020-01-27 17:58:46 GMT 49.701599 9.898609 36,050 295 360 -64
2020-01-27 17:58:43 GMT 49.699722 9.905114 36,000 295 357 -64
2020-01-27 17:58:40 GMT 49.695694 9.919064 36,000 295 357 -64
2020-01-27 17:58:37 GMT 49.695694 9.919064 36,000 295 358 -64
2020-01-27 17:58:34 GMT 49.692993 9.928316 36,000 295 358 -64
2020-01-27 17:58:31 GMT 49.691620 9.933014 36,000 295 358 -64
2020-01-27 17:58:27 GMT 49.688644 9.943205 36,000 295 359 0
2020-01-27 17:58:24 GMT 49.686089 9.952054 36,025 295 358 0
2020-01-27 17:58:21 GMT 49.684845 9.956288 36,000 295 358 0
2020-01-27 17:58:18 GMT 49.683243 9.961853 36,000 295 364 -256
2020-01-27 17:58:15 GMT 49.678345 9.978694 36,000 295 361 -128
2020-01-27 17:58:12 GMT 49.678345 9.978694 36,000 295 363 -384
2020-01-27 17:58:08 GMT 49.675709 9.987686 36,000 295 363 -256
2020-01-27 17:58:04 GMT 49.672958 9.997113 36,050 295 366 64
2020-01-27 17:58:01 GMT 49.670334 10.006160 36,050 295 367 0
2020-01-27 17:57:58 GMT 49.668686 10.011870 36,050 295 366 64
2020-01-27 17:57:54 GMT 49.665791 10.021832 36,050 295 367 -64
2020-01-27 17:57:51 GMT 49.663837 10.028513 36,050 295 367 0
2020-01-27 17:57:48 GMT 49.661453 10.036589 36,050 295 368 0
2020-01-27 17:57:45 GMT 49.658112 10.048081 36,050 295 369 -64
2020-01-27 17:57:42 GMT 49.655735 10.056202 36,050 295 369 64
2020-01-27 17:57:39 GMT 49.655735 10.056202 36,050 295 370 64
2020-01-27 17:57:36 GMT 49.653782 10.062957 36,050 295 371 64
2020-01-27 17:57:32 GMT 49.647171 10.085594 36,050 295 371 64
2020-01-27 17:57:28 GMT 49.647171 10.085594 36,025 295 371 64
2020-01-27 17:57:24 GMT 49.645203 10.092388 36,025 295 372 64
2020-01-27 17:57:21 GMT 49.642563 10.101558 36,025 295 372 64
2020-01-27 17:57:17 GMT 49.640442 10.108795 36,025 295 372 0
2020-01-27 17:57:14 GMT 49.638153 10.116529 36,025 295 373 0
2020-01-27 17:57:11 GMT 49.635910 10.124263 36,025 295 373 0
2020-01-27 17:57:08 GMT 49.634369 10.129617 36,025 295 373 -64
2020-01-27 17:57:05 GMT 49.631927 10.137851 36,025 295 374 64
2020-01-27 17:57:02 GMT 49.626968 10.154856 36,000 295 374 0
2020-01-27 17:56:58 GMT 49.626968 10.154856 36,000 295 375 64
2020-01-27 17:56:55 GMT 49.624733 10.162576 36,025 295 375 0
2020-01-27 17:56:52 GMT 49.620575 10.176665 36,025 295 375 0
2020-01-27 17:56:46 GMT 49.615608 10.193754 36,000 295 376 0
2020-01-27 17:56:42 GMT 49.615608 10.193754 36,025 295 377 -64
2020-01-27 17:56:39 GMT 49.613754 10.200083 36,050 295 375 0
2020-01-27 17:56:36 GMT 49.611046 10.209342 36,050 295 375 -64
2020-01-27 17:56:32 GMT 49.605877 10.226787 36,050 295 375 0
2020-01-27 17:56:29 GMT 49.605877 10.226787 36,050 295 375 0
2020-01-27 17:56:25 GMT 49.603550 10.234581 36,050 295 375 64
2020-01-27 17:56:22 GMT 49.601120 10.242872 36,025 295 376 64
2020-01-27 17:56:19 GMT 49.598557 10.251617 36,025 295 375 64
2020-01-27 17:56:16 GMT 49.596817 10.257472 36,025 295 376 0
2020-01-27 17:56:13 GMT 49.594101 10.266724 36,025 295 376 0
2020-01-27 17:56:09 GMT 49.591263 10.276448 36,025 295 377 0
2020-01-27 17:56:06 GMT 49.589539 10.282312 36,025 295 377 0
2020-01-27 17:56:03 GMT 49.586933 10.291146 36,025 295 377 -64
2020-01-27 17:56:00 GMT 49.585922 10.294551 36,025 295 377 -64
2020-01-27 17:55:57 GMT 49.583488 10.302800 36,050 295 377 -64
2020-01-27 17:55:54 GMT 49.580879 10.311634 36,025 295 376 0
2020-01-27 17:55:50 GMT 49.577435 10.323288 36,025 295 376 64
2020-01-27 17:55:47 GMT 49.576401 10.326715 36,000 295 377 64
2020-01-27 17:55:44 GMT 49.570953 10.345290 36,025 295 377 64
2020-01-27 17:55:41 GMT 49.570953 10.345290 36,000 295 377 64
2020-01-27 17:55:35 GMT 49.566776 10.359439 36,000 295 377 0
2020-01-27 17:55:32 GMT 49.562851 10.372612 36,000 295 377 -64
2020-01-27 17:55:29 GMT 49.562851 10.372612 36,025 295 377 -64
2020-01-27 17:55:26 GMT 49.560120 10.381857 36,025 295 377 -64
2020-01-27 17:55:23 GMT 49.557953 10.389163 36,025 295 377 -64
2020-01-27 17:55:19 GMT 49.555389 10.397981 36,025 295 377 -64
2020-01-27 17:55:16 GMT 49.553925 10.402824 36,025 295 377 -64
2020-01-27 17:55:13 GMT 49.551315 10.411642 36,025 295 376 -64
2020-01-27 17:55:10 GMT 49.549301 10.418436 36,025 295 375 0
2020-01-27 17:55:07 GMT 49.547733 10.423798 36,025 295 376 -64
2020-01-27 17:55:04 GMT 49.544998 10.433036 36,025 295 376 -64
2020-01-27 17:55:01 GMT 49.542240 10.442282 36,025 295 376 -64
2020-01-27 17:54:57 GMT 49.539230 10.452552 36,025 295 376 0
2020-01-27 17:54:54 GMT 49.534748 10.467595 36,025 295 376 0
2020-01-27 17:54:51 GMT 49.534748 10.467595 36,050 295 375 0
2020-01-27 17:54:48 GMT 49.533585 10.471455 36,025 295 375 64
2020-01-27 17:54:45 GMT 49.530579 10.481680 36,025 295 375 64
2020-01-27 17:54:42 GMT 49.527298 10.492834 36,025 295 375 64
2020-01-27 17:54:36 GMT 49.522522 10.508857 36,025 295 375 64
2020-01-27 17:54:33 GMT 49.522522 10.508857 36,025 295 375 0
2020-01-27 17:54:29 GMT 49.519802 10.518073 36,025 295 375 0
2020-01-27 17:54:26 GMT 49.517670 10.525336 36,025 295 375 64
2020-01-27 17:54:22 GMT 49.513191 10.540417 36,025 295 375 64
2020-01-27 17:54:19 GMT 49.510632 10.549102 36,025 295 375 64
2020-01-27 17:54:16 GMT 49.510632 10.549102 36,000 295 375 64
2020-01-27 17:54:13 GMT 49.508469 10.556416 36,000 295 375 64
2020-01-27 17:54:10 GMT 49.505466 10.566546 36,000 295 375 64
2020-01-27 17:54:07 GMT 49.504166 10.570944 36,000 295 375 64
2020-01-27 17:54:04 GMT 49.501877 10.578678 36,000 295 375 64
2020-01-27 17:54:01 GMT 49.499908 10.585472 35,975 295 375 64
2020-01-27 17:53:58 GMT 49.497620 10.593278 35,975 295 375 64
2020-01-27 17:53:54 GMT 49.495178 10.601510 35,975 295 375 64
2020-01-27 17:53:51 GMT 49.492336 10.611234 35,975 295 374 0
2020-01-27 17:53:48 GMT 49.490524 10.617491 35,975 295 374 -64
2020-01-27 17:53:44 GMT 49.485443 10.634982 35,975 295 374 -64
2020-01-27 17:53:41 GMT 49.485443 10.634982 35,975 295 374 -64
2020-01-27 17:53:38 GMT 49.483429 10.641777 35,975 295 372 -64
2020-01-27 17:53:35 GMT 49.480637 10.651462 35,975 295 373 -64
2020-01-27 17:53:31 GMT 49.478512 10.658668 36,000 296 373 -64
2020-01-27 17:53:28 GMT 49.476788 10.664533 36,000 297 372 0
2020-01-27 17:53:25 GMT 49.471710 10.681313 36,000 295 373 -64
2020-01-27 17:53:22 GMT 49.471710 10.681313 36,000 296 373 -64
2020-01-27 17:53:19 GMT 49.469479 10.688510 36,000 296 373 -64
2020-01-27 17:53:14 GMT 49.466309 10.698443 36,000 297 372 0
2020-01-27 17:53:11 GMT 49.463287 10.707911 36,000 297 372 -64
2020-01-27 17:53:08 GMT 49.461456 10.713621 36,000 297 372 -64
2020-01-27 17:53:04 GMT 49.458389 10.723090 36,000 297 372 -64
2020-01-27 17:53:01 GMT 49.456074 10.730154 36,000 297 372 -64
2020-01-27 17:52:58 GMT 49.451977 10.742996 36,000 297 371 -64
2020-01-27 17:52:52 GMT 49.449371 10.750939 36,000 297 371 0
2020-01-27 17:52:49 GMT 49.446671 10.759475 36,000 297 371 -64
2020-01-27 17:52:46 GMT 49.444977 10.764650 36,000 297 371 -64
2020-01-27 17:52:43 GMT 49.439484 10.781563 36,000 297 370 0
2020-01-27 17:52:40 GMT 49.439484 10.781563 36,025 297 370 -64
2020-01-27 17:52:37 GMT 49.437824 10.786793 36,025 297 370 0
2020-01-27 17:52:31 GMT 49.432659 10.802753 36,025 297 370 0
2020-01-27 17:52:27 GMT 49.427212 10.819654 36,000 297 369 0
2020-01-27 17:52:24 GMT 49.425842 10.823857 36,000 297 369 -64
2020-01-27 17:52:21 GMT 49.422821 10.833224 36,000 297 369 -64
2020-01-27 17:52:18 GMT 49.422821 10.833224 36,000 297 369 -64
2020-01-27 17:52:15 GMT 49.417526 10.849650 36,025 297 369 -64
2020-01-27 17:52:11 GMT 49.417526 10.849650 36,025 297 369 0
2020-01-27 17:52:08 GMT 49.415386 10.856155 36,025 297 368 0
2020-01-27 17:52:05 GMT 49.411755 10.867430 36,025 297 368 64
2020-01-27 17:51:58 GMT 49.408264 10.878155 36,000 297 368 128
2020-01-27 17:51:55 GMT 49.405983 10.885138 36,000 297 368 0
2020-01-27 17:51:51 GMT 49.402679 10.895402 36,000 297 368 64
2020-01-27 17:51:48 GMT 49.398560 10.907945 35,975 297 368 0
2020-01-27 17:51:45 GMT 49.396255 10.914989 35,975 297 368 0
2020-01-27 17:51:42 GMT 49.396255 10.914989 35,975 297 368 -64
2020-01-27 17:51:38 GMT 49.390202 10.933637 35,975 297 368 0
2020-01-27 17:51:35 GMT 49.390202 10.933637 35,975 297 368 0
2020-01-27 17:51:29 GMT 49.386337 10.945780 36,000 295 366 0
2020-01-27 17:51:26 GMT 49.383499 10.955176 36,000 295 366 0
2020-01-27 17:51:22 GMT 49.378704 10.971222 35,975 295 366 64
2020-01-27 17:51:19 GMT 49.378704 10.971222 35,975 295 366 0
2020-01-27 17:51:15 GMT 49.376469 10.978739 35,975 295 366 -64
2020-01-27 17:51:12 GMT 49.374794 10.984449 35,975 295 366 -64
2020-01-27 17:51:09 GMT 49.372421 10.992455 36,000 295 366 -64
2020-01-27 17:51:06 GMT 49.369766 11.001362 36,000 295 366 -64
2020-01-27 17:51:01 GMT 49.366692 11.011698 36,000 295 364 -64
2020-01-27 17:50:58 GMT 49.364594 11.018794 36,000 295 364 -64
2020-01-27 17:50:55 GMT 49.361946 11.027671 36,000 295 365 -64
2020-01-27 17:50:52 GMT 49.359558 11.035696 36,000 295 365 -64
2020-01-27 17:50:49 GMT 49.358139 11.040344 36,000 295 364 -64
2020-01-27 17:50:45 GMT 49.355347 11.049711 36,000 295 364 -64
2020-01-27 17:50:42 GMT 49.353100 11.057233 36,000 295 364 -64
2020-01-27 17:50:39 GMT 49.351685 11.061894 36,025 295 364 -64
2020-01-27 17:50:36 GMT 49.347198 11.076824 36,025 295 363 -64
2020-01-27 17:50:30 GMT 49.344681 11.085276 36,025 295 363 0
2020-01-27 17:50:26 GMT 49.342163 11.093656 36,025 295 362 64
2020-01-27 17:50:23 GMT 49.340240 11.100206 36,025 295 362 64
2020-01-27 17:50:20 GMT 49.337997 11.107671 36,000 295 362 128
2020-01-27 17:50:17 GMT 49.335922 11.114695 36,000 295 362 128
2020-01-27 17:50:14 GMT 49.333832 11.121685 36,000 295 363 64
2020-01-27 17:50:11 GMT 49.331173 11.130524 36,000 295 363 64
2020-01-27 17:50:07 GMT 49.328613 11.138980 36,000 295 363 0
2020-01-27 17:50:03 GMT 49.325958 11.147813 35,975 295 363 0
2020-01-27 17:50:00 GMT 49.324425 11.152930 36,000 295 364 -64
2020-01-27 17:49:57 GMT 49.321472 11.162743 36,000 295 364 -64
2020-01-27 17:49:54 GMT 49.319778 11.168377 36,000 295 363 -128
2020-01-27 17:49:51 GMT 49.317673 11.175336 36,000 295 363 -128
2020-01-27 17:49:48 GMT 49.315292 11.183307 36,000 295 363 -64
2020-01-27 17:49:42 GMT 49.310970 11.197743 36,025 295 361 0
2020-01-27 17:49:38 GMT 49.308456 11.206127 36,025 295 362 64
2020-01-27 17:49:35 GMT 49.306915 11.211196 36,025 295 362 64
2020-01-27 17:49:32 GMT 49.304672 11.218661 36,000 295 361 0
2020-01-27 17:49:29 GMT 49.302155 11.226971 36,000 295 361 64
2020-01-27 17:49:26 GMT 49.300308 11.233015 36,000 295 362 128
2020-01-27 17:49:23 GMT 49.298077 11.240459 36,000 295 361 128
2020-01-27 17:49:17 GMT 49.294167 11.253469 35,975 295 362 0
2020-01-27 17:49:14 GMT 49.291809 11.261338 35,975 295 362 0
2020-01-27 17:49:11 GMT 49.289566 11.268804 36,000 295 361 -64
2020-01-27 17:49:08 GMT 49.287598 11.275283 35,975 295 362 -64
2020-01-27 17:49:05 GMT 49.285786 11.281297 35,975 295 362 -64
2020-01-27 17:49:02 GMT 49.283272 11.289681 36,000 295 362 -64
2020-01-27 17:48:58 GMT 49.280594 11.298523 36,000 295 360 0
2020-01-27 17:48:55 GMT 49.278625 11.305002 36,000 295 361 0
2020-01-27 17:48:52 GMT 49.275833 11.314228 36,000 295 360 0
2020-01-27 17:48:49 GMT 49.274055 11.320255 35,975 295 360 0
2020-01-27 17:48:45 GMT 49.271667 11.328102 36,000 295 360 0
2020-01-27 17:48:42 GMT 49.267025 11.343384 36,000 295 360 0
2020-01-27 17:48:39 GMT 49.267025 11.343384 36,000 295 360 0
2020-01-27 17:48:36 GMT 49.264790 11.350756 35,975 295 360 -64
2020-01-27 17:48:33 GMT 49.262421 11.358596 36,000 295 360 -64
2020-01-27 17:48:30 GMT 49.261158 11.362754 36,000 295 360 0
2020-01-27 17:48:26 GMT 49.256180 11.379378 36,000 295 360 -64
2020-01-27 17:48:20 GMT 49.254223 11.385811 36,000 295 360 -64
2020-01-27 17:48:17 GMT 49.252121 11.392752 36,000 295 360 -64
2020-01-27 17:48:14 GMT 49.250267 11.398749 36,000 295 360 -64
2020-01-27 17:48:11 GMT 49.248032 11.406122 36,000 295 360 -64
2020-01-27 17:48:08 GMT 49.245842 11.413494 36,000 295 360 -64
2020-01-27 17:48:04 GMT 49.243050 11.422673 36,000 295 359 0
2020-01-27 17:48:01 GMT 49.240677 11.430500 36,000 295 360 -64
2020-01-27 17:47:58 GMT 49.236465 11.444373 36,000 295 359 0
2020-01-27 17:47:55 GMT 49.234673 11.450356 36,000 295 359 0
2020-01-27 17:47:49 GMT 49.232716 11.456789 36,000 295 359 0
2020-01-27 17:47:46 GMT 49.230103 11.465501 36,000 295 359 0
2020-01-27 17:47:43 GMT 49.226166 11.478389 36,000 295 359 0
2020-01-27 17:47:40 GMT 49.226166 11.478389 36,025 295 359 0
2020-01-27 17:47:37 GMT 49.224518 11.483882 36,000 295 359 0
2020-01-27 17:47:34 GMT 49.221725 11.493108 36,000 295 359 0
2020-01-27 17:47:31 GMT 49.219913 11.499072 36,000 295 359 0
2020-01-27 17:47:28 GMT 49.217678 11.506372 36,000 295 359 0
2020-01-27 17:47:25 GMT 49.214607 11.516491 36,000 295 359 0
2020-01-27 17:47:22 GMT 49.213898 11.518813 36,000 295 359 0
2020-01-27 17:47:19 GMT 49.211815 11.525670 36,000 295 359 0
2020-01-27 17:47:16 GMT 49.209412 11.533461 36,000 295 359 0
2020-01-27 17:47:13 GMT 49.207344 11.540343 36,000 295 359 0
2020-01-27 17:47:10 GMT 49.204926 11.548180 36,000 295 359 0
2020-01-27 17:47:07 GMT 49.203278 11.553673 36,025 296 358 0
2020-01-27 17:47:03 GMT 49.200596 11.562388 36,000 295 359 0
2020-01-27 17:47:00 GMT 49.197372 11.572970 36,000 295 359 -64
2020-01-27 17:46:57 GMT 49.193287 11.586312 36,000 295 359 -64
2020-01-27 17:46:53 GMT 49.193287 11.586312 36,000 295 359 -64
2020-01-27 17:46:50 GMT 49.191193 11.593182 36,025 295 359 -64
2020-01-27 17:46:47 GMT 49.188816 11.601057 36,025 295 359 -64
2020-01-27 17:46:44 GMT 49.187141 11.606550 36,025 295 359 0
2020-01-27 17:46:41 GMT 49.182903 11.620283 36,025 296 359 0
2020-01-27 17:46:38 GMT 49.182903 11.620283 36,025 295 359 0
2020-01-27 17:46:34 GMT 49.177185 11.639099 36,025 296 358 0
2020-01-27 17:46:31 GMT 49.176201 11.642328 36,025 296 358 64
2020-01-27 17:46:28 GMT 49.172974 11.652832 36,025 296 358 0
2020-01-27 17:46:24 GMT 49.172974 11.652832 36,025 296 358 0
2020-01-27 17:46:21 GMT 49.171326 11.658325 36,025 296 358 0
2020-01-27 17:46:18 GMT 49.169083 11.665649 36,025 296 357 0
2020-01-27 17:46:14 GMT 49.165260 11.678033 36,025 296 358 0
2020-01-27 17:46:11 GMT 49.161350 11.690826 36,025 296 358 64
2020-01-27 17:46:08 GMT 49.161350 11.690826 36,025 296 358 64
2020-01-27 17:46:05 GMT 49.159676 11.696320 36,000 296 358 64
2020-01-27 17:46:02 GMT 49.157547 11.703186 36,000 296 358 0
2020-01-27 17:45:59 GMT 49.155304 11.710510 36,000 296 358 0
2020-01-27 17:45:56 GMT 49.153343 11.716919 36,000 295 359 0
2020-01-27 17:45:53 GMT 49.151642 11.722483 36,000 296 360 -64
2020-01-27 17:45:50 GMT 49.149246 11.730218 36,000 296 360 -64
2020-01-27 17:45:46 GMT 49.146286 11.739878 36,025 296 359 64
2020-01-27 17:45:43 GMT 49.143894 11.747637 36,025 296 359 64
2020-01-27 17:45:40 GMT 49.141937 11.754070 36,025 296 359 64
2020-01-27 17:45:36 GMT 49.136864 11.770550 36,000 296 359 64
2020-01-27 17:45:33 GMT 49.136864 11.770550 36,000 296 359 64
2020-01-27 17:45:30 GMT 49.135025 11.776499 36,000 296 359 0
2020-01-27 17:45:27 GMT 49.132908 11.783343 36,000 296 359 0
2020-01-27 17:45:24 GMT 49.130814 11.790232 36,000 296 360 0
2020-01-27 17:45:21 GMT 49.128670 11.797076 36,000 296 358 0
2020-01-27 17:45:18 GMT 49.125877 11.806255 36,000 296 360 -64
2020-01-27 17:45:15 GMT 49.124481 11.810809 36,000 296 358 -64
2020-01-27 17:45:12 GMT 49.122070 11.818613 36,000 296 358 0
2020-01-27 17:45:06 GMT 49.115341 11.840586 36,000 296 358 0
2020-01-27 17:45:02 GMT 49.115341 11.840586 36,000 296 358 0
2020-01-27 17:44:59 GMT 49.112778 11.848825 36,000 296 358 0
2020-01-27 17:44:56 GMT 49.111259 11.853814 36,000 296 358 0
2020-01-27 17:44:53 GMT 49.106323 11.869812 36,000 296 359 0
2020-01-27 17:44:49 GMT 49.106323 11.869812 36,000 296 359 -64
2020-01-27 17:44:46 GMT 49.104355 11.876221 36,000 296 359 -64
2020-01-27 17:44:42 GMT 49.101112 11.886701 36,000 296 359 0
2020-01-27 17:44:39 GMT 49.099110 11.893134 36,025 296 359 0
2020-01-27 17:44:36 GMT 49.095200 11.905855 36,025 296 359 -64
2020-01-27 17:44:33 GMT 49.095200 11.905855 36,025 296 358 -64
2020-01-27 17:44:30 GMT 49.091949 11.916363 36,025 296 358 -64
2020-01-27 17:44:27 GMT 49.090256 11.921856 36,025 296 358 -64
2020-01-27 17:44:24 GMT 49.087845 11.929634 36,025 296 358 -64
2020-01-27 17:44:21 GMT 49.086727 11.933248 36,025 296 358 -64
2020-01-27 17:44:18 GMT 49.082062 11.948266 36,025 296 358 0
2020-01-27 17:44:14 GMT 49.082062 11.948266 36,025 296 357 0
2020-01-27 17:44:11 GMT 49.078949 11.958266 36,025 296 357 0
2020-01-27 17:44:08 GMT 49.077530 11.962844 36,025 296 356 0
2020-01-27 17:44:05 GMT 49.075287 11.970097 36,025 296 356 64
2020-01-27 17:44:02 GMT 49.073460 11.975965 36,025 296 356 64
2020-01-27 17:43:59 GMT 49.068665 11.991433 36,025 296 356 64
2020-01-27 17:43:56 GMT 49.065994 12.000028 36,025 296 356 64
2020-01-27 17:43:50 GMT 49.063915 12.006828 36,025 296 356 0
2020-01-27 17:43:47 GMT 49.062473 12.011381 36,000 296 356 0
2020-01-27 17:43:44 GMT 49.060520 12.017742 36,025 296 357 0
2020-01-27 17:43:41 GMT 49.058842 12.023163 36,000 296 357 0
2020-01-27 17:43:38 GMT 49.056152 12.031790 36,025 296 357 0
2020-01-27 17:43:35 GMT 49.053635 12.039959 36,025 296 357 0
2020-01-27 17:43:32 GMT 49.051071 12.048129 36,025 296 356 0
2020-01-27 17:43:29 GMT 49.049973 12.051720 36,025 296 356 0
2020-01-27 17:43:26 GMT 49.047577 12.059447 36,025 296 356 64
2020-01-27 17:43:22 GMT 49.042374 12.076158 36,000 296 355 64
2020-01-27 17:43:19 GMT 49.042374 12.076158 36,000 296 355 64
2020-01-27 17:43:15 GMT 49.039989 12.083804 36,000 296 355 0
2020-01-27 17:43:12 GMT 49.034962 12.100067 36,000 296 355 0
2020-01-27 17:43:09 GMT 49.034962 12.100067 36,000 296 355 0
2020-01-27 17:43:06 GMT 49.033566 12.104621 36,000 296 355 0
2020-01-27 17:43:01 GMT 49.030334 12.114962 36,000 296 355 64
2020-01-27 17:42:57 GMT 49.027374 12.124425 36,000 296 355 64
2020-01-27 17:42:54 GMT 49.025299 12.131160 36,000 296 355 64
2020-01-27 17:42:51 GMT 49.023056 12.138414 36,000 296 355 64
2020-01-27 17:42:48 GMT 49.021088 12.144681 35,975 296 354 64
2020-01-27 17:42:45 GMT 49.018993 12.151457 35,975 296 354 64
2020-01-27 17:42:42 GMT 49.016327 12.159964 35,975 296 354 64
2020-01-27 17:42:39 GMT 49.014908 12.164471 35,975 296 354 64
2020-01-27 17:42:36 GMT 49.012390 12.172570 35,975 296 354 0
2020-01-27 17:42:32 GMT 49.009731 12.181091 35,975 296 354 0
2020-01-27 17:42:29 GMT 49.007496 12.188247 35,975 296 354 0
2020-01-27 17:42:26 GMT 49.002319 12.204825 35,975 296 353 0
2020-01-27 17:42:21 GMT 49.002319 12.204825 35,975 296 353 0
2020-01-27 17:42:18 GMT 48.999481 12.213839 35,975 296 353 0
2020-01-27 17:42:15 GMT 48.995579 12.226410 35,950 296 352 0
2020-01-27 17:42:12 GMT 48.995579 12.226410 35,975 296 352 64
2020-01-27 17:42:09 GMT 48.993763 12.232120 35,975 296 352 64
2020-01-27 17:42:06 GMT 48.991379 12.239755 35,950 296 352 64
2020-01-27 17:42:03 GMT 48.989574 12.245564 35,950 296 352 64
2020-01-27 17:42:00 GMT 48.987617 12.251780 35,950 296 352 64
2020-01-27 17:41:57 GMT 48.985519 12.258489 35,950 296 352 0
2020-01-27 17:41:54 GMT 48.983276 12.265602 35,950 296 351 0
2020-01-27 17:41:51 GMT 48.981472 12.271367 35,950 296 352 0
2020-01-27 17:41:47 GMT 48.977692 12.283419 35,950 296 351 0
2020-01-27 17:41:44 GMT 48.976727 12.286546 35,950 296 351 0
2020-01-27 17:41:41 GMT 48.973526 12.296729 35,950 296 351 -64
2020-01-27 17:41:37 GMT 48.969910 12.308279 35,950 296 350 0
2020-01-27 17:41:31 GMT 48.967789 12.314951 35,950 296 349 0
2020-01-27 17:41:28 GMT 48.965038 12.323841 35,950 296 349 0
2020-01-27 17:41:25 GMT 48.961258 12.335745 35,950 296 348 0
2020-01-27 17:41:22 GMT 48.961258 12.335745 35,950 296 348 0
2020-01-27 17:41:19 GMT 48.959175 12.342417 35,950 296 348 0
2020-01-27 17:41:16 GMT 48.956818 12.349900 35,950 296 348 0
2020-01-27 17:41:13 GMT 48.954472 12.357451 35,950 296 348 0
2020-01-27 17:41:10 GMT 48.953075 12.361860 35,950 296 349 -64
2020-01-27 17:41:07 GMT 48.950729 12.369338 35,975 296 349 -128
2020-01-27 17:41:04 GMT 48.948654 12.375954 35,975 296 349 -128
2020-01-27 17:41:01 GMT 48.945580 12.385712 35,975 296 349 -64
2020-01-27 17:40:58 GMT 48.944183 12.390121 35,975 296 349 -64
2020-01-27 17:40:55 GMT 48.939995 12.403348 36,000 296 349 -64
2020-01-27 17:40:52 GMT 48.939995 12.403348 36,000 296 349 -64
2020-01-27 17:40:48 GMT 48.937912 12.409973 35,975 296 349 0
2020-01-27 17:40:45 GMT 48.935013 12.419249 36,000 296 349 0
2020-01-27 17:40:42 GMT 48.933338 12.424525 36,000 296 349 -64
2020-01-27 17:40:39 GMT 48.931103 12.431536 36,000 296 349 0
2020-01-27 17:40:36 GMT 48.928867 12.438620 36,000 296 349 -64
2020-01-27 17:40:33 GMT 48.927063 12.444341 36,000 296 349 -64
2020-01-27 17:40:30 GMT 48.924271 12.453214 36,000 296 349 -64
2020-01-27 17:40:27 GMT 48.923050 12.457195 36,000 296 349 -64
2020-01-27 17:40:24 GMT 48.920815 12.464278 36,000 296 349 -128
2020-01-27 17:40:21 GMT 48.918732 12.470891 36,025 296 349 0
2020-01-27 17:40:18 GMT 48.916904 12.476638 36,025 296 349 0
2020-01-27 17:40:15 GMT 48.913834 12.486323 36,025 296 349 -64
2020-01-27 17:40:11 GMT 48.911728 12.492934 36,025 296 349 0
2020-01-27 17:40:08 GMT 48.909641 12.499550 36,025 296 349 0
2020-01-27 17:40:05 GMT 48.904770 12.515048 36,025 296 350 0
2020-01-27 17:40:01 GMT 48.904770 12.515048 36,025 296 350 0
2020-01-27 17:39:58 GMT 48.902660 12.521667 36,025 296 350 0
2020-01-27 17:39:55 GMT 48.900425 12.528751 36,025 296 350 -64
2020-01-27 17:39:52 GMT 48.898041 12.536245 36,025 296 350 -64
2020-01-27 17:39:49 GMT 48.896191 12.542050 36,025 296 350 -64
2020-01-27 17:39:46 GMT 48.891720 12.556217 36,025 296 350 -64
2020-01-27 17:39:43 GMT 48.891720 12.556217 36,050 296 351 -64
2020-01-27 17:39:37 GMT 48.887329 12.569909 36,050 296 351 -64
2020-01-27 17:39:34 GMT 48.885204 12.576599 36,050 296 351 -64
2020-01-27 17:39:31 GMT 48.882969 12.583682 36,050 296 351 0
2020-01-27 17:39:28 GMT 48.879181 12.595614 36,050 296 351 64
2020-01-27 17:39:25 GMT 48.879181 12.595614 36,050 296 351 64
2020-01-27 17:39:22 GMT 48.877167 12.601882 36,050 296 351 64
2020-01-27 17:39:19 GMT 48.874775 12.609414 36,050 296 351 64
2020-01-27 17:39:16 GMT 48.872540 12.616497 36,025 296 351 0
2020-01-27 17:39:13 GMT 48.870392 12.623150 36,025 296 351 0
2020-01-27 17:39:10 GMT 48.868698 12.628502 36,025 296 352 0
2020-01-27 17:39:07 GMT 48.866455 12.635615 36,025 296 352 0
2020-01-27 17:39:04 GMT 48.864441 12.641813 36,025 296 352 0
2020-01-27 17:39:01 GMT 48.859634 12.656954 36,025 296 353 128
2020-01-27 17:38:57 GMT 48.859634 12.656954 36,025 296 353 64
2020-01-27 17:38:53 GMT 48.856796 12.665898 36,025 296 354 64
2020-01-27 17:38:50 GMT 48.853828 12.675259 36,025 296 354 64
2020-01-27 17:38:46 GMT 48.851120 12.683716 36,025 296 354 0
2020-01-27 17:38:43 GMT 48.849266 12.689570 36,025 296 354 0
2020-01-27 17:38:40 GMT 48.847412 12.695336 36,025 296 354 -64
2020-01-27 17:38:37 GMT 48.845444 12.701604 36,025 296 354 -64
2020-01-27 17:38:34 GMT 48.843307 12.708291 36,025 296 354 -64
2020-01-27 17:38:31 GMT 48.840866 12.715900 36,025 296 354 0
2020-01-27 17:38:28 GMT 48.836185 12.730552 36,025 296 353 64
2020-01-27 17:38:25 GMT 48.836185 12.730552 36,025 296 353 64
2020-01-27 17:38:22 GMT 48.834641 12.735478 36,000 296 353 64
2020-01-27 17:38:19 GMT 48.832787 12.741249 36,000 296 353 128
2020-01-27 17:38:16 GMT 48.830784 12.747465 36,000 296 353 128
2020-01-27 17:38:13 GMT 48.828503 12.754621 36,000 296 353 0
2020-01-27 17:38:10 GMT 48.825382 12.764451 36,000 296 354 0
2020-01-27 17:38:07 GMT 48.823837 12.769353 36,000 296 354 0
2020-01-27 17:38:04 GMT 48.821381 12.776883 36,000 296 354 0
2020-01-27 17:38:01 GMT 48.819260 12.783579 36,000 296 351 0
2020-01-27 17:37:58 GMT 48.815144 12.796470 36,000 296 353 0
2020-01-27 17:37:52 GMT 48.812714 12.804002 36,000 296 353 0
2020-01-27 17:37:46 GMT 48.808720 12.816491 36,000 296 353 0
2020-01-27 17:37:43 GMT 48.806442 12.823580 36,000 296 352 0
2020-01-27 17:37:39 GMT 48.803879 12.831538 36,000 296 352 0
2020-01-27 17:37:36 GMT 48.802059 12.837308 36,000 296 352 0
2020-01-27 17:37:33 GMT 48.799896 12.844004 36,000 296 351 0
2020-01-27 17:37:30 GMT 48.797218 12.852414 36,000 296 351 0
2020-01-27 17:37:27 GMT 48.795544 12.857762 35,975 296 351 64
2020-01-27 17:37:23 GMT 48.792847 12.866117 35,975 296 352 0
2020-01-27 17:37:20 GMT 48.788422 12.879880 35,975 296 351 64
2020-01-27 17:37:14 GMT 48.786575 12.885625 35,975 296 351 64
2020-01-27 17:37:11 GMT 48.782185 12.899323 35,975 296 351 64
2020-01-27 17:37:08 GMT 48.780029 12.905907 35,975 296 351 64
2020-01-27 17:37:02 GMT 48.777622 12.913417 35,975 296 351 0
2020-01-27 17:36:58 GMT 48.774502 12.923174 35,975 296 351 0
2020-01-27 17:36:55 GMT 48.772614 12.928866 35,975 296 351 0
2020-01-27 17:36:52 GMT 48.770218 12.936401 35,975 296 351 0
2020-01-27 17:36:47 GMT 48.766823 12.946954 35,975 296 351 0
2020-01-27 17:36:44 GMT 48.764259 12.954905 35,975 296 351 64
2020-01-27 17:36:41 GMT 48.763096 12.958446 35,975 297 350 0
2020-01-27 17:36:38 GMT 48.760303 12.967264 35,975 297 350 0
2020-01-27 17:36:35 GMT 48.758148 12.973868 35,975 297 349 0
2020-01-27 17:36:31 GMT 48.751507 12.994513 35,950 297 350 0
2020-01-27 17:36:26 GMT 48.751507 12.994513 35,975 297 350 0
2020-01-27 17:36:23 GMT 48.748341 13.004199 35,975 297 350 0
2020-01-27 17:36:17 GMT 48.745102 13.014292 35,975 297 349 0
2020-01-27 17:36:14 GMT 48.743958 13.017813 35,975 297 348 0
2020-01-27 17:36:10 GMT 48.740425 13.028846 35,975 297 349 0
2020-01-27 17:36:06 GMT 48.737309 13.038459 35,975 297 349 0
2020-01-27 17:36:03 GMT 48.735863 13.042868 35,975 297 349 0
2020-01-27 17:36:00 GMT 48.733864 13.049011 35,975 296 349 0
2020-01-27 17:35:57 GMT 48.731461 13.056476 35,975 296 349 0
2020-01-27 17:35:52 GMT 48.727669 13.068310 35,975 296 349 -64
2020-01-27 17:35:49 GMT 48.726227 13.072719 35,975 296 349 0
2020-01-27 17:35:45 GMT 48.722992 13.082815 35,975 297 349 -64
2020-01-27 17:35:42 GMT 48.720596 13.090210 35,975 297 349 -64
2020-01-27 17:35:36 GMT 48.714916 13.107701 35,975 297 348 -64
2020-01-27 17:35:33 GMT 48.711750 13.117387 35,975 297 348 -64
2020-01-27 17:35:30 GMT 48.711750 13.117387 35,975 297 348 -64
2020-01-27 17:35:26 GMT 48.709351 13.124789 35,975 297 348 0
2020-01-27 17:35:23 GMT 48.707657 13.130000 35,975 297 348 0
2020-01-27 17:35:19 GMT 48.704674 13.139215 35,975 297 349 0
2020-01-27 17:35:16 GMT 48.702850 13.144930 35,975 297 349 0
2020-01-27 17:35:13 GMT 48.700287 13.152818 35,975 297 349 0
2020-01-27 17:35:10 GMT 48.698715 13.157573 35,975 297 349 0
2020-01-27 17:35:07 GMT 48.695873 13.166391 35,975 297 349 -64
2020-01-27 17:35:04 GMT 48.694153 13.171596 35,975 297 348 0
2020-01-27 17:35:01 GMT 48.691593 13.179546 35,975 297 349 0
2020-01-27 17:34:58 GMT 48.689636 13.185618 35,975 297 349 0
2020-01-27 17:34:54 GMT 48.686474 13.195303 35,975 297 350 0
2020-01-27 17:34:51 GMT 48.684631 13.200989 35,975 297 351 -64
2020-01-27 17:34:45 GMT 48.680511 13.213734 36,000 297 351 -64
2020-01-27 17:34:41 GMT 48.674183 13.233032 36,000 297 351 -64
2020-01-27 17:34:37 GMT 48.674183 13.233032 36,000 297 351 -64
2020-01-27 17:34:34 GMT 48.672043 13.239652 36,000 297 351 -64
2020-01-27 17:34:31 GMT 48.670624 13.244019 36,000 297 351 0
2020-01-27 17:34:28 GMT 48.667618 13.253270 36,000 297 351 0
2020-01-27 17:34:25 GMT 48.665771 13.258949 36,000 297 351 0
2020-01-27 17:34:21 GMT 48.662453 13.269099 36,000 297 351 0
2020-01-27 17:34:14 GMT 48.658585 13.280921 36,000 297 351 -64
2020-01-27 17:34:11 GMT 48.656445 13.287530 36,000 297 351 -64
2020-01-27 17:34:08 GMT 48.653561 13.296348 36,000 297 353 -128
2020-01-27 17:34:04 GMT 48.651279 13.303431 36,025 297 353 -128
2020-01-27 17:34:01 GMT 48.648952 13.310515 36,025 297 353 -128
2020-01-27 17:33:58 GMT 48.646500 13.318035 36,025 297 353 -64
2020-01-27 17:33:54 GMT 48.644211 13.325078 36,025 297 353 0
2020-01-27 17:33:51 GMT 48.641647 13.333036 36,025 297 353 0
2020-01-27 17:33:48 GMT 48.637619 13.345360 36,025 297 353 64
2020-01-27 17:33:45 GMT 48.637619 13.345360 36,025 297 353 64
2020-01-27 17:33:42 GMT 48.634846 13.353737 36,025 297 353 64
2020-01-27 17:33:39 GMT 48.633545 13.357755 36,025 297 353 64
2020-01-27 17:33:35 GMT 48.629791 13.369235 36,025 297 354 0
2020-01-27 17:33:32 GMT 48.627350 13.376722 36,025 297 354 -64
2020-01-27 17:33:24 GMT 48.622009 13.393179 36,025 297 355 -64
2020-01-27 17:33:21 GMT 48.619808 13.399851 36,025 297 355 -64
2020-01-27 17:33:17 GMT 48.617481 13.406934 36,050 297 355 -64
2020-01-27 17:33:14 GMT 48.614731 13.415363 36,050 297 355 -64
2020-01-27 17:33:11 GMT 48.612717 13.421631 36,050 297 355 0
2020-01-27 17:33:08 GMT 48.610546 13.428256 36,050 297 355 0
2020-01-27 17:33:05 GMT 48.608368 13.434941 36,050 297 355 0
2020-01-27 17:33:02 GMT 48.606171 13.441556 36,050 297 355 0
2020-01-27 17:32:58 GMT 48.603378 13.450012 36,050 297 355 64
2020-01-27 17:32:54 GMT 48.600449 13.458886 36,025 297 355 64
2020-01-27 17:32:51 GMT 48.596252 13.471768 36,025 296 356 0
2020-01-27 17:32:45 GMT 48.593307 13.481211 36,025 295 357 0
2020-01-27 17:32:42 GMT 48.591934 13.485718 36,025 288 357 64
2020-01-27 17:32:39 GMT 48.589409 13.494391 36,025 294 356 0
2020-01-27 17:32:36 GMT 48.586258 13.505859 36,025 292 357 0
2020-01-27 17:32:33 GMT 48.586258 13.505859 36,050 292 357 0
2020-01-27 17:32:30 GMT 48.584106 13.514240 36,025 292 357 0
2020-01-27 17:32:26 GMT 48.582230 13.521635 36,025 290 357 64
2020-01-27 17:32:23 GMT 48.580032 13.531001 36,025 289 357 64
2020-01-27 17:32:19 GMT 48.578568 13.537621 36,025 289 357 64
2020-01-27 17:32:16 GMT 48.577026 13.544769 36,025 288 357 64
2020-01-27 17:32:11 GMT 48.574036 13.559523 36,025 288 358 0
2020-01-27 17:32:08 GMT 48.571396 13.572380 36,025 288 358 0
2020-01-27 17:32:01 GMT 48.569302 13.582860 36,025 288 358 0
2020-01-27 17:31:58 GMT 48.567719 13.590522 36,025 288 357 64
2020-01-27 17:31:55 GMT 48.566551 13.596232 36,025 288 358 0
2020-01-27 17:31:52 GMT 48.564743 13.605300 36,025 288 358 64
2020-01-27 17:31:45 GMT 48.561943 13.619144 36,000 288 358 64
2020-01-27 17:31:42 GMT 48.559990 13.628612 36,000 288 358 0
2020-01-27 17:31:39 GMT 48.558746 13.634878 36,000 288 358 0
2020-01-27 17:31:35 GMT 48.556595 13.645372 36,000 288 358 -64
2020-01-27 17:31:31 GMT 48.555149 13.652464 36,000 288 357 0
2020-01-27 17:31:28 GMT 48.553894 13.658682 36,000 288 357 -64
2020-01-27 17:31:25 GMT 48.552261 13.666775 36,000 288 357 0
2020-01-27 17:31:21 GMT 48.550121 13.677256 36,000 288 357 0
2020-01-27 17:31:18 GMT 48.546211 13.696265 36,000 288 357 0
2020-01-27 17:31:14 GMT 48.546211 13.696265 36,000 288 357 0
2020-01-27 17:31:11 GMT 48.545517 13.699599 36,000 288 357 0
2020-01-27 17:31:08 GMT 48.543961 13.707205 36,000 288 358 0
2020-01-27 17:31:05 GMT 48.542404 13.714811 36,000 288 358 -64
2020-01-27 17:31:02 GMT 48.540951 13.721924 36,000 288 357 0
2020-01-27 17:30:59 GMT 48.538994 13.731465 36,000 288 357 0
2020-01-27 17:30:55 GMT 48.537643 13.738114 36,000 288 358 0
2020-01-27 17:30:52 GMT 48.535503 13.748595 36,000 288 357 0
2020-01-27 17:30:49 GMT 48.534340 13.754305 36,000 288 358 0
2020-01-27 17:30:43 GMT 48.529953 13.775729 36,000 288 358 0
2020-01-27 17:30:37 GMT 48.527309 13.788565 36,000 288 358 0
2020-01-27 17:30:31 GMT 48.525467 13.797631 36,000 288 358 0
2020-01-27 17:30:27 GMT 48.524052 13.804755 36,000 288 358 0
2020-01-27 17:30:24 GMT 48.521675 13.816247 36,000 288 358 0
2020-01-27 17:30:20 GMT 48.519836 13.825238 36,000 288 358 0
2020-01-27 17:30:16 GMT 48.518372 13.832438 36,000 288 358 0
2020-01-27 17:30:13 GMT 48.517090 13.838618 36,000 288 358 -64
2020-01-27 17:30:09 GMT 48.515064 13.848556 36,000 288 357 0
2020-01-27 17:30:06 GMT 48.513485 13.856145 36,000 288 357 0
2020-01-27 17:30:02 GMT 48.511414 13.866084 36,000 288 356 0
2020-01-27 17:29:59 GMT 48.510269 13.871718 36,000 288 355 0
2020-01-27 17:29:56 GMT 48.508408 13.880720 36,000 288 354 64
2020-01-27 17:29:53 GMT 48.507057 13.887297 36,000 288 353 -64
2020-01-27 17:29:50 GMT 48.505665 13.893874 36,000 288 353 -64
2020-01-27 17:29:46 GMT 48.503567 13.904138 36,000 288 352 0
2020-01-27 17:29:42 GMT 48.501892 13.912142 36,000 288 352 -64
2020-01-27 17:29:39 GMT 48.500263 13.920111 36,000 288 352 256
2020-01-27 17:29:35 GMT 48.496490 13.938411 36,000 288 352 64
2020-01-27 17:29:31 GMT 48.496490 13.938411 36,000 288 352 64
2020-01-27 17:29:27 GMT 48.495049 13.945409 36,000 288 352 64
2020-01-27 17:29:24 GMT 48.493141 13.954805 35,975 288 352 0
2020-01-27 17:29:21 GMT 48.491318 13.963693 35,975 288 353 128
2020-01-27 17:29:17 GMT 48.489349 13.973060 35,975 288 353 64
2020-01-27 17:29:14 GMT 48.488346 13.977790 36,000 288 353 -64
2020-01-27 17:29:11 GMT 48.486786 13.985244 36,000 288 354 -128
2020-01-27 17:29:08 GMT 48.485317 13.992318 36,000 288 353 -64
2020-01-27 17:29:05 GMT 48.482201 14.007279 36,025 288 352 -64
2020-01-27 17:29:01 GMT 48.482201 14.007279 36,000 288 352 -128
2020-01-27 17:28:58 GMT 48.480244 14.016603 36,000 288 352 -192
2020-01-27 17:28:55 GMT 48.479080 14.022169 36,025 288 352 64
2020-01-27 17:28:52 GMT 48.477219 14.031020 36,000 288 352 -192
2020-01-27 17:28:49 GMT 48.474194 14.045587 36,025 288 353 -192
2020-01-27 17:28:43 GMT 48.473541 14.048839 36,025 288 353 -192
2020-01-27 17:28:40 GMT 48.471771 14.057289 36,000 288 356 -64
2020-01-27 17:28:37 GMT 48.470398 14.063909 36,025 288 357 64
2020-01-27 17:28:34 GMT 48.468746 14.071896 36,025 288 358 64
2020-01-27 17:28:31 GMT 48.467350 14.078546 36,025 288 358 128
2020-01-27 17:28:28 GMT 48.465866 14.085670 36,025 288 359 192
2020-01-27 17:28:25 GMT 48.464230 14.093797 36,000 288 360 192
2020-01-27 17:28:22 GMT 48.462833 14.100446 36,000 288 362 192
2020-01-27 17:28:19 GMT 48.461018 14.109120 35,975 288 363 192
2020-01-27 17:28:16 GMT 48.459808 14.114974 35,950 288 366 192
2020-01-27 17:28:13 GMT 48.457760 14.124659 35,950 288 369 -192
2020-01-27 17:28:10 GMT 48.456848 14.129052 35,950 288 369 -192
2020-01-27 17:28:07 GMT 48.455017 14.137855 36,000 288 370 -448
2020-01-27 17:28:04 GMT 48.452362 14.150602 36,000 288 368 -128
2020-01-27 17:28:01 GMT 48.451126 14.156447 36,025 288 368 -256
2020-01-27 17:27:58 GMT 48.449295 14.165250 36,025 288 367 0
2020-01-27 17:27:55 GMT 48.449295 14.165250 36,025 288 367 -128
2020-01-27 17:27:52 GMT 48.447147 14.175471 36,025 288 367 -128
2020-01-27 17:27:49 GMT 48.446171 14.180386 36,025 288 372 -320
2020-01-27 17:27:45 GMT 48.444443 14.188702 36,000 288 369 0
2020-01-27 17:27:42 GMT 48.442909 14.195998 36,000 288 370 -64
2020-01-27 17:27:39 GMT 48.439545 14.212224 36,000 288 372 -320
2020-01-27 17:27:36 GMT 48.439545 14.212224 36,000 288 372 -320
2020-01-27 17:27:33 GMT 48.437557 14.221585 36,025 288 372 -448
2020-01-27 17:27:30 GMT 48.436386 14.227013 36,050 288 372 -64
2020-01-27 17:27:27 GMT 48.434738 14.234901 36,050 288 373 -64
2020-01-27 17:27:24 GMT 48.433182 14.242329 36,050 288 373 0
2020-01-27 17:27:21 GMT 48.431923 14.248183 36,050 288 373 -128
2020-01-27 17:27:18 GMT 48.430248 14.256134 36,050 288 373 0
2020-01-27 17:27:15 GMT 48.428513 14.264550 36,050 288 373 0
2020-01-27 17:27:12 GMT 48.424576 14.283283 36,050 288 373 64
2020-01-27 17:27:08 GMT 48.424576 14.283283 36,050 288 373 64
2020-01-27 17:27:05 GMT 48.423523 14.288213 36,050 288 374 0
2020-01-27 17:27:02 GMT 48.421730 14.296682 36,050 288 374 0
2020-01-27 17:26:58 GMT 48.419540 14.307016 36,050 288 374 64
2020-01-27 17:26:55 GMT 48.418121 14.313988 36,050 288 375 0
2020-01-27 17:26:52 GMT 48.416424 14.321980 36,050 288 375 0
2020-01-27 17:26:47 GMT 48.412373 14.341278 36,050 288 375 -64
2020-01-27 17:26:44 GMT 48.412373 14.341278 36,050 288 375 -64
2020-01-27 17:26:41 GMT 48.411022 14.347711 36,050 288 374 64
2020-01-27 17:26:38 GMT 48.409252 14.356167 36,050 288 374 64
2020-01-27 17:26:35 GMT 48.408180 14.361082 36,050 288 374 64
2020-01-27 17:26:32 GMT 48.406403 14.369483 36,050 288 374 192
2020-01-27 17:26:29 GMT 48.402737 14.386814 36,025 288 373 128
2020-01-27 17:26:26 GMT 48.402737 14.386814 36,025 288 373 128
2020-01-27 17:26:23 GMT 48.400036 14.399679 36,025 288 373 64
2020-01-27 17:26:16 GMT 48.397842 14.410048 35,975 288 373 64
2020-01-27 17:26:13 GMT 48.396378 14.416950 36,000 288 370 0
2020-01-27 17:26:10 GMT 48.394272 14.426809 36,000 288 373 128
2020-01-27 17:26:07 GMT 48.392494 14.435240 36,000 288 372 128
2020-01-27 17:26:04 GMT 48.391113 14.441599 36,000 288 372 128
2020-01-27 17:26:00 GMT 48.389053 14.451458 35,975 288 371 64
2020-01-27 17:25:55 GMT 48.385300 14.469135 35,975 288 370 0
2020-01-27 17:25:52 GMT 48.383930 14.475499 35,975 288 370 0
2020-01-27 17:25:46 GMT 48.382069 14.484245 35,975 288 369 -64
2020-01-27 17:25:42 GMT 48.379669 14.495474 35,975 288 369 -128
2020-01-27 17:25:39 GMT 48.376667 14.509615 36,000 288 368 -64
2020-01-27 17:25:35 GMT 48.374680 14.518855 36,000 288 366 0
2020-01-27 17:25:32 GMT 48.374680 14.518855 36,000 288 366 64
2020-01-27 17:25:29 GMT 48.373314 14.525155 36,000 288 366 64
2020-01-27 17:25:25 GMT 48.371498 14.533828 36,000 288 366 64
2020-01-27 17:25:22 GMT 48.369095 14.544983 36,000 288 366 64
2020-01-27 17:25:19 GMT 48.367962 14.550307 36,000 288 366 0
2020-01-27 17:25:15 GMT 48.366146 14.558981 36,000 288 366 -64
2020-01-27 17:25:12 GMT 48.364887 14.564835 36,000 288 366 -64
2020-01-27 17:25:09 GMT 48.362843 14.574448 36,000 288 366 -64
2020-01-27 17:25:05 GMT 48.360558 14.585146 36,000 288 366 0
2020-01-27 17:25:01 GMT 48.359207 14.591393 36,000 288 366 -64
2020-01-27 17:24:58 GMT 48.357254 14.600613 36,000 288 366 -64
2020-01-27 17:24:54 GMT 48.354080 14.615619 36,000 288 366 0
2020-01-27 17:24:51 GMT 48.354080 14.615619 36,000 288 366 0
2020-01-27 17:24:48 GMT 48.351791 14.626254 36,000 288 366 0
2020-01-27 17:24:45 GMT 48.350967 14.630127 36,000 288 367 0
2020-01-27 17:24:42 GMT 48.348450 14.641747 36,000 288 367 64
2020-01-27 17:24:39 GMT 48.347294 14.647088 36,000 288 367 64
2020-01-27 17:24:35 GMT 48.345428 14.655834 36,000 288 368 0
2020-01-27 17:24:32 GMT 48.343826 14.663156 36,000 288 369 -64
2020-01-27 17:24:29 GMT 48.341751 14.672892 36,000 288 370 -64
2020-01-27 17:24:26 GMT 48.340172 14.680192 36,000 288 370 -64
2020-01-27 17:24:23 GMT 48.339146 14.685107 36,000 288 370 -64
2020-01-27 17:24:20 GMT 48.336273 14.698299 36,000 288 370 0
2020-01-27 17:24:13 GMT 48.333984 14.709074 36,025 288 370 64
2020-01-27 17:24:10 GMT 48.332291 14.716820 36,025 288 369 0
2020-01-27 17:24:04 GMT 48.328903 14.732455 36,000 288 370 0
2020-01-27 17:24:01 GMT 48.327026 14.741187 36,000 288 370 0
2020-01-27 17:23:57 GMT 48.325459 14.748495 36,000 288 370 0
2020-01-27 17:23:54 GMT 48.323971 14.755361 36,000 288 371 64
2020-01-27 17:23:51 GMT 48.322403 14.762738 36,000 288 373 64
2020-01-27 17:23:48 GMT 48.318478 14.780948 36,000 288 373 64
2020-01-27 17:23:45 GMT 48.318478 14.780948 35,975 288 374 192
2020-01-27 17:23:42 GMT 48.317322 14.786330 35,975 288 375 0
2020-01-27 17:23:39 GMT 48.315964 14.792802 35,975 289 375 0
2020-01-27 17:23:36 GMT 48.314007 14.801692 35,975 288 376 -64
2020-01-27 17:23:33 GMT 48.311325 14.814078 35,975 289 375 0
2020-01-27 17:23:30 GMT 48.310982 14.815569 36,000 289 373 0
2020-01-27 17:23:26 GMT 48.307583 14.831326 36,000 289 373 -64
2020-01-27 17:23:23 GMT 48.305862 14.839132 36,000 288 369 64
2020-01-27 17:23:20 GMT 48.305862 14.839132 36,000 289 371 0
2020-01-27 17:23:17 GMT 48.303864 14.848445 36,000 288 369 64
2020-01-27 17:23:13 GMT 48.302044 14.856696 36,000 288 369 0
2020-01-27 17:23:09 GMT 48.299763 14.867393 36,000 288 366 128
2020-01-27 17:23:06 GMT 48.298321 14.874115 36,000 288 366 64
2020-01-27 17:23:03 GMT 48.296722 14.881404 36,000 288 366 0
2020-01-27 17:23:00 GMT 48.294846 14.890066 36,000 288 365 0
2020-01-27 17:22:56 GMT 48.292686 14.900208 35,975 288 365 0
2020-01-27 17:22:52 GMT 48.290592 14.909821 35,975 288 365 0
2020-01-27 17:22:46 GMT 48.286404 14.929119 36,000 289 364 0
2020-01-27 17:22:43 GMT 48.286404 14.929119 36,000 289 364 0
2020-01-27 17:22:39 GMT 48.283703 14.941551 36,000 289 363 0
2020-01-27 17:22:36 GMT 48.282444 14.947261 36,025 289 372 -1024
2020-01-27 17:22:33 GMT 48.279236 14.962041 36,000 289 360 -128
2020-01-27 17:22:30 GMT 48.279236 14.962041 36,000 289 360 -128
2020-01-27 17:22:27 GMT 48.278534 14.965403 36,000 289 360 -128
2020-01-27 17:22:24 GMT 48.276020 14.976750 36,000 289 359 -128
2020-01-27 17:22:21 GMT 48.274998 14.981521 36,025 288 359 -192
2020-01-27 17:22:18 GMT 48.272949 14.990917 36,025 288 358 -192
2020-01-27 17:22:15 GMT 48.271923 14.995687 36,050 288 358 -192
2020-01-27 17:22:12 GMT 48.270714 15.001325 36,050 288 357 -192
2020-01-27 17:22:09 GMT 48.268898 15.009782 36,050 289 357 -320
2020-01-27 17:22:06 GMT 48.267746 15.015001 36,050 289 357 -320
2020-01-27 17:22:03 GMT 48.265503 15.025353 36,075 289 358 -448
2020-01-27 17:22:00 GMT 48.264194 15.031465 36,100 289 359 -704
2020-01-27 17:21:57 GMT 48.262619 15.038593 36,100 289 360 -768
2020-01-27 17:21:54 GMT 48.260788 15.047114 36,150 289 362 -1088
2020-01-27 17:21:51 GMT 48.259216 15.054233 36,200 289 364 -1216
2020-01-27 17:21:48 GMT 48.257858 15.060495 36,225 289 364 -1216
2020-01-27 17:21:45 GMT 48.256470 15.066665 36,325 289 365 -1216
2020-01-27 17:21:42 GMT 48.255112 15.072890 36,350 289 365 -1216
2020-01-27 17:21:39 GMT 48.250744 15.092685 36,500 289 368 -1088
2020-01-27 17:21:35 GMT 48.250744 15.092685 36,550 289 387 -1152
2020-01-27 17:21:32 GMT 48.249439 15.098467 36,600 289 368 -1088
2020-01-27 17:21:28 GMT 48.247532 15.107213 36,625 289 369 -1088
2020-01-27 17:21:24 GMT 48.245388 15.116971 36,725 289 371 -1024
2020-01-27 17:21:21 GMT 48.243576 15.125216 36,825 289 372 -1024
2020-01-27 17:21:18 GMT 48.241898 15.133089 36,850 289 372 -1024
2020-01-27 17:21:15 GMT 48.238861 15.146837 36,900 289 374 -1088
2020-01-27 17:21:12 GMT 48.237244 15.154266 36,975 289 375 -1088
2020-01-27 17:21:09 GMT 48.237244 15.154266 37,025 289 377 -1088
2020-01-27 17:21:06 GMT 48.233799 15.170095 37,125 289 377 -1152
2020-01-27 17:21:03 GMT 48.233799 15.170095 37,150 289 380 -1216
2020-01-27 17:21:00 GMT 48.232132 15.177612 37,200 289 380 -1280
2020-01-27 17:20:57 GMT 48.230724 15.184117 37,250 289 380 -1280
2020-01-27 17:20:54 GMT 48.228882 15.192613 37,325 289 383 -1088
2020-01-27 17:20:51 GMT 48.227554 15.198669 37,350 289 387 -256
2020-01-27 17:20:48 GMT 48.225418 15.208258 37,450 289 385 -1088
2020-01-27 17:20:44 GMT 48.223278 15.217871 38,000 289 387 -1280
2020-01-27 17:20:41 GMT 48.221970 15.223952 37,550 289 387 -1280
2020-01-27 17:20:38 GMT 48.220413 15.231065 37,625 289 388 -1344
2020-01-27 17:20:35 GMT 48.218948 15.237676 37,725 289 387 -1344
2020-01-27 17:20:32 GMT 48.216900 15.246855 37,775 289 387 -1280
2020-01-27 17:20:29 GMT 48.214897 15.256034 37,875 289 386 -896
2020-01-27 17:20:25 GMT 48.212849 15.265142 37,925 289 386 -640
2020-01-27 17:20:21 GMT 48.209080 15.282416 37,975 289 387 -256
2020-01-27 17:20:15 GMT 48.205727 15.297667 38,050 289 387 -256
2020-01-27 17:20:09 GMT 48.203796 15.306350 38,025 289 393 64
2020-01-27 17:20:06 GMT 48.200279 15.322169 38,000 289 391 192
2020-01-27 17:20:03 GMT 48.200279 15.322169 38,000 289 392 128
2020-01-27 17:19:58 GMT 48.197067 15.336625 37,975 289 397 128
2020-01-27 17:19:55 GMT 48.195671 15.342841 37,975 289 399 128
2020-01-27 17:19:52 GMT 48.193996 15.350213 37,975 289 400 128
2020-01-27 17:19:49 GMT 48.190613 15.365507 38,000 289 403 -128
2020-01-27 17:19:46 GMT 48.190613 15.365507 38,000 289 403 -128
2020-01-27 17:19:42 GMT 48.188278 15.376070 38,000 289 403 -192
2020-01-27 17:19:39 GMT 48.186905 15.382409 38,025 289 403 -128
2020-01-27 17:19:36 GMT 48.184296 15.394029 38,025 289 402 0
2020-01-27 17:19:32 GMT 48.182312 15.402977 38,025 289 402 64
2020-01-27 17:19:28 GMT 48.180218 15.412517 38,025 289 402 0
2020-01-27 17:19:23 GMT 48.177189 15.426178 38,025 289 402 128
2020-01-27 17:19:20 GMT 48.174957 15.436214 38,025 289 402 192
2020-01-27 17:19:15 GMT 48.172348 15.447834 38,000 289 403 0
2020-01-27 17:19:11 GMT 48.168018 15.467449 38,000 289 403 -64
2020-01-27 17:19:07 GMT 48.168018 15.467449 38,000 289 403 64
2020-01-27 17:19:04 GMT 48.165413 15.479086 38,000 289 403 0
2020-01-27 17:19:01 GMT 48.162231 15.493328 38,000 289 403 64
2020-01-27 17:18:58 GMT 48.162231 15.493328 38,000 289 403 64
2020-01-27 17:18:55 GMT 48.160583 15.500723 38,000 289 403 64
2020-01-27 17:18:51 GMT 48.158707 15.509193 38,000 289 403 64
2020-01-27 17:18:48 GMT 48.157059 15.516609 38,000 289 403 64
2020-01-27 17:18:42 GMT 48.153030 15.534599 37,975 289 403 192
2020-01-27 17:18:39 GMT 48.150925 15.544075 37,950 289 403 192
2020-01-27 17:18:36 GMT 48.149632 15.549880 37,950 289 405 -128
2020-01-27 17:18:32 GMT 48.146793 15.562627 37,950 289 405 64
2020-01-27 17:18:29 GMT 48.145161 15.570021 37,950 289 405 -128
2020-01-27 17:18:23 GMT 48.139572 15.594955 37,950 289 404 64
2020-01-27 17:18:19 GMT 48.139572 15.594955 37,975 289 403 128
2020-01-27 17:18:16 GMT 48.136505 15.608688 37,950 289 403 128
2020-01-27 17:18:11 GMT 48.134224 15.618756 37,950 289 403 0
2020-01-27 17:18:08 GMT 48.132477 15.626678 37,950 289 404 -64
2020-01-27 17:18:02 GMT 48.129475 15.639813 37,950 289 403 -64
2020-01-27 17:17:59 GMT 48.127441 15.648788 37,950 289 403 -128
2020-01-27 17:17:56 GMT 48.126022 15.655106 37,950 289 403 -128
2020-01-27 17:17:53 GMT 48.123871 15.664650 37,975 289 402 -64
2020-01-27 17:17:49 GMT 48.121765 15.674126 37,975 289 402 -64
2020-01-27 17:17:45 GMT 48.119278 15.685167 37,975 289 403 -64
2020-01-27 17:17:41 GMT 48.117004 15.695206 37,975 289 402 64
2020-01-27 17:17:38 GMT 48.114624 15.705711 37,975 289 402 64
2020-01-27 17:17:32 GMT 48.111282 15.720474 37,975 289 403 0
2020-01-27 17:17:29 GMT 48.109737 15.727281 37,975 289 403 -64
2020-01-27 17:17:26 GMT 48.108292 15.733619 37,975 289 403 -64
2020-01-27 17:17:19 GMT 48.103313 15.755733 37,975 289 403 -64
2020-01-27 17:17:16 GMT 48.101635 15.763127 37,975 289 404 0
2020-01-27 17:17:11 GMT 48.099152 15.774239 37,975 289 404 -64
2020-01-27 17:17:08 GMT 48.096889 15.784255 37,975 289 404 -64
2020-01-27 17:17:05 GMT 48.095722 15.789537 38,025 289 405 -128
2020-01-27 17:17:01 GMT 48.093071 15.801157 38,000 289 405 -128
2020-01-27 17:16:58 GMT 48.091442 15.808622 38,000 289 405 -192
2020-01-27 17:16:54 GMT 48.089298 15.818129 38,000 289 404 -64
2020-01-27 17:16:51 GMT 48.086880 15.828693 38,025 289 404 -64
2020-01-27 17:16:48 GMT 48.085484 15.835031 38,025 289 404 64
2020-01-27 17:16:45 GMT 48.083679 15.842972 38,000 289 404 128
2020-01-27 17:16:41 GMT 48.080921 15.855103 38,000 289 405 128
2020-01-27 17:16:38 GMT 48.079475 15.861441 38,000 289 406 -64
2020-01-27 17:16:35 GMT 48.077682 15.869408 38,000 289 406 -64
2020-01-27 17:16:31 GMT 48.075073 15.881081 38,000 289 406 -64
2020-01-27 17:16:28 GMT 48.072876 15.890694 38,000 289 406 -64
2020-01-27 17:16:20 GMT 48.068527 15.909782 38,025 289 405 0
2020-01-27 17:16:17 GMT 48.066833 15.917130 38,000 289 405 0
2020-01-27 17:16:14 GMT 48.064682 15.926674 38,000 289 405 -64
2020-01-27 17:16:09 GMT 48.062115 15.937782 38,000 289 405 64
2020-01-27 17:16:06 GMT 48.059971 15.947289 38,000 289 405 64
2020-01-27 17:16:03 GMT 48.058640 15.953178 38,000 289 405 -64
2020-01-27 17:16:00 GMT 48.056107 15.964262 38,000 289 406 0
2020-01-27 17:15:57 GMT 48.054619 15.970600 38,000 289 405 -64
2020-01-27 17:15:54 GMT 48.052826 15.978584 38,000 289 406 -64
2020-01-27 17:15:48 GMT 48.048706 15.996574 38,000 289 407 0
2020-01-27 17:15:45 GMT 48.046967 16.004059 38,000 289 407 0
2020-01-27 17:15:39 GMT 48.043808 16.017792 38,000 289 407 64
2020-01-27 17:15:36 GMT 48.042343 16.024178 38,000 289 407 128
2020-01-27 17:15:33 GMT 48.040558 16.032150 38,000 289 407 128
2020-01-27 17:15:30 GMT 48.037861 16.043772 38,000 289 406 64
2020-01-27 17:15:27 GMT 48.036648 16.049124 38,000 289 407 0
2020-01-27 17:15:24 GMT 48.034229 16.059689 38,000 289 407 0
2020-01-27 17:15:20 GMT 48.032410 16.067711 38,000 289 407 0
2020-01-27 17:15:17 GMT 48.030087 16.077787 38,000 289 405 0
2020-01-27 17:15:14 GMT 48.028015 16.086800 38,000 289 406 0
2020-01-27 17:15:10 GMT 48.026222 16.094688 38,000 289 405 64
2020-01-27 17:15:07 GMT 48.023521 16.106310 38,000 289 403 64
2020-01-27 17:15:03 GMT 48.021103 16.116873 38,000 289 404 0
2020-01-27 17:14:59 GMT 48.019657 16.123211 38,000 289 404 64
2020-01-27 17:14:56 GMT 48.017239 16.133776 38,000 289 405 -64
2020-01-27 17:14:53 GMT 48.015656 16.140633 38,000 289 405 0
2020-01-27 17:14:48 GMT 48.010487 16.163355 38,000 289 405 0
2020-01-27 17:14:45 GMT 48.010487 16.163355 38,000 289 405 0
2020-01-27 17:14:42 GMT 48.008881 16.170227 38,000 289 404 64
2020-01-27 17:14:39 GMT 48.007416 16.176544 38,000 289 404 128
2020-01-27 17:14:36 GMT 48.005493 16.184990 38,000 290 405 1216
2020-01-27 17:14:33 GMT 48.003689 16.192862 37,975 289 403 512
2020-01-27 17:14:29 GMT 47.999546 16.210751 37,925 290 404 832
2020-01-27 17:14:26 GMT 47.999546 16.210751 37,875 290 405 1216
2020-01-27 17:14:23 GMT 47.996979 16.221794 37,600 289 404 320
2020-01-27 17:14:20 GMT 47.994049 16.234497 37,750 289 406 960
2020-01-27 17:14:17 GMT 47.994049 16.234497 37,725 290 407 768
2020-01-27 17:14:14 GMT 47.991623 16.245071 37,675 290 407 448
2020-01-27 17:14:11 GMT 47.990005 16.251947 37,650 289 407 64
2020-01-27 17:14:08 GMT 47.988419 16.258873 37,650 289 406 128
2020-01-27 17:14:05 GMT 47.986221 16.268349 37,650 289 406 128
2020-01-27 17:14:02 GMT 47.984299 16.276863 37,625 289 406 256
2020-01-27 17:13:57 GMT 47.981251 16.290049 37,625 289 404 320
2020-01-27 17:13:54 GMT 47.979904 16.295815 37,600 289 403 384
2020-01-27 17:13:51 GMT 47.978600 16.301598 37,600 289 403 384
2020-01-27 17:13:48 GMT 47.976643 16.309978 37,550 290 404 640
2020-01-27 17:13:44 GMT 47.973709 16.322584 37,525 290 404 640
2020-01-27 17:13:41 GMT 47.971619 16.331520 37,500 290 404 448
2020-01-27 17:13:37 GMT 47.967270 16.350403 37,475 290 403 0
2020-01-27 17:13:34 GMT 47.967270 16.350403 37,450 290 403 -64
2020-01-27 17:13:30 GMT 47.965424 16.358290 37,450 290 403 0
2020-01-27 17:13:25 GMT 47.962646 16.370316 37,475 290 401 256
2020-01-27 17:13:22 GMT 47.958626 16.387445 37,450 289 399 128
2020-01-27 17:13:16 GMT 47.956951 16.394699 37,425 289 399 64
2020-01-27 17:13:12 GMT 47.953217 16.410759 37,425 290 398 192
2020-01-27 17:13:06 GMT 47.950436 16.422659 37,425 290 396 320
2020-01-27 17:13:02 GMT 47.948524 16.430899 37,375 290 396 512
2020-01-27 17:12:59 GMT 47.946571 16.439138 37,375 290 396 576
2020-01-27 17:12:55 GMT 47.944195 16.449421 37,325 290 395 576
2020-01-27 17:12:52 GMT 47.940720 16.464317 37,300 290 395 512
2020-01-27 17:12:49 GMT 47.938065 16.475647 37,250 290 395 512
2020-01-27 17:12:45 GMT 47.938065 16.475647 37,225 290 395 512
2020-01-27 17:12:42 GMT 47.936371 16.482788 37,200 290 395 512
2020-01-27 17:12:39 GMT 47.934559 16.490479 37,175 290 395 512
2020-01-27 17:12:36 GMT 47.932186 16.500761 37,175 290 395 512
2020-01-27 17:12:33 GMT 47.931114 16.505409 37,100 290 394 704
2020-01-27 17:12:30 GMT 47.929688 16.511559 37,100 290 394 832
2020-01-27 17:12:27 GMT 47.927902 16.519213 37,050 290 394 960
2020-01-27 17:12:24 GMT 47.925529 16.529493 37,050 290 395 1024
2020-01-27 17:12:21 GMT 47.923573 16.537663 36,950 290 396 832
2020-01-27 17:12:17 GMT 47.920807 16.549530 36,875 290 396 576
2020-01-27 17:12:13 GMT 47.918964 16.557241 36,825 290 395 640
2020-01-27 17:12:10 GMT 47.917290 16.564425 36,825 290 395 704
2020-01-27 17:12:06 GMT 47.914635 16.575693 36,775 290 395 704
2020-01-27 17:12:03 GMT 47.912449 16.584919 36,725 290 395 768
2020-01-27 17:12:00 GMT 47.911003 16.591045 36,700 290 395 768
2020-01-27 17:11:56 GMT 47.909225 16.598763 36,650 290 395 832
2020-01-27 17:11:53 GMT 47.907532 16.605972 36,625 290 395 832
2020-01-27 17:11:50 GMT 47.905106 16.616203 36,550 290 395 832
2020-01-27 17:11:47 GMT 47.903278 16.623863 36,525 290 395 640
2020-01-27 17:11:44 GMT 47.901260 16.632614 36,475 290 395 512
2020-01-27 17:11:40 GMT 47.899109 16.641884 36,450 290 395 512
2020-01-27 17:11:36 GMT 47.895493 16.657196 36,400 290 395 896
2020-01-27 17:11:33 GMT 47.894989 16.659256 36,375 290 395 960
2020-01-27 17:11:30 GMT 47.892712 16.669006 36,300 290 395 1152
2020-01-27 17:11:27 GMT 47.890755 16.677176 36,275 290 396 960
2020-01-27 17:11:22 GMT 47.887867 16.689501 36,175 290 396 448
2020-01-27 17:11:19 GMT 47.886658 16.694641 36,125 290 395 192
2020-01-27 17:11:15 GMT 47.884003 16.705910 36,150 290 393 256
2020-01-27 17:11:11 GMT 47.881989 16.714600 36,125 290 393 256
2020-01-27 17:11:08 GMT 47.879490 16.725277 36,100 290 393 448
2020-01-27 17:11:03 GMT 47.876602 16.737530 36,075 290 392 832
2020-01-27 17:10:59 GMT 47.874695 16.745628 36,025 290 392 1088
2020-01-27 17:10:56 GMT 47.871185 16.760330 35,925 290 392 832
2020-01-27 17:10:50 GMT 47.869492 16.767471 35,900 290 392 640
2020-01-27 17:10:47 GMT 47.867664 16.775066 35,875 290 392 384
2020-01-27 17:10:43 GMT 47.865143 16.785736 35,825 290 391 128
2020-01-27 17:10:40 GMT 47.861526 16.800911 35,825 290 389 -64
2020-01-27 17:10:34 GMT 47.858917 16.811966 35,850 290 387 0
2020-01-27 17:10:31 GMT 47.857002 16.819927 35,825 290 385 0
2020-01-27 17:10:28 GMT 47.855186 16.827463 35,850 290 385 0
2020-01-27 17:10:25 GMT 47.853790 16.833448 35,825 290 384 64
2020-01-27 17:10:22 GMT 47.852348 16.839365 35,825 290 383 64
2020-01-27 17:10:19 GMT 47.849625 16.850761 35,825 290 382 0
2020-01-27 17:10:16 GMT 47.848812 16.854225 35,825 290 381 192
2020-01-27 17:10:13 GMT 47.846901 16.862112 35,825 290 379 768
2020-01-27 17:10:10 GMT 47.845272 16.869015 34,925 290 381 2176
2020-01-27 17:10:07 GMT 47.843491 16.876373 35,775 290 379 960
2020-01-27 17:10:02 GMT 47.840805 16.887606 35,700 290 379 1344
2020-01-27 17:09:59 GMT 47.838474 16.897467 35,600 290 380 1664
2020-01-27 17:09:56 GMT 47.837265 16.902395 35,550 290 380 1856
2020-01-27 17:09:52 GMT 47.834335 16.914757 35,375 290 383 2048
2020-01-27 17:09:47 GMT 47.829258 16.936199 35,050 290 387 1408
2020-01-27 17:09:43 GMT 47.829258 16.936199 35,075 290 387 1408
2020-01-27 17:09:40 GMT 47.826744 16.946693 34,950 290 388 1280
2020-01-27 17:09:32 GMT 47.822433 16.964745 34,825 290 389 1152
2020-01-27 17:09:29 GMT 47.820881 16.971342 34,775 290 389 1152
2020-01-27 17:09:26 GMT 47.819435 16.977398 34,675 290 390 896
2020-01-27 17:09:20 GMT 47.815620 16.993526 34,600 290 389 832
2020-01-27 17:09:17 GMT 47.813553 17.002098 34,575 290 389 832
2020-01-27 17:09:10 GMT 47.809479 17.019196 34,500 290 389 960
2020-01-27 17:09:06 GMT 47.807281 17.028259 34,400 290 390 1408
2020-01-27 17:09:02 GMT 47.804398 17.040344 34,275 290 390 1664
2020-01-27 17:08:59 GMT 47.802353 17.048950 34,150 290 392 1792
2020-01-27 17:08:52 GMT 47.798954 17.063175 33,950 290 394 1920
2020-01-27 17:08:49 GMT 47.796890 17.071793 33,825 290 396 1856
2020-01-27 17:08:45 GMT 47.794579 17.081488 33,825 290 396 1792
2020-01-27 17:08:42 GMT 47.791832 17.092825 33,650 290 397 1344
2020-01-27 17:08:39 GMT 47.790619 17.097965 33,600 290 398 1280
2020-01-27 17:08:36 GMT 47.785034 17.121025 33,425 290 398 1280
2020-01-27 17:08:30 GMT 47.783020 17.129265 33,325 290 398 1408
2020-01-27 17:08:27 GMT 47.783020 17.129265 33,325 290 399 1536
2020-01-27 17:08:20 GMT 47.778934 17.146349 33,125 290 401 1600
2020-01-27 17:08:17 GMT 47.775055 17.162361 32,950 290 402 1600
2020-01-27 17:08:11 GMT 47.773209 17.170153 32,850 290 403 1792
2020-01-27 17:08:08 GMT 47.770695 17.180574 32,775 290 402 1920
2020-01-27 17:08:05 GMT 47.769672 17.184731 32,700 290 404 1984
2020-01-27 17:08:02 GMT 47.767437 17.194166 32,450 290 405 1664
2020-01-27 17:07:58 GMT 47.765533 17.201981 32,450 290 405 1600
2020-01-27 17:07:55 GMT 47.759293 17.227690 31,975 290 408 1344
2020-01-27 17:07:49 GMT 47.759293 17.227690 32,200 290 408 1344
2020-01-27 17:07:46 GMT 47.757011 17.237198 32,050 290 408 1088
2020-01-27 17:07:39 GMT 47.752399 17.256142 32,000 290 408 832
2020-01-27 17:07:35 GMT 47.750244 17.265083 31,950 290 408 704
2020-01-27 17:07:27 GMT 47.744907 17.287058 31,800 290 406 1280
2020-01-27 17:07:24 GMT 47.743881 17.291313 31,775 290 406 1280
2020-01-27 17:07:21 GMT 47.741974 17.299171 31,725 290 407 1280
2020-01-27 17:07:18 GMT 47.739693 17.308537 31,575 290 406 1216
2020-01-27 17:07:15 GMT 47.734619 17.329523 31,400 290 405 1152
2020-01-27 17:07:10 GMT 47.734619 17.329523 31,500 290 405 1088
2020-01-27 17:07:07 GMT 47.732437 17.338417 31,450 290 405 1152
2020-01-27 17:07:04 GMT 47.730057 17.348328 31,350 290 405 1216
2020-01-27 17:07:00 GMT 47.728287 17.355652 31,200 290 405 1216
2020-01-27 17:06:56 GMT 47.725262 17.368258 31,250 290 405 1216
2020-01-27 17:06:53 GMT 47.723602 17.375084 31,175 290 405 1280
2020-01-27 17:06:48 GMT 47.721039 17.385521 31,000 290 407 1472
2020-01-27 17:06:45 GMT 47.718750 17.394928 30,975 290 407 1472
2020-01-27 17:06:42 GMT 47.716091 17.405935 30,750 290 407 1472
2020-01-27 17:06:37 GMT 47.713764 17.415373 30,725 290 408 1408
2020-01-27 17:06:34 GMT 47.711609 17.424316 30,725 290 408 1408
2020-01-27 17:06:27 GMT 47.707108 17.442698 30,525 290 408 1408
2020-01-27 17:06:24 GMT 47.705154 17.450615 30,450 290 408 1280
2020-01-27 17:06:20 GMT 47.702591 17.461121 30,100 290 408 896
2020-01-27 17:06:16 GMT 47.700401 17.470093 30,300 290 408 896
2020-01-27 17:06:13 GMT 47.698631 17.477417 30,250 290 408 768
2020-01-27 17:06:07 GMT 47.693893 17.496826 30,150 290 406 768
2020-01-27 17:06:04 GMT 47.692207 17.503614 30,100 290 405 896
2020-01-27 17:06:01 GMT 47.686249 17.528137 30,025 290 405 1088
2020-01-27 17:05:55 GMT 47.686249 17.528137 29,975 290 404 1088
2020-01-27 17:05:49 GMT 47.683086 17.541151 29,875 290 403 1152
2020-01-27 17:05:46 GMT 47.680756 17.550447 29,750 291 403 1408
2020-01-27 17:05:43 GMT 47.679268 17.556717 29,725 291 403 1344
2020-01-27 17:05:40 GMT 47.677094 17.565491 29,625 291 403 1408
2020-01-27 17:05:33 GMT 47.670097 17.594042 29,475 291 403 1280
2020-01-27 17:05:30 GMT 47.670097 17.594042 29,400 291 402 1088
2020-01-27 17:05:26 GMT 47.667938 17.602844 29,350 291 402 1024
2020-01-27 17:05:22 GMT 47.665375 17.613144 29,275 291 402 960
2020-01-27 17:05:15 GMT 47.661301 17.629623 29,200 291 400 640
2020-01-27 17:05:12 GMT 47.659561 17.636833 29,125 291 399 576
2020-01-27 17:05:09 GMT 47.657387 17.645521 29,125 290 397 576
2020-01-27 17:05:03 GMT 47.653385 17.661930 29,025 291 396 1216
2020-01-27 17:04:59 GMT 47.650871 17.672071 28,950 291 396 1536
2020-01-27 17:04:54 GMT 47.647980 17.683800 28,850 290 395 1856
2020-01-27 17:04:51 GMT 47.645844 17.692425 28,725 291 396 2112
2020-01-27 17:04:48 GMT 47.644352 17.698551 28,700 291 397 2304
2020-01-27 17:04:41 GMT 47.639839 17.716932 28,450 290 397 2432
2020-01-27 17:04:35 GMT 47.635509 17.734468 28,075 291 402 1920
2020-01-27 17:04:30 GMT 47.633331 17.743263 27,800 291 402 1344
2020-01-27 17:04:27 GMT 47.631271 17.751503 26,675 291 403 1536
2020-01-27 17:04:24 GMT 47.628338 17.763414 27,725 291 401 1216
2020-01-27 17:04:21 GMT 47.626694 17.770111 27,700 291 402 1152
2020-01-27 17:04:17 GMT 47.624756 17.777922 27,625 291 400 1024
2020-01-27 17:04:13 GMT 47.621964 17.789261 27,500 291 401 1280
2020-01-27 17:04:10 GMT 47.619911 17.797499 27,450 291 400 1024
2020-01-27 17:04:07 GMT 47.618099 17.804684 27,375 291 400 896
2020-01-27 17:04:04 GMT 47.616211 17.812340 27,350 291 399 704
2020-01-27 17:04:01 GMT 47.614281 17.820036 27,325 291 398 704
2020-01-27 17:03:54 GMT 47.609718 17.838415 27,225 291 396 1152
2020-01-27 17:03:51 GMT 47.605434 17.855600 27,050 291 395 1344
2020-01-27 17:03:47 GMT 47.605434 17.855600 27,075 291 395 1280
2020-01-27 17:03:44 GMT 47.603027 17.865211 27,025 291 394 1152
2020-01-27 17:03:40 GMT 47.601154 17.872784 26,925 291 394 1152
2020-01-27 17:03:37 GMT 47.599274 17.880386 26,825 291 393 1472
2020-01-27 17:03:33 GMT 47.596756 17.890480 26,750 291 393 1536
2020-01-27 17:03:30 GMT 47.595245 17.896523 26,700 291 393 1472
2020-01-27 17:03:26 GMT 47.592224 17.908607 26,600 291 392 1216
2020-01-27 17:03:23 GMT 47.590351 17.916166 26,525 291 391 1088
2020-01-27 17:03:20 GMT 47.588699 17.922684 26,425 291 391 1024
2020-01-27 17:03:16 GMT 47.585724 17.934700 26,375 291 389 1024
2020-01-27 17:03:10 GMT 47.582245 17.948639 26,275 291 387 1088
2020-01-27 17:03:06 GMT 47.580112 17.957083 26,225 291 386 1088
2020-01-27 17:03:03 GMT 47.577530 17.967453 26,100 291 385 1280
2020-01-27 17:02:59 GMT 47.575058 17.977341 26,050 291 384 1408
2020-01-27 17:02:54 GMT 47.571899 17.990112 25,925 291 383 1472
2020-01-27 17:02:51 GMT 47.570148 17.997013 25,850 291 383 1920
2020-01-27 17:02:48 GMT 47.568466 18.003914 25,775 291 383 1792
2020-01-27 17:02:44 GMT 47.566147 18.013283 25,650 291 383 1920
2020-01-27 17:02:41 GMT 47.564804 18.018677 24,525 291 384 2048
2020-01-27 17:02:38 GMT 47.563065 18.025543 25,500 291 384 2048
2020-01-27 17:02:34 GMT 47.560513 18.035889 25,350 291 384 1984
2020-01-27 17:02:31 GMT 47.558788 18.042789 25,275 291 384 1920
2020-01-27 17:02:28 GMT 47.556656 18.051155 25,150 291 385 1920
2020-01-27 17:02:25 GMT 47.555065 18.057581 25,050 291 385 1792
2020-01-27 17:02:22 GMT 47.552490 18.067909 24,825 291 385 1408
2020-01-27 17:02:19 GMT 47.550476 18.075806 24,850 291 384 1152
2020-01-27 17:02:15 GMT 47.548874 18.082228 24,750 291 383 1024
2020-01-27 17:02:11 GMT 47.546082 18.093452 24,675 291 380 1280
2020-01-27 17:02:08 GMT 47.544342 18.100319 24,650 291 380 1472
2020-01-27 17:02:05 GMT 47.542603 18.107117 24,575 291 380 1664
2020-01-27 17:02:01 GMT 47.539799 18.118357 24,475 291 380 1792
2020-01-27 17:01:58 GMT 47.536240 18.132454 24,325 291 380 1920
2020-01-27 17:01:55 GMT 47.534546 18.139252 24,175 291 380 2176
2020-01-27 17:01:52 GMT 47.532581 18.147091 24,125 291 380 2240
2020-01-27 17:01:49 GMT 47.530609 18.154907 23,950 291 381 1984
2020-01-27 17:01:46 GMT 47.528137 18.164658 23,875 291 381 2112
2020-01-27 17:01:42 GMT 47.528137 18.164658 23,800 291 381 1984
2020-01-27 17:01:39 GMT 47.526390 18.171457 23,725 291 381 1984
2020-01-27 17:01:36 GMT 47.524704 18.178322 23,575 291 381 1984
2020-01-27 17:01:32 GMT 47.522003 18.189102 23,400 291 381 1856
2020-01-27 17:01:29 GMT 47.519966 18.196951 23,400 291 381 1856
2020-01-27 17:01:25 GMT 47.517563 18.206680 23,200 291 381 1600
2020-01-27 17:01:22 GMT 47.515217 18.215965 23,100 291 380 1600
2020-01-27 17:01:18 GMT 47.513355 18.223221 22,950 291 380 1664
2020-01-27 17:01:14 GMT 47.511154 18.232018 22,925 291 380 1728
2020-01-27 17:01:10 GMT 47.508560 18.242165 22,825 291 380 1728
2020-01-27 17:01:07 GMT 47.506886 18.248995 22,700 291 379 1536
2020-01-27 17:01:02 GMT 47.502823 18.264908 22,550 291 377 1600
2020-01-27 17:00:59 GMT 47.502090 18.267792 22,375 291 376 1664
2020-01-27 17:00:56 GMT 47.500351 18.274590 22,425 291 376 1728
2020-01-27 17:00:53 GMT 47.497925 18.284203 22,300 291 375 1728
2020-01-27 17:00:50 GMT 47.495621 18.293293 22,200 291 375 1728
2020-01-27 17:00:46 GMT 47.493805 18.300476 22,125 291 374 1664
2020-01-27 17:00:43 GMT 47.491989 18.307659 22,025 291 373 1600
2020-01-27 17:00:40 GMT 47.490543 18.313364 21,975 291 373 1600
2020-01-27 17:00:37 GMT 47.487991 18.323410 21,850 291 372 1664
2020-01-27 17:00:33 GMT 47.486526 18.329109 21,725 291 371 1728
2020-01-27 17:00:29 GMT 47.483643 18.340508 21,500 291 370 1920
2020-01-27 17:00:25 GMT 47.481606 18.348576 21,575 291 370 1856
2020-01-27 17:00:21 GMT 47.476578 18.368366 21,325 291 369 1920
2020-01-27 17:00:18 GMT 47.474438 18.376886 21,150 291 369 1856
2020-01-27 17:00:13 GMT 47.474438 18.376886 21,125 291 368 1792
2020-01-27 17:00:10 GMT 47.470295 18.393295 20,975 291 367 1920
2020-01-27 17:00:07 GMT 47.470295 18.393295 20,875 291 367 2112
2020-01-27 17:00:03 GMT 47.468124 18.401756 20,800 291 367 2304
2020-01-27 16:59:59 GMT 47.465359 18.412594 20,600 291 367 2368
2020-01-27 16:59:53 GMT 47.462173 18.425240 20,400 291 367 1984
2020-01-27 16:59:49 GMT 47.457413 18.443916 20,225 291 366 1920
2020-01-27 16:59:46 GMT 47.457413 18.443916 20,125 291 365 1920
2020-01-27 16:59:43 GMT 47.456329 18.448158 20,075 291 364 1984
2020-01-27 16:59:37 GMT 47.452045 18.464848 19,825 291 363 2048
2020-01-27 16:59:33 GMT 47.450272 18.471794 19,725 291 363 2240
2020-01-27 16:59:29 GMT 47.447708 18.482025 19,550 291 362 2240
2020-01-27 16:59:25 GMT 47.445435 18.490765 19,400 291 362 2304
2020-01-27 16:59:22 GMT 47.444038 18.496328 19,325 291 362 2240
2020-01-27 16:59:19 GMT 47.442032 18.504204 19,200 291 362 2304
2020-01-27 16:59:16 GMT 47.440037 18.512033 19,100 291 362 2304
2020-01-27 16:59:12 GMT 47.438171 18.519428 18,925 290 361 2176
2020-01-27 16:59:09 GMT 47.435986 18.528725 18,775 288 360 1984
2020-01-27 16:59:06 GMT 47.434959 18.533373 18,650 287 358 1984
2020-01-27 16:59:02 GMT 47.432922 18.543205 17,925 284 357 2624
2020-01-27 16:58:58 GMT 47.431000 18.553574 18,450 285 358 2176
2020-01-27 16:58:55 GMT 47.429749 18.560698 18,275 284 357 2496
2020-01-27 16:58:52 GMT 47.428574 18.567787 18,200 284 357 2496
2020-01-27 16:58:48 GMT 47.427235 18.575838 17,975 284 357 2560
2020-01-27 16:58:45 GMT 47.425652 18.585276 17,975 284 357 2560
2020-01-27 16:58:42 GMT 47.424637 18.591408 17,775 284 357 2560
2020-01-27 16:58:38 GMT 47.423092 18.600346 17,600 284 357 2496
2020-01-27 16:58:35 GMT 47.421741 18.608376 17,525 284 357 2432
2020-01-27 16:58:32 GMT 47.420715 18.614502 17,350 284 356 2112
2020-01-27 16:58:27 GMT 47.418530 18.627670 17,150 284 354 1920
2020-01-27 16:58:21 GMT 47.416580 18.639404 16,975 284 353 1984
2020-01-27 16:58:18 GMT 47.415161 18.647781 16,825 284 351 1984
2020-01-27 16:58:14 GMT 47.412758 18.662180 16,650 284 349 2176
2020-01-27 16:58:11 GMT 47.412506 18.663506 16,625 284 349 2176
2020-01-27 16:58:07 GMT 47.410892 18.673237 16,475 284 348 2368
2020-01-27 16:58:04 GMT 47.409264 18.682884 16,300 284 347 2560
2020-01-27 16:58:01 GMT 47.408661 18.686508 16,250 284 347 2688
2020-01-27 16:57:56 GMT 47.406647 18.698456 16,000 285 346 2880
2020-01-27 16:57:50 GMT 47.403534 18.716789 15,600 284 347 2944
2020-01-27 16:57:47 GMT 47.403076 18.719536 15,475 284 347 2944
2020-01-27 16:57:44 GMT 47.401955 18.726408 15,400 284 347 2944
2020-01-27 16:57:40 GMT 47.400787 18.733269 15,250 284 347 2880
2020-01-27 16:57:37 GMT 47.399303 18.741972 15,050 284 347 2688
2020-01-27 16:57:34 GMT 47.398045 18.749367 14,925 285 346 2496
2020-01-27 16:57:31 GMT 47.396976 18.755705 14,800 285 346 2368
2020-01-27 16:57:27 GMT 47.393902 18.773521 14,525 285 344 2304
2020-01-27 16:57:24 GMT 47.393902 18.773521 14,475 285 343 2304
2020-01-27 16:57:21 GMT 47.393112 18.778522 14,400 285 343 2304
2020-01-27 16:57:17 GMT 47.391449 18.787994 14,225 285 341 2368
2020-01-27 16:57:13 GMT 47.390179 18.795635 14,100 285 340 2496
2020-01-27 16:57:10 GMT 47.389023 18.802345 13,975 285 339 2688
2020-01-27 16:57:06 GMT 47.387569 18.810919 13,800 285 338 2752
2020-01-27 16:57:03 GMT 47.386223 18.818453 13,725 285 338 2752
2020-01-27 16:57:00 GMT 47.385040 18.825623 13,500 285 338 2752
2020-01-27 16:56:55 GMT 47.382774 18.838524 13,250 285 337 2752
2020-01-27 16:56:50 GMT 47.380554 18.851372 12,925 285 335 2688
2020-01-27 16:56:44 GMT 47.377842 18.866835 12,650 285 332 2368
2020-01-27 16:56:36 GMT 47.375748 18.878700 12,425 285 331 2240
2020-01-27 16:56:32 GMT 47.374023 18.888245 12,275 285 329 2304
2020-01-27 16:56:29 GMT 47.373230 18.892570 12,200 286 328 2304
2020-01-27 16:56:26 GMT 47.371170 18.903763 11,975 286 325 2304
2020-01-27 16:56:22 GMT 47.370209 18.908878 11,900 286 323 2432
2020-01-27 16:56:19 GMT 47.369247 18.913994 11,800 286 322 2624
2020-01-27 16:56:14 GMT 47.366913 18.926628 11,525 286 321 2752
2020-01-27 16:56:09 GMT 47.365265 18.935966 11,325 285 319 2432
2020-01-27 16:56:05 GMT 47.363983 18.943520 11,175 284 318 2176
2020-01-27 16:56:02 GMT 47.362335 18.955399 11,075 282 317 1792
2020-01-27 16:55:59 GMT 47.362152 18.957047 10,975 277 314 1344
2020-01-27 16:55:55 GMT 47.361786 18.964737 10,875 269 311 960
2020-01-27 16:55:52 GMT 47.362106 18.973106 10,825 261 306 960
2020-01-27 16:55:49 GMT 47.362713 18.978531 10,800 257 305 960
2020-01-27 16:55:44 GMT 47.364620 18.988037 10,725 248 301 1024
2020-01-27 16:55:41 GMT 47.366482 18.993954 10,675 242 298 1024
2020-01-27 16:55:37 GMT 47.370483 19.003120 10,575 233 294 1152
2020-01-27 16:55:33 GMT 47.373276 19.007996 10,500 228 291 1408
2020-01-27 16:55:28 GMT 47.380260 19.017122 10,300 216 286 2432
2020-01-27 16:55:25 GMT 47.383289 19.020292 10,175 209 285 2944
2020-01-27 16:55:22 GMT 47.383289 19.020292 10,050 211 285 2944
2020-01-27 16:55:18 GMT 47.388062 19.024406 10,000 207 284 2944
2020-01-27 16:55:14 GMT 47.395660 19.029831 9,675 206 284 3008
2020-01-27 16:55:11 GMT 47.398277 19.031630 9,550 206 281 3008
2020-01-27 16:55:08 GMT 47.399918 19.032784 9,475 206 282 3008
2020-01-27 16:55:05 GMT 47.404175 19.035736 9,075 206 281 3072
2020-01-27 16:55:00 GMT 47.410057 19.039728 9,150 205 280 3072
2020-01-27 16:54:55 GMT 47.415939 19.043701 8,750 205 279 3520
2020-01-27 16:54:50 GMT 47.423695 19.048883 8,350 204 278 3584
2020-01-27 16:54:45 GMT 47.427467 19.051350 8,175 204 278 3520
2020-01-27 16:54:42 GMT 47.431702 19.054096 7,950 204 278 3392
2020-01-27 16:54:37 GMT 47.436218 19.056953 7,725 204 278 3264
2020-01-27 16:54:34 GMT 47.439754 19.059168 7,575 203 276 3264
2020-01-27 16:54:31 GMT 47.443527 19.061491 7,400 203 276 3328
2020-01-27 16:54:27 GMT 47.447762 19.064096 7,000 203 273 3648
2020-01-27 16:54:24 GMT 47.451736 19.066566 7,000 203 273 3648
2020-01-27 16:54:21 GMT 47.455490 19.068832 6,800 203 273 3712
2020-01-27 16:54:15 GMT 47.463593 19.074026 6,150 206 271 4032
2020-01-27 16:54:10 GMT 47.467484 19.076729 6,125 207 272 4032
2020-01-27 16:54:06 GMT 47.471924 19.080162 5,850 209 272 3968
2020-01-27 16:54:01 GMT 47.478954 19.086632 5,425 216 271 3776
2020-01-27 16:53:56 GMT 47.482224 19.090599 5,200 224 270 3584
2020-01-27 16:53:53 GMT 47.485146 19.095154 5,000 231 268 3456
2020-01-27 16:53:50 GMT 47.487194 19.099310 4,825 240 266 2944
2020-01-27 16:53:46 GMT 47.489334 19.105013 4,625 247 263 2752
2020-01-27 16:53:43 GMT 47.490826 19.111071 4,475 254 260 2432
2020-01-27 16:53:40 GMT 47.491661 19.116564 4,350 263 255 2112
2020-01-27 16:53:36 GMT 47.492065 19.122391 4,225 269 251 1792
2020-01-27 16:53:33 GMT 47.491989 19.128183 4,125 287 233 1664
2020-01-27 16:53:29 GMT 47.491383 19.134029 4,025 282 239 1600
2020-01-27 16:53:23 GMT 47.489475 19.143818 3,875 287 233 1664
2020-01-27 16:53:19 GMT 47.488029 19.148958 3,750 294 222 1408
2020-01-27 16:53:16 GMT 47.486481 19.154182 3,675 295 215 832
2020-01-27 16:53:10 GMT 47.483704 19.162621 3,600 299 199 1088
2020-01-27 16:53:06 GMT 47.482178 19.166679 3,550 303 195 1216
2020-01-27 16:52:58 GMT 47.478333 19.174095 3,375 312 186 1280
2020-01-27 16:52:55 GMT 47.476627 19.176916 3,325 313 182 1280
2020-01-27 16:52:52 GMT 47.474258 19.180756 3,225 313 174 1216
2020-01-27 16:52:48 GMT 47.472702 19.183228 3,175 313 174 1152
2020-01-27 16:52:43 GMT 47.469727 19.188034 3,050 313 166 1280
2020-01-27 16:52:37 GMT 47.466614 19.192909 2,925 314 162 1664
2020-01-27 16:52:33 GMT 47.464600 19.196068 2,800 314 157 2496
2020-01-27 16:52:29 GMT 47.462219 19.199776 2,575 314 154 3328
2020-01-27 16:52:23 GMT 47.459541 19.203960 2,275 314 157 3456
2020-01-27 16:52:15 GMT 47.455627 19.210144 1,825 313 161 3072
2020-01-27 16:52:07 GMT 47.451736 19.216324 1,425 314 162 2944
2020-01-27 16:52:04 GMT 47.450089 19.218864 1,250 314 161 2944
2020-01-27 16:51:54 GMT 47.445248 19.226357 800 313 159 2496
2020-01-27 16:51:43 GMT 47.439388 19.235807 0 312 155
2020-01-27 16:51:34 GMT 47.435520 19.242079 0 312 120
2020-01-27 16:51:24 GMT 47.432499 19.246965 0 312 76
2020-01-27 16:50:18 GMT 47.430771 19.249763 0 309 0
2020-01-27 16:50:06 GMT 47.430645 19.249918 0 267 5
2020-01-27 16:50:01 GMT 47.430645 19.250090 0 233 5
2020-01-27 16:49:45 GMT 47.430935 19.250511 0 222 9
2020-01-27 16:49:41 GMT 47.431099 19.250723 0 222 13
2020-01-27 16:49:31 GMT 47.431435 19.251171 0 225 8
2020-01-27 16:49:21 GMT 47.431652 19.251480 0 222 6
2020-01-27 16:49:11 GMT 47.431808 19.251692 0 222 5
2020-01-27 16:49:00 GMT 47.431984 19.251926 0 222 6
2020-01-27 16:48:54 GMT 47.432121 19.252098 0 222 8
2020-01-27 16:48:50 GMT 47.432201 19.252218 0 222 7
2020-01-27 16:48:39 GMT 47.432320 19.252378 0 222 1
2020-01-27 16:48:30 GMT 47.432407 19.252510 0 222 5
2020-01-27 16:48:20 GMT 47.432579 19.252733 0 222 6
2020-01-27 16:48:10 GMT 47.432922 19.253197 0 222 12
2020-01-27 16:47:59 GMT 47.433262 19.253647 0 222 11
2020-01-27 16:47:49 GMT 47.433804 19.254381 0 222 19
2020-01-27 16:47:38 GMT 47.434402 19.255196 0 222 16
2020-01-27 16:47:29 GMT 47.434868 19.255823 0 222 13
2020-01-27 16:47:18 GMT 47.435268 19.256372 0 222 10
2020-01-27 16:47:06 GMT 47.435429 19.257025 0 295 8
2020-01-27 16:46:58 GMT 47.435265 19.257343 0 312 10
2020-01-27 16:44:40 GMT 47.434601 19.258717 0 312 0
2020-01-27 16:44:25 GMT 47.434589 19.258734 0 312 0
2020-01-27 16:43:55 GMT 47.434605 19.258724 0 312 0
2020-01-27 16:43:35 GMT 47.434601 19.258734 0 312 0
2020-01-27 16:43:04 GMT 47.434605 19.258724 0 312 0
2020-01-27 16:42:54 GMT 47.434559 19.258776 0 309 2

Making use of Plane Finder data

You are free to use the raw flight data, aircraft information and images provided in this report for your own purposes provided the data is correctly attributed to Plane Finder. We ask that you please credit Plane Finder and link to planefinder.net in close proximity to the content.

Optionally one of the following logos (no smaller then 150x24px) can be used and must link to planefinder.net

Embedding the Plane Finder map

You are welcome to embed the Plane Finder playback map on your website to offer visitors a more interactive experience. We suggest using the following HTML code:

<iframe src="//planefinder.net/data/report/BA867-G-EUUR-7700-squawk-2020-01-27/map" width="800" height="600" seamless="seamless"></iframe>

Where our data comes from

Plane Finder has a global network of data feeds and antenna radars that receive data broadcast directly from aircraft. The primary technologies used are ADS-B and MLAT. We also show feeds from the FAA and a FLARM glider feed.

Click here to find out more about the Plane Finder network.

How we collect our data